Provisional Data: Sing Sing Creek near Big Flats, NY


Please select a monitoring station.
Please select start date.
Please select start date.

Toggle Unit: C/F Toggle Unit: C/F
Sample Time Temperature (C) Temperature (F) Specific Conductivity (mS/cm) pH   Turbidity (NTU+) DO (mg/L)
4/13/2022 12:00:00 AM 11.95 53.51 0.342 7.59 4.21 9.61
4/13/2022 12:15:00 AM 11.86 53.348 0.343 7.59 5.88 9.6
4/13/2022 12:30:00 AM 11.77 53.186 0.221 7.58 5.78 9.6
4/13/2022 12:45:00 AM 11.68 53.024 0.344 7.59 3.65 9.63
4/13/2022 1:00:00 AM 11.59 52.862 0.345 7.57 3.86 9.63
4/13/2022 1:15:00 AM 11.5 52.7 0.345 7.57 4.03 9.63
4/13/2022 1:30:00 AM 11.42 52.556 0.347 7.57 6.04 9.62
4/13/2022 1:45:00 AM 11.32 52.376 0.343 7.57 5.94 9.62
4/13/2022 2:00:00 AM 11.23 52.214 0.192 7.56 5.93 9.63
4/13/2022 2:15:00 AM 11.13 52.034 0.349 7.57 4.45 9.68
4/13/2022 2:30:00 AM 11.03 51.854 0.349 7.57 4.1 9.7
4/13/2022 2:45:00 AM 10.93 51.674 0.35 7.56 3.99 9.7
4/13/2022 3:00:00 AM 10.83 51.494 0.351 7.57 4.05 9.74
4/13/2022 3:15:00 AM 10.74 51.332 0.351 7.56 4.63 9.76
4/13/2022 3:30:00 AM 10.66 51.188 0.352 7.56 5.8 9.77
4/13/2022 3:45:00 AM 10.56 51.008 0.353 7.56 3.8 9.81
4/13/2022 4:00:00 AM 10.47 50.846 0.354 7.56 4.17 9.83
4/13/2022 4:15:00 AM 10.39 50.702 0.355 7.56 6.02 9.85
4/13/2022 4:30:00 AM 10.3 50.54 0.355 7.56 3.93 9.89
4/13/2022 4:45:00 AM 10.22 50.396 0.353 7.56 5.86 9.9
4/13/2022 5:00:00 AM 10.14 50.252 0.357 7.56 5.71 9.92
4/13/2022 5:15:00 AM 10.06 50.108 0.358 7.56 4.15 9.94
4/13/2022 5:30:00 AM 9.98 49.964 0.359 7.56 4.18 9.97
4/13/2022 5:45:00 AM 9.9 49.82 0.354 7.56 5.59 9.99
4/13/2022 6:00:00 AM 9.81 49.658 0.36 7.56 4.09 10.04
4/13/2022 6:15:00 AM 9.74 49.532 0.356 7.57 5.91 10.07
4/13/2022 6:30:00 AM 9.65 49.37 0.361 7.57 9 10.09
4/13/2022 6:45:00 AM 9.58 49.244 0.362 7.57 5.44 10.15
4/13/2022 7:00:00 AM 9.51 49.118 0.362 7.57 6 10.14
4/13/2022 7:15:00 AM 9.44 48.992 0.363 7.57 4.16 10.16
4/13/2022 7:30:00 AM 9.37 48.866 0.364 7.57 3.88 10.2
4/13/2022 7:45:00 AM 9.32 48.776 0.365 7.57 4.41 10.26
4/13/2022 8:00:00 AM 9.27 48.686 0.365 7.58 5.74 10.32
4/13/2022 8:15:00 AM 9.21 48.578 0.366 7.59 3.84 10.37
4/13/2022 8:30:00 AM 9.16 48.488 0.367 7.6 3.79 10.44
4/13/2022 8:45:00 AM 9.12 48.416 0.367 7.6 3.59 10.49
4/13/2022 9:00:00 AM 9.09 48.362 0.368 7.6 3.62 10.55
4/13/2022 9:15:00 AM 9.05 48.29 0.368 7.61 4.09 10.62
4/13/2022 9:30:00 AM 9.04 48.272 0.368 7.61 3.77 10.71
4/13/2022 9:45:00 AM 9.06 48.308 0.369 7.63 3.47 10.78
4/13/2022 10:00:00 AM 9.08 48.344 0.369 7.64 3.43 10.85
4/13/2022 10:15:00 AM 9.08 48.344 0.369 7.65 3.37 10.93
4/13/2022 10:30:00 AM 9.12 48.416 0.37 7.65 3.39 11
4/13/2022 10:45:00 AM 9.22 48.596 0.37 7.66 3.4 11.11
4/13/2022 11:00:00 AM 9.35 48.83 0.37 7.67 5.09 11.19
4/13/2022 11:15:00 AM 9.48 49.064 0.37 7.69 3.15 11.31
4/13/2022 11:30:00 AM 9.55 49.19 0.37 7.71 3.19 11.39
4/13/2022 11:45:00 AM 9.7 49.46 0.37 7.72 3.2 11.49
4/13/2022 12:00:00 PM 9.97 49.946 0.37 7.74 3.27 11.58
4/13/2022 12:15:00 PM 10.18 50.324 0.37 7.75 3.09 11.68
4/13/2022 12:30:00 PM 10.41 50.738 0.37 7.77 6.06 11.76
4/13/2022 12:45:00 PM 10.68 51.224 0.37 7.78 8.58 11.79
4/13/2022 1:00:00 PM 10.87 51.566 0.37 7.8 3.75 11.86
4/13/2022 1:15:00 PM 10.97 51.746 0.372 7.8 3.32 11.87
4/13/2022 1:30:00 PM 11.04 51.872 0.372 7.83 3.03 11.87
4/13/2022 1:45:00 PM 11.09 51.962 0.373 7.82 3.47 11.82
4/13/2022 2:00:00 PM 11.18 52.124 0.372 7.84 3.2 11.82
4/13/2022 2:15:00 PM 11.3 52.34 0.372 7.84 3.42 11.8
4/13/2022 2:30:00 PM 11.36 52.448 0.372 7.86 3.01 11.78
4/13/2022 2:45:00 PM 11.41 52.538 0.364 7.87 4.89 11.74
4/13/2022 3:00:00 PM 11.49 52.682 0.372 7.88 5.06 11.75
4/13/2022 3:15:00 PM 11.57 52.826 0.372 7.89 2.97 11.76
4/13/2022 3:30:00 PM 11.67 53.006 0.372 7.9 3.03 11.72
4/13/2022 3:45:00 PM 11.77 53.186 0.372 7.91 2.94 11.71
4/13/2022 4:00:00 PM 11.87 53.366 0.373 7.9 2.94 11.7
4/13/2022 4:15:00 PM 11.93 53.474 0.373 7.91 3.07 11.66
4/13/2022 4:30:00 PM 11.97 53.546 0.373 7.91 5.07 11.57
4/13/2022 4:45:00 PM 12.02 53.636 0.374 7.9 3.15 11.54
4/13/2022 5:00:00 PM 12.11 53.798 0.375 7.9 2.91 11.49
4/13/2022 5:15:00 PM 12.16 53.888 0.37 7.91 5.12 11.43
4/13/2022 5:30:00 PM 12.19 53.942 0.375 7.91 2.94 11.37
4/13/2022 5:45:00 PM 12.21 53.978 0.375 7.9 3.04 11.32
4/13/2022 6:00:00 PM 12.23 54.014 0.369 7.89 5.87 11.24
4/13/2022 6:15:00 PM 12.25 54.05 0.376 7.89 4.97 11.17
4/13/2022 6:30:00 PM 12.26 54.068 0.375 7.89 4.88 11.11
4/13/2022 6:45:00 PM 12.27 54.086 0.375 7.88 3 11.02
4/13/2022 7:00:00 PM 12.29 54.122 0.374 7.88 2.81 10.96
4/13/2022 7:15:00 PM 12.31 54.158 0.375 7.87 3.12 10.87
4/13/2022 7:30:00 PM 12.32 54.176 0.368 7.85 4.84 10.77
4/13/2022 7:45:00 PM 12.33 54.194 0.375 7.83 2.89 10.68
4/13/2022 8:00:00 PM 12.32 54.176 0.365 7.82 4.89 10.58
4/13/2022 8:15:00 PM 12.32 54.176 0.375 7.81 4.82 10.47
4/13/2022 8:30:00 PM 12.32 54.176 0.376 7.79 4.71 10.37
4/13/2022 8:45:00 PM 12.32 54.176 0.376 7.79 4.66 10.3
4/13/2022 9:00:00 PM 12.32 54.176 0.376 7.77 3.1 10.22
4/13/2022 9:15:00 PM 12.32 54.176 0.37 7.75 4.94 10.13
4/13/2022 9:30:00 PM 12.31 54.158 0.377 7.74 5.1 10.02
4/13/2022 9:45:00 PM 12.3 54.14 0.377 7.72 3.21 9.96
4/13/2022 10:00:00 PM 12.3 54.14 0.371 7.71 5.39 9.87
4/13/2022 10:15:00 PM 12.31 54.158 0.376 7.7 3.4 9.8
4/13/2022 10:30:00 PM 12.31 54.158 0.376 7.69 3.28 9.71
4/13/2022 10:45:00 PM 12.31 54.158 0.375 7.67 3.3 9.65
4/13/2022 11:00:00 PM 12.31 54.158 0.375 7.66 3.54 9.6
4/13/2022 11:15:00 PM 12.31 54.158 0.374 7.65 3.34 9.55
4/13/2022 11:30:00 PM 12.31 54.158 0.377 7.64 3.57 9.51
4/13/2022 11:45:00 PM 12.3 54.14 0.375 7.64 5.32 9.46
4/14/2022 12:00:00 AM 12.28 54.104 0.375 7.64 3.47 9.45
4/14/2022 12:15:00 AM 12.26 54.068 0.376 7.63 3.28 9.45
4/14/2022 12:30:00 AM 12.23 54.014 0.377 7.62 5.34 9.4
4/14/2022 12:45:00 AM 12.19 53.942 0.376 7.63 3.46 9.41
4/14/2022 1:00:00 AM 12.15 53.87 0.376 7.62 3.27 9.41
4/14/2022 1:15:00 AM 12.11 53.798 0.377 7.62 3.47 9.4
4/14/2022 1:30:00 AM 12.08 53.744 0.377 7.62 5.06 9.38
4/14/2022 1:45:00 AM 12.04 53.672 0.378 7.61 3.52 9.37
4/14/2022 2:00:00 AM 12.01 53.618 0.379 7.61 3.92 9.37
4/14/2022 2:15:00 AM 11.98 53.564 0.379 7.6 3.43 9.36
4/14/2022 2:30:00 AM 11.94 53.492 0.379 7.6 3.66 9.37
4/14/2022 2:45:00 AM 11.89 53.402 0.379 7.6 5.53 9.37
4/14/2022 3:00:00 AM 11.84 53.312 0.372 7.6 5.34 9.39
4/14/2022 3:15:00 AM 11.79 53.222 0.381 7.59 3.59 9.39
4/14/2022 3:30:00 AM 11.74 53.132 0.38 7.59 3.88 9.4
4/14/2022 3:45:00 AM 11.67 53.006 0.379 7.59 3.66 9.42
4/14/2022 4:00:00 AM 11.61 52.898 0.38 7.58 5.45 9.41
4/14/2022 4:15:00 AM 11.54 52.772 0.381 7.59 3.75 9.43
4/14/2022 4:30:00 AM 11.48 52.664 0.381 7.58 5.48 9.43
4/14/2022 4:45:00 AM 11.41 52.538 0.381 7.58 3.59 9.46
4/14/2022 5:00:00 AM 11.34 52.412 0.381 7.58 5.37 9.46
4/14/2022 5:15:00 AM 11.27 52.286 0.382 7.57 5.43 9.46
4/14/2022 5:30:00 AM 11.2 52.16 0.381 7.57 5.09 9.49
4/14/2022 5:45:00 AM 11.14 52.052 0.381 7.57 5.06 9.52
4/14/2022 6:00:00 AM 11.07 51.926 0.382 7.57 3.81 9.54
4/14/2022 6:15:00 AM 10.99 51.782 0.383 7.56 3.57 9.55
4/14/2022 6:30:00 AM 10.92 51.656 0.381 7.57 5.71 9.56
4/14/2022 6:45:00 AM 10.85 51.53 0.382 7.57 3.79 9.59
4/14/2022 7:00:00 AM 10.78 51.404 0.382 7.57 3.82 9.62
4/14/2022 7:15:00 AM 10.72 51.296 0.382 7.57 3.81 9.63
4/14/2022 7:30:00 AM 10.65 51.17 0.383 7.57 5.44 9.65
4/14/2022 7:45:00 AM 10.59 51.062 0.383 7.57 4.38 9.69
4/14/2022 8:00:00 AM 10.54 50.972 0.383 7.58 4.07 9.73
4/14/2022 8:15:00 AM 10.5 50.9 0.382 7.58 6.67 9.76
4/14/2022 8:30:00 AM 10.49 50.882 0.383 7.58 4.03 9.82
4/14/2022 8:45:00 AM 10.46 50.828 0.382 7.59 4.69 9.88
4/14/2022 9:00:00 AM 10.46 50.828 0.383 7.59 4.53 9.93
4/14/2022 9:15:00 AM 10.45 50.81 0.382 7.6 3.13 10
4/14/2022 9:30:00 AM 10.47 50.846 0.382 7.61 3.25 10.09
4/14/2022 9:45:00 AM 10.5 50.9 0.383 7.61 2.97 10.17
4/14/2022 10:00:00 AM 10.52 50.936 0.383 7.62 2.86 10.26
4/14/2022 10:15:00 AM 10.6 51.08 0.383 7.64 2.95 10.33
4/14/2022 10:30:00 AM 10.68 51.224 0.382 7.64 2.93 10.45
4/14/2022 10:45:00 AM 10.78 51.404 0.382 7.66 2.85 10.56
4/14/2022 11:00:00 AM 10.91 51.638 0.359 7.67 4.66 10.69
4/14/2022 11:15:00 AM 10.96 51.728 0.292 7.69 4.93 10.78
4/14/2022 11:30:00 AM 11.02 51.836 0.382 7.7 2.91 10.83
4/14/2022 11:45:00 AM 11.05 51.89 0.372 7.71 4.84 10.91
4/14/2022 12:00:00 PM 11.12 52.016 0.383 7.73 5.05 10.97
4/14/2022 12:15:00 PM 11.21 52.178 0.382 7.75 2.65 11.01
4/14/2022 12:30:00 PM 11.3 52.34 0.382 7.75 2.69 11.06
4/14/2022 12:45:00 PM 11.39 52.502 0.382 7.76 3.36 11.11
4/14/2022 1:00:00 PM 11.45 52.61 0.382 7.78 2.93 11.14
4/14/2022 1:15:00 PM 11.53 52.754 0.382 7.79 2.86 11.18
4/14/2022 1:30:00 PM 11.58 52.844 0.372 7.81 4.99 11.24
4/14/2022 1:45:00 PM 11.64 52.952 0.381 7.82 3.14 11.25
4/14/2022 2:00:00 PM 11.68 53.024 0.381 7.84 2.88 11.31
4/14/2022 2:15:00 PM 11.7 53.06 0.381 7.86 2.98 11.31
4/14/2022 2:30:00 PM 11.72 53.096 0.381 7.85 2.85 11.3
4/14/2022 2:45:00 PM 11.75 53.15 0.381 7.86 2.85 11.3
4/14/2022 3:00:00 PM 11.8 53.24 0.382 7.87 4.85 11.32
4/14/2022 3:15:00 PM 11.84 53.312 0.381 7.89 2.97 11.3
4/14/2022 3:30:00 PM 11.87 53.366 0.382 7.89 3.12 11.3
4/14/2022 3:45:00 PM 11.88 53.384 0.382 7.87 3.04 11.34
4/14/2022 4:00:00 PM 11.91 53.438 0.212 7.88 4.73 11.36
4/14/2022 4:15:00 PM 11.93 53.474 0.382 7.89 2.76 11.35
4/14/2022 4:30:00 PM 11.96 53.528 0.382 7.92 2.65 11.37
4/14/2022 4:45:00 PM 11.95 53.51 0.359 7.91 4.72 11.39
4/14/2022 5:00:00 PM 11.93 53.474 0.383 7.94 2.82 11.37
4/14/2022 5:15:00 PM 11.93 53.474 0.384 7.93 3.01 11.38
4/14/2022 5:30:00 PM 11.94 53.492 0.385 7.93 4.56 11.39
4/14/2022 5:45:00 PM 11.97 53.546 0.384 7.94 4.58 11.39
4/14/2022 6:00:00 PM 11.95 53.51 0.384 7.94 2.65 11.36
4/14/2022 6:15:00 PM 11.93 53.474 0.385 7.94 4.66 11.33
4/14/2022 6:30:00 PM 11.89 53.402 0.384 7.94 2.69 11.29
4/14/2022 6:45:00 PM 11.83 53.294 0.378 7.94 4.61 11.26
4/14/2022 7:00:00 PM 11.76 53.168 0.384 7.93 2.59 11.19
4/14/2022 7:15:00 PM 11.71 53.078 0.384 7.93 2.65 11.13
4/14/2022 7:30:00 PM 11.67 53.006 0.384 7.91 5.07 11.08
4/14/2022 7:45:00 PM 11.6 52.88 0.384 7.93 2.64 11.03
4/14/2022 8:00:00 PM 11.53 52.754 0.384 7.9 2.78 10.94
4/14/2022 8:15:00 PM 11.48 52.664 0.384 7.89 2.85 10.85
4/14/2022 8:30:00 PM 11.41 52.538 0.385 7.87 4.94 10.78
4/14/2022 8:45:00 PM 11.34 52.412 0.386 7.85 3.02 10.69
4/14/2022 9:00:00 PM 11.27 52.286 0.387 7.85 3.11 10.63
4/14/2022 9:15:00 PM 11.2 52.16 0.389 7.83 4.99 10.55
4/14/2022 9:30:00 PM 11.13 52.034 0.388 7.82 3.18 10.51
4/14/2022 9:45:00 PM 11.06 51.908 0.387 7.81 2.98 10.43
4/14/2022 10:00:00 PM 10.98 51.764 0.386 7.79 3.35 10.36
4/14/2022 10:15:00 PM 10.89 51.602 0.386 7.78 3.36 10.31
4/14/2022 10:30:00 PM 10.8 51.44 0.386 7.75 5.02 10.25
4/14/2022 10:45:00 PM 10.7 51.26 0.385 7.75 3.13 10.19
4/14/2022 11:00:00 PM 10.61 51.098 0.363 7.73 5 10.15
4/14/2022 11:15:00 PM 10.51 50.918 0.384 7.72 3.28 10.1
4/14/2022 11:30:00 PM 10.41 50.738 0.384 7.7 5.17 10.07
4/14/2022 11:45:00 PM 10.31 50.558 0.383 7.69 3.49 10.04
4/15/2022 12:00:00 AM 10.22 50.396 0.383 7.69 5.05 10.03
4/15/2022 12:15:00 AM 10.11 50.198 0.382 7.68 3.15 10.01
4/15/2022 12:30:00 AM 10.02 50.036 0.382 7.67 3.26 9.99
4/15/2022 12:45:00 AM 9.92 49.856 0.383 7.65 3.22 9.98
4/15/2022 1:00:00 AM 9.82 49.676 0.383 7.66 3.25 10.01
4/15/2022 1:15:00 AM 9.73 49.514 0.383 7.65 4.88 10.02
4/15/2022 1:30:00 AM 9.63 49.334 0.382 7.65 3.06 10.04
4/15/2022 1:45:00 AM 9.54 49.172 0.382 7.65 3.26 10.05
4/15/2022 2:00:00 AM 9.45 49.01 0.382 7.65 3.23 10.05
4/15/2022 2:15:00 AM 9.35 48.83 0.382 7.63 3.15 10.05
4/15/2022 2:30:00 AM 9.26 48.668 0.383 7.64 2.99 10.07
4/15/2022 2:45:00 AM 9.17 48.506 0.383 7.63 2.93 10.1
4/15/2022 3:00:00 AM 9.08 48.344 0.383 7.63 4.96 10.12
4/15/2022 3:15:00 AM 8.99 48.182 0.383 7.63 3.22 10.13
4/15/2022 3:30:00 AM 8.9 48.02 0.383 7.64 3.31 10.15
4/15/2022 3:45:00 AM 8.81 47.858 0.383 7.63 3.29 10.17
4/15/2022 4:00:00 AM 8.73 47.714 0.384 7.63 3.35 10.15
4/15/2022 4:15:00 AM 8.64 47.552 0.384 7.62 3.25 10.2
4/15/2022 4:30:00 AM 8.55 47.39 0.384 7.63 3.27 10.25
4/15/2022 4:45:00 AM 8.47 47.246 0.385 7.62 3.78 10.25
4/15/2022 5:00:00 AM 8.38 47.084 0.385 7.62 3.21 10.29
4/15/2022 5:15:00 AM 8.29 46.922 0.385 7.62 3.35 10.31
4/15/2022 5:30:00 AM 8.2 46.76 0.385 7.62 3.4 10.34
4/15/2022 5:45:00 AM 8.11 46.598 0.386 7.62 3.37 10.36
4/15/2022 6:00:00 AM 8.02 46.436 0.386 7.62 3.32 10.39
4/15/2022 6:15:00 AM 7.93 46.274 0.386 7.61 3.51 10.43
4/15/2022 6:30:00 AM 7.84 46.112 0.387 7.61 3.41 10.47
4/15/2022 6:45:00 AM 7.76 45.968 0.387 7.62 4.43 10.49
4/15/2022 7:00:00 AM 7.68 45.824 0.388 7.62 3.83 10.52
4/15/2022 7:15:00 AM 7.59 45.662 0.388 7.63 3.55 10.58
4/15/2022 7:30:00 AM 7.51 45.518 0.389 7.62 3.24 10.61
4/15/2022 7:45:00 AM 7.45 45.41 0.389 7.62 3.69 10.64
4/15/2022 8:00:00 AM 7.38 45.284 0.234 7.62 3.75 10.7
4/15/2022 8:15:00 AM 7.31 45.158 0.391 7.64 3.33 10.75
4/15/2022 8:30:00 AM 7.24 45.032 0.391 7.64 3.21 10.81
4/15/2022 8:45:00 AM 7.18 44.924 0.392 7.65 3.15 10.87
4/15/2022 9:00:00 AM 7.14 44.852 0.392 7.64 3.29 10.91
4/15/2022 9:15:00 AM 7.11 44.798 0.393 7.65 3.37 10.98
4/15/2022 9:30:00 AM 7.12 44.816 0.394 7.66 3.09 11.07
4/15/2022 9:45:00 AM 7.15 44.87 0.394 7.66 4.76 11.11
4/15/2022 10:00:00 AM 7.18 44.924 0.394 7.67 3.05 11.21
4/15/2022 10:15:00 AM 7.22 44.996 0.395 7.68 3.01 11.26
4/15/2022 10:30:00 AM 7.31 45.158 0.395 7.69 3.49 11.36
4/15/2022 10:45:00 AM 7.47 45.446 0.395 7.7 3.27 11.46
4/15/2022 11:00:00 AM 7.64 45.752 0.395 7.71 3.14 11.58
4/15/2022 11:15:00 AM 7.85 46.13 0.395 7.72 3.29 11.69
4/15/2022 11:30:00 AM 8.06 46.508 0.395 7.74 2.97 11.78
4/15/2022 11:45:00 AM 8.29 46.922 0.396 7.76 3.07 11.89
4/15/2022 12:00:00 PM 8.52 47.336 0.396 7.77 2.96 11.99
4/15/2022 12:15:00 PM 8.79 47.822 0.396 7.79 3.03 12.05
4/15/2022 12:30:00 PM 9.03 48.254 0.396 7.81 3.01 12.11
4/15/2022 12:45:00 PM 9.3 48.74 0.397 7.82 3.02 12.16
4/15/2022 1:00:00 PM 9.54 49.172 0.399 7.84 2.99 12.2
4/15/2022 1:15:00 PM 9.65 49.37 0.397 7.85 3.13 12.21
4/15/2022 1:30:00 PM 9.74 49.532 0.398 7.86 3.46 12.25
4/15/2022 1:45:00 PM 9.84 49.712 0.397 7.87 2.95 12.25
4/15/2022 2:00:00 PM 9.99 49.982 0.398 7.88 3.06 12.24
4/15/2022 2:15:00 PM 10.26 50.468 0.398 7.9 2.89 12.28
4/15/2022 2:30:00 PM 10.59 51.062 0.398 7.91 3.05 12.28
4/15/2022 2:45:00 PM 10.83 51.494 0.356 7.92 4.66 12.26
4/15/2022 3:00:00 PM 10.93 51.674 0.4 7.94 2.85 12.27
4/15/2022 3:15:00 PM 11.05 51.89 0.399 7.95 2.91 12.25
4/15/2022 3:30:00 PM 11.12 52.016 0.4 7.96 3 12.23
4/15/2022 3:45:00 PM 11.19 52.142 0.4 7.96 2.85 12.2
4/15/2022 4:00:00 PM 11.36 52.448 0.4 7.97 2.64 12.16
4/15/2022 4:15:00 PM 11.48 52.664 0.401 7.97 3.09 12.12
4/15/2022 4:30:00 PM 11.5 52.7 0.401 7.98 2.82 12.06
4/15/2022 4:45:00 PM 11.47 52.646 0.401 7.97 2.92 11.95
4/15/2022 5:00:00 PM 11.45 52.61 0.402 7.97 2.6 11.9
4/15/2022 5:15:00 PM 11.49 52.682 0.402 7.97 2.68 11.86
4/15/2022 5:30:00 PM 11.51 52.718 0.402 7.97 2.58 11.81
4/15/2022 5:45:00 PM 11.53 52.754 0.402 7.97 2.5 11.74
4/15/2022 6:00:00 PM 11.55 52.79 0.402 7.97 4.48 11.68
4/15/2022 6:15:00 PM 11.57 52.826 0.401 7.98 2.65 11.66
4/15/2022 6:30:00 PM 11.59 52.862 0.402 7.97 2.8 11.58
4/15/2022 6:45:00 PM 11.61 52.898 0.402 7.97 4.3 11.49
4/15/2022 7:00:00 PM 11.61 52.898 0.402 7.96 2.85 11.41
4/15/2022 7:15:00 PM 11.62 52.916 0.402 7.96 2.82 11.33
4/15/2022 7:30:00 PM 11.62 52.916 0.402 7.95 2.6 11.21
4/15/2022 7:45:00 PM 11.61 52.898 0.403 7.92 2.62 11.08
4/15/2022 8:00:00 PM 11.58 52.844 0.403 7.92 2.69 11
4/15/2022 8:15:00 PM 11.54 52.772 0.403 7.9 3.08 10.89
4/15/2022 8:30:00 PM 11.51 52.718 0.404 7.89 2.72 10.81
4/15/2022 8:45:00 PM 11.47 52.646 0.405 7.86 2.66 10.68
4/15/2022 9:00:00 PM 11.42 52.556 0.405 7.85 2.86 10.61
4/15/2022 9:15:00 PM 11.38 52.484 0.406 7.84 2.66 10.53
4/15/2022 9:30:00 PM 11.34 52.412 0.406 7.83 2.84 10.47
4/15/2022 9:45:00 PM 11.31 52.358 0.406 7.83 2.88 10.4
4/15/2022 10:00:00 PM 11.28 52.304 0.406 7.81 2.95 10.31
4/15/2022 10:15:00 PM 11.24 52.232 0.407 7.8 2.74 10.24
4/15/2022 10:30:00 PM 11.2 52.16 0.407 7.79 3.19 10.17
4/15/2022 10:45:00 PM 11.17 52.106 0.407 7.78 2.77 10.11
4/15/2022 11:00:00 PM 11.13 52.034 0.408 7.77 2.79 10.04
4/15/2022 11:15:00 PM 11.09 51.962 0.408 7.75 3.06 9.98
4/15/2022 11:30:00 PM 11.05 51.89 0.409 7.74 3.17 9.9
4/15/2022 11:45:00 PM 11.01 51.818 0.409 7.73 2.93 9.84
4/16/2022 12:00:00 AM 10.99 51.782 0.409 7.72 3.1 9.79
4/16/2022 12:15:00 AM 10.95 51.71 0.41 7.7 2.87 9.74
4/16/2022 12:30:00 AM 10.92 51.656 0.411 7.7 3.13 9.71
4/16/2022 12:45:00 AM 10.87 51.566 0.41 7.68 4.59 9.67
4/16/2022 1:00:00 AM 10.83 51.494 0.411 7.68 2.97 9.67
4/16/2022 1:15:00 AM 10.8 51.44 0.412 7.68 2.78 9.64
4/16/2022 1:30:00 AM 10.75 51.35 0.412 7.68 2.83 9.62
4/16/2022 1:45:00 AM 10.7 51.26 0.414 7.67 2.64 9.61
4/16/2022 2:00:00 AM 10.65 51.17 0.397 7.66 4.57 9.62
4/16/2022 2:15:00 AM 10.6 51.08 0.415 7.66 2.91 9.62
4/16/2022 2:30:00 AM 10.55 50.99 0.414 7.66 2.89 9.64
4/16/2022 2:45:00 AM 10.51 50.918 0.416 7.65 3.02 9.63
4/16/2022 3:00:00 AM 10.46 50.828 0.414 7.65 4.79 9.64
4/16/2022 3:15:00 AM 10.41 50.738 0.415 7.65 2.79 9.66
4/16/2022 3:30:00 AM 10.36 50.648 0.416 7.65 2.95 9.67
4/16/2022 3:45:00 AM 10.32 50.576 0.416 7.65 2.79 9.68
4/16/2022 4:00:00 AM 10.27 50.486 0.416 7.65 2.98 9.69
4/16/2022 4:15:00 AM 10.23 50.414 0.417 7.65 2.78 9.7
4/16/2022 4:30:00 AM 10.19 50.342 0.415 7.65 4.83 9.72
4/16/2022 4:45:00 AM 10.15 50.27 0.417 7.65 2.99 9.72
4/16/2022 5:00:00 AM 10.11 50.198 0.417 7.65 3.01 9.74
4/16/2022 5:15:00 AM 10.07 50.126 0.418 7.65 3.09 9.74
4/16/2022 5:30:00 AM 10.03 50.054 0.418 7.65 2.88 9.74
4/16/2022 5:45:00 AM 9.99 49.982 0.418 7.65 2.9 9.75
4/16/2022 6:00:00 AM 9.96 49.928 0.418 7.65 2.94 9.76
4/16/2022 6:15:00 AM 9.92 49.856 0.418 7.65 3.13 9.78
4/16/2022 6:30:00 AM 9.88 49.784 0.418 7.64 4.71 9.79
4/16/2022 6:45:00 AM 9.85 49.73 0.42 7.65 3.23 9.8
4/16/2022 7:00:00 AM 9.81 49.658 0.419 7.64 4.67 9.82
4/16/2022 7:15:00 AM 9.78 49.604 0.42 7.65 3 9.82
4/16/2022 7:30:00 AM 9.74 49.532 0.42 7.65 2.87 9.86
4/16/2022 7:45:00 AM 9.72 49.496 0.421 7.64 2.61 9.89
4/16/2022 8:00:00 AM 9.69 49.442 0.421 7.65 5.63 9.91
4/16/2022 8:15:00 AM 9.66 49.388 0.422 7.65 3.88 9.96
4/16/2022 8:30:00 AM 9.64 49.352 0.422 7.66 3.08 9.99
4/16/2022 8:45:00 AM 9.62 49.316 0.423 7.66 3.01 10.04
4/16/2022 9:00:00 AM 9.59 49.262 0.423 7.66 3.87 10.06
4/16/2022 9:15:00 AM 9.57 49.226 0.424 7.67 2.85 10.12
4/16/2022 9:30:00 AM 9.55 49.19 0.425 7.67 3.02 10.18
4/16/2022 9:45:00 AM 9.52 49.136 0.425 7.68 3.14 10.24
4/16/2022 10:00:00 AM 9.49 49.082 0.426 7.68 2.62 10.3
4/16/2022 10:15:00 AM 9.46 49.028 0.427 7.69 3.03 10.32
4/16/2022 10:30:00 AM 9.43 48.974 0.426 7.7 2.47 10.42
4/16/2022 10:45:00 AM 9.39 48.902 0.426 7.7 2.69 10.49
4/16/2022 11:00:00 AM 9.36 48.848 0.428 7.71 2.62 10.54
4/16/2022 11:15:00 AM 9.32 48.776 0.427 7.71 4.6 10.6
4/16/2022 11:30:00 AM 9.28 48.704 0.428 7.72 2.82 10.64
4/16/2022 11:45:00 AM 9.24 48.632 0.427 7.73 2.85 10.68
4/16/2022 12:00:00 PM 9.21 48.578 0.384 7.73 4.55 10.79
4/16/2022 12:15:00 PM 9.16 48.488 0.427 7.74 3.01 10.8
4/16/2022 12:30:00 PM 9.1 48.38 0.424 7.75 4.03 10.87
4/16/2022 12:45:00 PM 9.05 48.29 0.424 7.76 5.37 10.92
4/16/2022 1:00:00 PM 9.01 48.218 0.425 7.76 6.39 10.98
4/16/2022 1:15:00 PM 8.98 48.164 0.421 7.78 5.81 11.07
4/16/2022 1:30:00 PM 8.95 48.11 0.425 7.78 6.37 11.09
4/16/2022 1:45:00 PM 8.91 48.038 0.425 7.78 7.25 11.13
4/16/2022 2:00:00 PM 8.87 47.966 0.425 7.79 6.72 11.2
4/16/2022 2:15:00 PM 8.82 47.876 0.425 7.79 9.97 11.21
4/16/2022 2:30:00 PM 8.75 47.75 0.432 7.8 28.2 11.22
4/16/2022 2:45:00 PM 8.74 47.732 0.431 7.78 16.76 11.24
4/16/2022 3:00:00 PM 8.75 47.75 0.427 7.79 13.7 11.28
4/16/2022 3:15:00 PM 8.78 47.804 0.423 7.81 12.7 11.36
4/16/2022 3:30:00 PM 8.76 47.768 0.421 7.8 10.1 11.31
4/16/2022 3:45:00 PM 8.72 47.696 0.418 7.8 10.63 11.33
4/16/2022 4:00:00 PM 8.68 47.624 0.414 7.81 10.19 11.34
4/16/2022 4:15:00 PM 8.68 47.624 0.412 7.82 9.8 11.4
4/16/2022 4:30:00 PM 8.69 47.642 0.41 7.83 10.12 11.44
4/16/2022 4:45:00 PM 8.71 47.678 0.408 7.83 9.32 11.5
4/16/2022 5:00:00 PM 8.7 47.66 0.405 7.84 9.05 11.52
4/16/2022 5:15:00 PM 8.67 47.606 0.404 7.84 8.83 11.49
4/16/2022 5:30:00 PM 8.67 47.606 0.402 7.84 8.77 11.5
4/16/2022 5:45:00 PM 8.7 47.66 0.4 7.85 8.89 11.54
4/16/2022 6:00:00 PM 8.72 47.696 0.397 7.85 8.57 11.58
4/16/2022 6:15:00 PM 8.74 47.732 0.396 7.85 7.79 11.61
4/16/2022 6:30:00 PM 8.74 47.732 0.396 7.86 7.87 11.63
4/16/2022 6:45:00 PM 8.74 47.732 0.394 7.86 8.16 11.62
4/16/2022 7:00:00 PM 8.74 47.732 0.392 7.85 8.71 11.58
4/16/2022 7:15:00 PM 8.73 47.714 0.391 7.84 9.02 11.54
4/16/2022 7:30:00 PM 8.72 47.696 0.388 7.83 8.77 11.5
4/16/2022 7:45:00 PM 8.69 47.642 0.383 7.82 8.72 11.45
4/16/2022 8:00:00 PM 8.65 47.57 0.377 7.81 9.91 11.41
4/16/2022 8:15:00 PM 8.62 47.516 0.37 7.79 10.61 11.34
4/16/2022 8:30:00 PM 8.57 47.426 0.363 7.77 10.96 11.3
4/16/2022 8:45:00 PM 8.53 47.354 0.356 7.74 11.83 11.25
4/16/2022 9:00:00 PM 8.48 47.264 0.351 7.73 11.99 11.19
4/16/2022 9:15:00 PM 8.43 47.174 0.348 7.71 13.03 11.14
4/16/2022 9:30:00 PM 8.38 47.084 0.351 7.7 12.88 11.08
4/16/2022 9:45:00 PM 8.34 47.012 0.359 7.69 12.64 11.02
4/16/2022 10:00:00 PM 8.31 46.958 0.372 7.67 14.19 10.96
4/16/2022 10:15:00 PM 8.27 46.886 0.382 7.66 14.44 10.91
4/16/2022 10:30:00 PM 8.23 46.814 0.382 7.65 15.08 10.87
4/16/2022 10:45:00 PM 8.19 46.742 0.372 7.64 14.85 10.84
4/16/2022 11:00:00 PM 8.15 46.67 0.358 7.63 13.69 10.82
4/16/2022 11:15:00 PM 8.1 46.58 0.343 7.62 13.62 10.81
4/16/2022 11:30:00 PM 8.04 46.472 0.329 7.6 13.4 10.81
4/16/2022 11:45:00 PM 7.97 46.346 0.319 7.58 13.23 10.83
4/17/2022 12:00:00 AM 7.91 46.238 0.312 7.57 13.68 10.84
4/17/2022 12:15:00 AM 7.84 46.112 0.306 7.57 12.08 10.87
4/17/2022 12:30:00 AM 7.78 46.004 0.301 7.56 11.75 10.88
4/17/2022 12:45:00 AM 7.71 45.878 0.297 7.55 11.43 10.88
4/17/2022 1:00:00 AM 7.66 45.788 0.293 7.54 11.44 10.89
4/17/2022 1:15:00 AM 7.61 45.698 0.29 7.54 11.58 10.9
4/17/2022 1:30:00 AM 7.55 45.59 0.289 7.54 11.49 10.91
4/17/2022 1:45:00 AM 7.49 45.482 0.288 7.53 10.97 10.92
4/17/2022 2:00:00 AM 7.44 45.392 0.289 7.53 11.14 10.92
4/17/2022 2:15:00 AM 7.39 45.302 0.29 7.53 10.13 10.93
4/17/2022 2:30:00 AM 7.35 45.23 0.291 7.54 10.05 10.94
4/17/2022 2:45:00 AM 7.3 45.14 0.294 7.54 10.88 10.95
4/17/2022 3:00:00 AM 7.25 45.05 0.297 7.55 9.24 10.96
4/17/2022 3:15:00 AM 7.2 44.96 0.3 7.55 9.76 10.97
4/17/2022 3:30:00 AM 7.16 44.888 0.304 7.56 9.55 10.98
4/17/2022 3:45:00 AM 7.11 44.798 0.307 7.56 9.17 11
4/17/2022 4:00:00 AM 7.06 44.708 0.31 7.57 9.21 10.99
4/17/2022 4:15:00 AM 7.01 44.618 0.313 7.57 8.38 10.99
4/17/2022 4:30:00 AM 6.96 44.528 0.315 7.57 8.49 11.01
4/17/2022 4:45:00 AM 6.91 44.438 0.317 7.58 7.8 11.02
4/17/2022 5:00:00 AM 6.86 44.348 0.32 7.58 7.87 11.03
4/17/2022 5:15:00 AM 6.81 44.258 0.321 7.58 7.5 11.04
4/17/2022 5:30:00 AM 6.77 44.186 0.323 7.58 7.67 11.05
4/17/2022 5:45:00 AM 6.73 44.114 0.324 7.58 7.55 11.06
4/17/2022 6:00:00 AM 6.68 44.024 0.326 7.58 7.29 11.08
4/17/2022 6:15:00 AM 6.63 43.934 0.327 7.58 7.46 11.09
4/17/2022 6:30:00 AM 6.59 43.862 0.328 7.59 7.18 11.11
4/17/2022 6:45:00 AM 6.54 43.772 0.33 7.59 7.14 11.12
4/17/2022 7:00:00 AM 6.49 43.682 0.331 7.59 12.45 11.12
4/17/2022 7:15:00 AM 6.45 43.61 0.332 7.59 6.37 11.15
4/17/2022 7:30:00 AM 6.41 43.538 0.333 7.59 5.97 11.19
4/17/2022 7:45:00 AM 6.39 43.502 0.334 7.6 5.73 11.21
4/17/2022 8:00:00 AM 6.37 43.466 0.335 7.6 6.37 11.27
4/17/2022 8:15:00 AM 6.35 43.43 0.337 7.6 5.59 11.31
4/17/2022 8:30:00 AM 6.32 43.376 0.337 7.61 5.03 11.35
4/17/2022 8:45:00 AM 6.3 43.34 0.338 7.61 5.23 11.41
4/17/2022 9:00:00 AM 6.29 43.322 0.339 7.61 5.03 11.47
4/17/2022 9:15:00 AM 6.29 43.322 0.34 7.63 5.29 11.54
4/17/2022 9:30:00 AM 6.31 43.358 0.342 7.63 4.64 11.6
4/17/2022 9:45:00 AM 6.28 43.304 0.342 7.63 4.82 11.66
4/17/2022 10:00:00 AM 6.28 43.304 0.344 7.64 4.6 11.73
4/17/2022 10:15:00 AM 6.29 43.322 0.344 7.65 4.4 11.81
4/17/2022 10:30:00 AM 6.31 43.358 0.345 7.64 4.15 11.89
4/17/2022 10:45:00 AM 6.35 43.43 0.346 7.59 4.34 11.98
4/17/2022 11:00:00 AM 6.52 43.736 0.347 7.62 5.02 12.08
4/17/2022 11:15:00 AM 6.58 43.844 0.347 7.65 3.7 12.16
4/17/2022 11:30:00 AM 6.65 43.97 0.348 7.68 3.73 12.25
4/17/2022 11:45:00 AM 6.68 44.024 0.349 7.71 4.04 12.32
4/17/2022 12:00:00 PM 6.69 44.042 0.35 7.73 3.71 12.39
4/17/2022 12:15:00 PM 6.78 44.204 0.35 7.75 3.92 12.44
4/17/2022 12:30:00 PM 6.85 44.33 0.351 7.77 3.93 12.5
4/17/2022 12:45:00 PM 6.97 44.546 0.352 7.79 3.59 12.53
4/17/2022 1:00:00 PM 7.02 44.636 0.352 7.8 3.66 12.57
4/17/2022 1:15:00 PM 7.22 44.996 0.353 7.82 3.55 12.63
4/17/2022 1:30:00 PM 7.34 45.212 0.354 7.83 3.47 12.65
4/17/2022 1:45:00 PM 7.49 45.482 0.354 7.84 3.34 12.67
4/17/2022 2:00:00 PM 7.52 45.536 0.355 7.85 3.34 12.68
4/17/2022 2:15:00 PM 7.68 45.824 0.355 7.86 3.35 12.72
4/17/2022 2:30:00 PM 7.77 45.986 0.356 7.87 3.22 12.72
4/17/2022 2:45:00 PM 7.98 46.364 0.356 7.88 3.43 12.74
4/17/2022 3:00:00 PM 8.14 46.652 0.357 7.89 3.38 12.74
4/17/2022 3:15:00 PM 8.3 46.94 0.357 7.9 3.32 12.75
4/17/2022 3:30:00 PM 8.44 47.192 0.358 7.91 3.31 12.73
4/17/2022 3:45:00 PM 8.57 47.426 0.359 7.92 3.13 12.72
4/17/2022 4:00:00 PM 8.73 47.714 0.359 7.93 3.39 12.69
4/17/2022 4:15:00 PM 8.83 47.894 0.36 7.94 3.15 12.68
4/17/2022 4:30:00 PM 8.9 48.02 0.361 7.94 3.27 12.64
4/17/2022 4:45:00 PM 8.91 48.038 0.361 7.94 3.29 12.6
4/17/2022 5:00:00 PM 8.98 48.164 0.362 7.95 3.07 12.57
4/17/2022 5:15:00 PM 9.06 48.308 0.363 7.95 3.28 12.55
4/17/2022 5:30:00 PM 9.08 48.344 0.364 7.95 3.06 12.51
4/17/2022 5:45:00 PM 9.08 48.344 0.364 7.96 3.2 12.48
4/17/2022 6:00:00 PM 9.11 48.398 0.365 7.96 2.87 12.44
4/17/2022 6:15:00 PM 9.12 48.416 0.365 7.96 3.12 12.38
4/17/2022 6:30:00 PM 9.14 48.452 0.366 7.96 2.79 12.31
4/17/2022 6:45:00 PM 9.16 48.488 0.366 7.95 2.84 12.25
4/17/2022 7:00:00 PM 9.15 48.47 0.367 7.95 2.72 12.17
4/17/2022 7:15:00 PM 9.11 48.398 0.368 7.94 3 12.09
4/17/2022 7:30:00 PM 9.1 48.38 0.368 7.93 2.79 12.01
4/17/2022 7:45:00 PM 9.07 48.326 0.369 7.93 2.8 11.92
4/17/2022 8:00:00 PM 9.02 48.236 0.369 7.92 3.05 11.83
4/17/2022 8:15:00 PM 8.97 48.146 0.37 7.9 2.96 11.75
4/17/2022 8:30:00 PM 8.9 48.02 0.371 7.89 2.84 11.67
4/17/2022 8:45:00 PM 8.84 47.912 0.371 7.88 3.02 11.6
4/17/2022 9:00:00 PM 8.77 47.786 0.372 7.86 2.75 11.53
4/17/2022 9:15:00 PM 8.7 47.66 0.372 7.86 3.06 11.47
4/17/2022 9:30:00 PM 8.62 47.516 0.373 7.84 3.07 11.39
4/17/2022 9:45:00 PM 8.53 47.354 0.373 7.82 3.07 11.33
4/17/2022 10:00:00 PM 8.46 47.228 0.374 7.81 3.5 11.26
4/17/2022 10:15:00 PM 8.37 47.066 0.375 7.8 3.25 11.2
4/17/2022 10:30:00 PM 8.28 46.904 0.375 7.78 3.08 11.13
4/17/2022 10:45:00 PM 8.2 46.76 0.376 7.77 3.28 11.06
4/17/2022 11:00:00 PM 8.12 46.616 0.377 7.75 2.83 11
4/17/2022 11:15:00 PM 8.04 46.472 0.377 7.75 2.75 10.96
4/17/2022 11:30:00 PM 7.97 46.346 0.379 7.73 3.03 10.91
4/17/2022 11:45:00 PM 7.89 46.202 0.379 7.72 3.07 10.88
4/18/2022 12:00:00 AM 7.82 46.076 0.379 7.71 3.13 10.86
4/18/2022 12:15:00 AM 7.73 45.914 0.38 7.71 2.87 10.84
4/18/2022 12:30:00 AM 7.65 45.77 0.381 7.7 2.75 10.84
4/18/2022 12:45:00 AM 7.57 45.626 0.381 7.69 2.9 10.83
4/18/2022 1:00:00 AM 7.49 45.482 0.382 7.69 2.9 10.82
4/18/2022 1:15:00 AM 7.41 45.338 0.382 7.68 3 10.83
4/18/2022 1:30:00 AM 7.33 45.194 0.383 7.68 3.02 10.84
4/18/2022 1:45:00 AM 7.25 45.05 0.384 7.68 3.19 10.85
4/18/2022 2:00:00 AM 7.17 44.906 0.384 7.67 2.85 10.86
4/18/2022 2:15:00 AM 7.1 44.78 0.385 7.67 2.93 10.87
4/18/2022 2:30:00 AM 7.02 44.636 0.386 7.67 3.12 10.89
4/18/2022 2:45:00 AM 6.94 44.492 0.386 7.66 3.16 10.9
4/18/2022 3:00:00 AM 6.86 44.348 0.387 7.66 3 10.92
4/18/2022 3:15:00 AM 6.78 44.204 0.388 7.66 2.8 10.93
4/18/2022 3:30:00 AM 6.71 44.078 0.388 7.66 2.97 10.95
4/18/2022 3:45:00 AM 6.63 43.934 0.389 7.66 2.82 10.97
4/18/2022 4:00:00 AM 6.56 43.808 0.389 7.65 3.16 10.99
4/18/2022 4:15:00 AM 6.48 43.664 0.39 7.65 2.95 11
4/18/2022 4:30:00 AM 6.41 43.538 0.391 7.65 2.83 11.01
4/18/2022 4:45:00 AM 6.33 43.394 0.391 7.65 2.84 11.04
4/18/2022 5:00:00 AM 6.26 43.268 0.391 7.65 2.8 11.06
4/18/2022 5:15:00 AM 6.18 43.124 0.392 7.61 2.82 11.08
4/18/2022 5:30:00 AM 6.1 42.98 0.393 7.62 2.93 11.11
4/18/2022 5:45:00 AM 6.02 42.836 0.393 7.62 3.08 11.13
4/18/2022 6:00:00 AM 5.95 42.71 0.394 7.62 2.91 11.16
4/18/2022 6:15:00 AM 5.87 42.566 0.394 7.62 2.73 11.18
4/18/2022 6:30:00 AM 5.8 42.44 0.395 7.62 3.03 11.2
4/18/2022 6:45:00 AM 5.72 42.296 0.396 7.61 3.24 11.24
4/18/2022 7:00:00 AM 5.66 42.188 0.397 7.61 3.62 11.26
4/18/2022 7:15:00 AM 5.58 42.044 0.397 7.61 3.18 11.3
4/18/2022 7:30:00 AM 5.51 41.918 0.398 7.61 2.97 11.34
4/18/2022 7:45:00 AM 5.45 41.81 0.398 7.61 3.26 11.38
4/18/2022 8:00:00 AM 5.38 41.684 0.398 7.62 2.73 11.43
4/18/2022 8:15:00 AM 5.33 41.594 0.399 7.63 3.1 11.49
4/18/2022 8:30:00 AM 5.28 41.504 0.399 7.63 2.94 11.54
4/18/2022 8:45:00 AM 5.24 41.432 0.4 7.63 2.86 11.61
4/18/2022 9:00:00 AM 5.21 41.378 0.4 7.64 4.38 11.67
4/18/2022 9:15:00 AM 5.18 41.324 0.4 7.65 2.95 11.75
4/18/2022 9:30:00 AM 5.2 41.36 0.4 7.67 2.68 11.83
4/18/2022 9:45:00 AM 5.23 41.414 0.4 7.68 2.9 11.9
4/18/2022 10:00:00 AM 5.27 41.486 0.4 7.69 2.97 11.97
4/18/2022 10:15:00 AM 5.33 41.594 0.401 7.7 2.89 12.07
4/18/2022 10:30:00 AM 5.42 41.756 0.401 7.72 2.88 12.17
4/18/2022 10:45:00 AM 5.53 41.954 0.401 7.73 2.86 12.26
4/18/2022 11:00:00 AM 5.64 42.152 0.401 7.74 2.98 12.36
4/18/2022 11:15:00 AM 5.77 42.386 0.401 7.76 2.5 12.46
4/18/2022 11:30:00 AM 5.94 42.692 0.401 7.78 2.52 12.56
4/18/2022 11:45:00 AM 6.09 42.962 0.401 7.79 2.55 12.63
4/18/2022 12:00:00 PM 6.21 43.178 0.402 7.81 2.51 12.71
4/18/2022 12:15:00 PM 6.33 43.394 0.403 7.81 2.59 12.75
4/18/2022 12:30:00 PM 6.45 43.61 0.402 7.84 2.53 12.85
4/18/2022 12:45:00 PM 6.58 43.844 0.402 7.85 2.51 12.9
4/18/2022 1:00:00 PM 6.7 44.06 0.402 7.87 2.34 12.93
4/18/2022 1:15:00 PM 6.82 44.276 0.402 7.88 2.48 12.97
4/18/2022 1:30:00 PM 6.92 44.456 0.403 7.89 2.55 12.98
4/18/2022 1:45:00 PM 6.98 44.564 0.403 7.9 2.6 12.99
4/18/2022 2:00:00 PM 7.04 44.672 0.403 7.92 2.66 12.99
4/18/2022 2:15:00 PM 7.1 44.78 0.403 7.93 2.59 13
4/18/2022 2:30:00 PM 7.15 44.87 0.403 7.94 2.59 13
4/18/2022 2:45:00 PM 7.2 44.96 0.404 7.94 2.52 13
4/18/2022 3:00:00 PM 7.24 45.032 0.403 7.95 2.66 12.99
4/18/2022 3:15:00 PM 7.27 45.086 0.404 7.96 2.72 12.98
4/18/2022 3:30:00 PM 7.32 45.176 0.404 7.97 2.49 12.98
4/18/2022 3:45:00 PM 7.38 45.284 0.405 7.97 11.36 12.96
4/18/2022 4:00:00 PM 7.4 45.32 0.404 7.98 2.94 12.93
4/18/2022 4:15:00 PM 7.4 45.32 0.405 7.99 3.01 12.88
4/18/2022 4:30:00 PM 7.41 45.338 0.405 7.99 2.86 12.84
4/18/2022 4:45:00 PM 7.39 45.302 0.405 7.99 2.81 12.78
4/18/2022 5:00:00 PM 7.37 45.266 0.406 7.98 2.79 12.72
4/18/2022 5:15:00 PM 7.33 45.194 0.405 7.98 2.98 12.64
4/18/2022 5:30:00 PM 7.29 45.122 0.406 7.97 3.1 12.58
4/18/2022 5:45:00 PM 7.25 45.05 0.405 7.97 2.89 12.51
4/18/2022 6:00:00 PM 7.22 44.996 0.405 7.96 3 12.45
4/18/2022 6:15:00 PM 7.18 44.924 0.405 7.95 2.94 12.38
4/18/2022 6:30:00 PM 7.15 44.87 0.405 7.94 2.96 12.3
4/18/2022 6:45:00 PM 7.12 44.816 0.405 7.94 2.97 12.25
4/18/2022 7:00:00 PM 7.11 44.798 0.404 7.93 2.84 12.17
4/18/2022 7:15:00 PM 7.09 44.762 0.405 7.92 2.9 12.09
4/18/2022 7:30:00 PM 7.07 44.726 0.404 7.91 3.08 12.02
4/18/2022 7:45:00 PM 7.04 44.672 0.405 7.9 3.01 11.94
4/18/2022 8:00:00 PM 7 44.6 0.405 7.89 3.08 11.88
4/18/2022 8:15:00 PM 6.97 44.546 0.405 7.87 3.36 11.79
4/18/2022 8:30:00 PM 6.91 44.438 0.405 7.86 3.16 11.7
4/18/2022 8:45:00 PM 6.87 44.366 0.404 7.84 3.17 11.62
4/18/2022 9:00:00 PM 6.83 44.294 0.405 7.83 3.84 11.55
4/18/2022 9:15:00 PM 6.79 44.222 0.404 7.81 3.98 11.47
4/18/2022 9:30:00 PM 6.75 44.15 0.404 7.8 4.12 11.4
4/18/2022 9:45:00 PM 6.71 44.078 0.404 7.78 3.61 11.35
4/18/2022 10:00:00 PM 6.66 43.988 0.403 7.77 3.71 11.31
4/18/2022 10:15:00 PM 6.63 43.934 0.402 7.76 3.8 11.26
4/18/2022 10:30:00 PM 6.62 43.916 0.401 7.76 3.65 11.24
4/18/2022 10:45:00 PM 6.61 43.898 0.4 7.75 3.71 11.22
4/18/2022 11:00:00 PM 6.61 43.898 0.399 7.74 3.68 11.19
4/18/2022 11:15:00 PM 6.61 43.898 0.399 7.74 3.7 11.17
4/18/2022 11:30:00 PM 6.59 43.862 0.398 7.73 3.71 11.15
4/18/2022 11:45:00 PM 6.56 43.808 0.398 7.72 3.85 11.12
4/19/2022 12:00:00 AM 6.5 43.7 0.397 7.72 3.75 11.11
4/19/2022 12:15:00 AM 6.43 43.574 0.396 7.71 4.03 11.1
4/19/2022 12:30:00 AM 6.37 43.466 0.396 7.71 3.48 11.09
4/19/2022 12:45:00 AM 6.3 43.34 0.4 7.7 3.65 11.09
4/19/2022 1:00:00 AM 6.24 43.232 0.403 7.69 7.15 11.1
4/19/2022 1:15:00 AM 6.17 43.106 0.403 7.69 4.11 11.1
4/19/2022 1:30:00 AM 6.11 42.998 0.4 7.69 3.9 11.11
4/19/2022 1:45:00 AM 6.05 42.89 0.397 7.68 4.2 11.13
4/19/2022 2:00:00 AM 6 42.8 0.393 7.67 4.24 11.14
4/19/2022 2:15:00 AM 5.95 42.71 0.389 7.67 3.85 11.15
4/19/2022 2:30:00 AM 5.91 42.638 0.387 7.66 4.02 11.17
4/19/2022 2:45:00 AM 5.86 42.548 0.384 7.66 4.07 11.18
4/19/2022 3:00:00 AM 5.79 42.422 0.382 7.65 3.99 11.19
4/19/2022 3:15:00 AM 5.73 42.314 0.382 7.64 3.91 11.21
4/19/2022 3:30:00 AM 5.66 42.188 0.381 7.64 4.26 11.23
4/19/2022 3:45:00 AM 5.57 42.026 0.382 7.64 4.37 11.23
4/19/2022 4:00:00 AM 5.47 41.846 0.384 7.64 4.45 11.24
4/19/2022 4:15:00 AM 5.38 41.684 0.388 7.64 4.19 11.26
4/19/2022 4:30:00 AM 5.33 41.594 0.394 7.63 4.51 11.27
4/19/2022 4:45:00 AM 5.29 41.522 0.401 7.63 4.68 11.28
4/19/2022 5:00:00 AM 5.25 41.45 0.408 7.62 4.52 11.26
4/19/2022 5:15:00 AM 5.21 41.378 0.411 7.62 4.96 11.26
4/19/2022 5:30:00 AM 5.17 41.306 0.413 7.61 5.16 11.26
4/19/2022 5:45:00 AM 5.13 41.234 0.411 7.61 5.28 11.27
4/19/2022 6:00:00 AM 5.1 41.18 0.408 7.61 5.25 11.28
4/19/2022 6:15:00 AM 5.07 41.126 0.406 7.62 4.62 11.31
4/19/2022 6:30:00 AM 5.03 41.054 0.402 7.61 5.24 11.32
4/19/2022 6:45:00 AM 4.98 40.964 0.4 7.62 4.86 11.35
4/19/2022 7:00:00 AM 4.94 40.892 0.398 7.62 4.48 11.37
4/19/2022 7:15:00 AM 4.89 40.802 0.396 7.61 4.51 11.39
4/19/2022 7:30:00 AM 4.84 40.712 0.394 7.62 4.6 11.42
4/19/2022 7:45:00 AM 4.81 40.658 0.392 7.62 4.52 11.47
4/19/2022 8:00:00 AM 4.79 40.622 0.389 7.62 4.52 11.52
4/19/2022 8:15:00 AM 4.77 40.586 0.386 7.62 4.5 11.57
4/19/2022 8:30:00 AM 4.79 40.622 0.384 7.62 4.18 11.63
4/19/2022 8:45:00 AM 4.81 40.658 0.383 7.62 4.02 11.68
4/19/2022 9:00:00 AM 4.82 40.676 0.381 7.63 4.25 11.73
4/19/2022 9:15:00 AM 4.83 40.694 0.38 7.64 4.18 11.8
4/19/2022 9:30:00 AM 4.85 40.73 0.379 7.64 4.41 11.86
4/19/2022 9:45:00 AM 4.91 40.838 0.379 7.65 4.05 11.94
4/19/2022 10:00:00 AM 4.98 40.964 0.379 7.66 3.82 12.02
4/19/2022 10:15:00 AM 4.96 40.928 0.38 7.67 4.42 12.09
4/19/2022 10:30:00 AM 4.99 40.982 0.381 7.68 3.84 12.17
4/19/2022 10:45:00 AM 5.04 41.072 0.382 7.68 4.04 12.25
4/19/2022 11:00:00 AM 5.11 41.198 0.384 7.7 4.25 12.35
4/19/2022 11:15:00 AM 5.19 41.342 0.387 7.71 4.21 12.43
4/19/2022 11:30:00 AM 5.28 41.504 0.389 7.72 4.15 12.52
4/19/2022 11:45:00 AM 5.36 41.648 0.39 7.73 4.22 12.59
4/19/2022 12:00:00 PM 5.41 41.738 0.388 7.74 4.39 12.64
4/19/2022 12:15:00 PM 5.52 41.936 0.385 7.75 4.26 12.7
4/19/2022 12:30:00 PM 5.58 42.044 0.382 7.76 4.16 12.74
4/19/2022 12:45:00 PM 5.64 42.152 0.38 7.77 4.32 12.78
4/19/2022 1:00:00 PM 5.71 42.278 0.379 7.78 4.07 12.83
4/19/2022 1:15:00 PM 5.86 42.548 0.378 7.79 4.21 12.85
4/19/2022 1:30:00 PM 5.91 42.638 0.379 7.8 4.11 12.88
4/19/2022 1:45:00 PM 5.96 42.728 0.379 7.81 4.14 12.9
4/19/2022 2:00:00 PM 6.04 42.872 0.38 7.82 4.08 12.93
4/19/2022 2:15:00 PM 6.19 43.142 0.38 7.83 3.86 12.93
4/19/2022 2:30:00 PM 6.27 43.286 0.38 7.83 4.06 12.94
4/19/2022 2:45:00 PM 6.34 43.412 0.378 7.84 4.47 12.95
4/19/2022 3:00:00 PM 6.42 43.556 0.376 7.85 4.25 12.96
4/19/2022 3:15:00 PM 6.45 43.61 0.374 7.86 4.37 12.95
4/19/2022 3:30:00 PM 6.51 43.718 0.372 7.87 4.2 12.94
4/19/2022 3:45:00 PM 6.59 43.862 0.37 7.87 4.17 12.94
4/19/2022 4:00:00 PM 6.66 43.988 0.369 7.88 4.48 12.91
4/19/2022 4:15:00 PM 6.68 44.024 0.367 7.88 4.27 12.88
4/19/2022 4:30:00 PM 6.72 44.096 0.365 7.88 4.21 12.86
4/19/2022 4:45:00 PM 6.73 44.114 0.362 7.89 4.48 12.84
4/19/2022 5:00:00 PM 6.8 44.24 0.36 7.89 4.71 12.8
4/19/2022 5:15:00 PM 6.85 44.33 0.359 7.89 4.56 12.78
4/19/2022 5:30:00 PM 6.88 44.384 0.357 7.89 4.73 12.74
4/19/2022 5:45:00 PM 6.91 44.438 0.356 7.89 4.59 12.69
4/19/2022 6:00:00 PM 6.94 44.492 0.356 7.89 4.86 12.66
4/19/2022 6:15:00 PM 6.95 44.51 0.355 7.89 5.21 12.61
4/19/2022 6:30:00 PM 6.96 44.528 0.355 7.88 5.21 12.58
4/19/2022 6:45:00 PM 6.95 44.51 0.355 7.87 5.42 12.51
4/19/2022 7:00:00 PM 6.94 44.492 0.355 7.87 5.09 12.45
4/19/2022 7:15:00 PM 6.94 44.492 0.353 7.86 5.81 12.39
4/19/2022 7:30:00 PM 6.94 44.492 0.352 7.85 5.49 12.33
4/19/2022 7:45:00 PM 6.94 44.492 0.349 7.84 5.31 12.26
4/19/2022 8:00:00 PM 6.92 44.456 0.346 7.83 5.95 12.16
4/19/2022 8:15:00 PM 6.88 44.384 0.344 7.82 6.29 12.13
4/19/2022 8:30:00 PM 6.85 44.33 0.343 7.81 5.43 12.04
4/19/2022 8:45:00 PM 6.81 44.258 0.343 7.8 7.46 11.98
4/19/2022 9:00:00 PM 6.78 44.204 0.343 7.78 6.28 11.9
4/19/2022 9:15:00 PM 6.75 44.15 0.342 7.77 7.17 11.81
4/19/2022 9:30:00 PM 6.73 44.114 0.341 7.76 7.06 11.73
4/19/2022 9:45:00 PM 6.72 44.096 0.339 7.74 6.75 11.66
4/19/2022 10:00:00 PM 6.69 44.042 0.337 7.72 7.29 11.59
4/19/2022 10:15:00 PM 6.66 43.988 0.335 7.7 7.58 11.54
4/19/2022 10:30:00 PM 6.62 43.916 0.332 7.68 7.51 11.5
4/19/2022 10:45:00 PM 6.57 43.826 0.329 7.67 7.33 11.48
4/19/2022 11:00:00 PM 6.51 43.718 0.327 7.66 7.45 11.45
4/19/2022 11:15:00 PM 6.45 43.61 0.324 7.64 7.2 11.45
4/19/2022 11:30:00 PM 6.39 43.502 0.32 7.64 7.49 11.45
4/19/2022 11:45:00 PM 6.34 43.412 0.317 7.62 6.91 11.44
4/20/2022 12:00:00 AM 6.29 43.322 0.314 7.61 7.66 11.44
4/20/2022 12:15:00 AM 6.23 43.214 0.311 7.6 8.05 11.45
4/20/2022 12:30:00 AM 6.17 43.106 0.308 7.6 7.66 11.46
4/20/2022 12:45:00 AM 6.11 42.998 0.306 7.58 8.2 11.47
4/20/2022 1:00:00 AM 6.04 42.872 0.304 7.58 8.71 11.5
4/20/2022 1:15:00 AM 5.97 42.746 0.301 7.57 8.17 11.52
4/20/2022 1:30:00 AM 5.91 42.638 0.3 7.56 8.54 11.55
4/20/2022 1:45:00 AM 5.84 42.512 0.298 7.55 8.48 11.56
4/20/2022 2:00:00 AM 5.77 42.386 0.297 7.55 8.62 11.58
4/20/2022 2:15:00 AM 5.7 42.26 0.295 7.54 8.27 11.61
4/20/2022 2:30:00 AM 5.65 42.17 0.295 7.54 8.27 11.62
4/20/2022 2:45:00 AM 5.59 42.062 0.294 7.53 7.9 11.64
4/20/2022 3:00:00 AM 5.52 41.936 0.293 7.53 7.68 11.65
4/20/2022 3:15:00 AM 5.46 41.828 0.293 7.51 7.47 11.68
4/20/2022 3:30:00 AM 5.4 41.72 0.293 7.51 7.35 11.71
4/20/2022 3:45:00 AM 5.35 41.63 0.294 7.5 7.88 11.73
4/20/2022 4:00:00 AM 5.3 41.54 0.295 7.5 7.54 11.74
4/20/2022 4:15:00 AM 5.25 41.45 0.296 7.5 7.71 11.77
4/20/2022 4:30:00 AM 5.21 41.378 0.297 7.5 7.38 11.78
4/20/2022 4:45:00 AM 5.15 41.27 0.299 7.5 7.84 11.8
4/20/2022 5:00:00 AM 5.11 41.198 0.3 7.5 7.75 11.81
4/20/2022 5:15:00 AM 5.08 41.144 0.301 7.5 7.29 11.82
4/20/2022 5:30:00 AM 5.05 41.09 0.303 7.5 6.91 11.83
4/20/2022 5:45:00 AM 5.02 41.036 0.304 7.5 6.7 11.84
4/20/2022 6:00:00 AM 4.99 40.982 0.305 7.5 6.9 11.85
4/20/2022 6:15:00 AM 4.96 40.928 0.306 7.5 7.05 11.85
4/20/2022 6:30:00 AM 4.94 40.892 0.307 7.5 6.95 11.86
4/20/2022 6:45:00 AM 4.92 40.856 0.308 7.51 6.7 11.87
4/20/2022 7:00:00 AM 4.89 40.802 0.309 7.5 6.84 11.89
4/20/2022 7:15:00 AM 4.88 40.784 0.31 7.51 6.3 11.91
4/20/2022 7:30:00 AM 4.86 40.748 0.311 7.51 6.03 11.92
4/20/2022 7:45:00 AM 4.84 40.712 0.312 7.52 6.03 11.94
4/20/2022 8:00:00 AM 4.82 40.676 0.313 7.52 5.97 11.97
4/20/2022 8:15:00 AM 4.8 40.64 0.314 7.52 5.73 12
4/20/2022 8:30:00 AM 4.77 40.586 0.315 7.53 6.04 12.03
4/20/2022 8:45:00 AM 4.75 40.55 0.316 7.54 5.32 12.07
4/20/2022 9:00:00 AM 4.74 40.532 0.317 7.54 5.51 12.11
4/20/2022 9:15:00 AM 4.75 40.55 0.317 7.56 6.05 12.18
4/20/2022 9:30:00 AM 4.79 40.622 0.318 7.56 5.57 12.21
4/20/2022 9:45:00 AM 4.84 40.712 0.318 7.58 5.49 12.29
4/20/2022 10:00:00 AM 4.9 40.82 0.319 7.6 5.36 12.36
4/20/2022 10:15:00 AM 5.03 41.054 0.319 7.61 5.04 12.44
4/20/2022 10:30:00 AM 5.16 41.288 0.32 7.63 5.06 12.53
4/20/2022 10:45:00 AM 5.32 41.576 0.32 7.64 5.36 12.59
4/20/2022 11:00:00 AM 5.47 41.846 0.32 7.66 4.87 12.65
4/20/2022 11:15:00 AM 5.66 42.188 0.321 7.67 5.12 12.72
4/20/2022 11:30:00 AM 5.87 42.566 0.321 7.69 5.02 12.78
4/20/2022 11:45:00 AM 6.08 42.944 0.322 7.7 4.84 12.82
4/20/2022 12:00:00 PM 6.3 43.34 0.323 7.71 5.09 12.85
4/20/2022 12:15:00 PM 6.53 43.754 0.324 7.72 5.06 12.89
4/20/2022 12:30:00 PM 6.8 44.24 0.324 7.74 4.91 12.91
4/20/2022 12:45:00 PM 7.09 44.762 0.325 7.75 4.45 12.94
4/20/2022 1:00:00 PM 7.37 45.266 0.325 7.76 4.38 12.95
4/20/2022 1:15:00 PM 7.64 45.752 0.326 7.78 4.38 12.96
4/20/2022 1:30:00 PM 7.89 46.202 0.326 7.79 4.52 12.98
4/20/2022 1:45:00 PM 8.16 46.688 0.327 7.8 4.23 12.96
4/20/2022 2:00:00 PM 8.42 47.156 0.327 7.82 4.38 12.96
4/20/2022 2:15:00 PM 8.66 47.588 0.328 7.83 4.42 12.94
4/20/2022 2:30:00 PM 8.9 48.02 0.328 7.84 3.95 12.91
4/20/2022 2:45:00 PM 9.12 48.416 0.329 7.85 4.52 12.9
4/20/2022 3:00:00 PM 9.34 48.812 0.33 7.86 5.1 12.87
4/20/2022 3:15:00 PM 9.53 49.154 0.33 7.88 4.28 12.83
4/20/2022 3:30:00 PM 9.71 49.478 0.331 7.88 4.01 12.8
4/20/2022 3:45:00 PM 9.86 49.748 0.331 7.89 5.24 12.75
4/20/2022 4:00:00 PM 10.01 50.018 0.332 7.9 3.63 12.71
4/20/2022 4:15:00 PM 10.15 50.27 0.332 7.91 3.94 12.67
4/20/2022 4:30:00 PM 10.29 50.522 0.332 7.92 4.18 12.61
4/20/2022 4:45:00 PM 10.4 50.72 0.326 7.93 5.1 12.55
4/20/2022 5:00:00 PM 10.5 50.9 0.334 7.93 3.72 12.5
4/20/2022 5:15:00 PM 10.58 51.044 0.334 7.93 3.63 12.4
4/20/2022 5:30:00 PM 10.66 51.188 0.335 7.94 3.52 12.33
4/20/2022 5:45:00 PM 10.72 51.296 0.337 7.93 3.28 12.22
4/20/2022 6:00:00 PM 10.77 51.386 0.338 7.93 3.53 12.16
4/20/2022 6:15:00 PM 10.82 51.476 0.34 7.93 3.76 12.08
4/20/2022 6:30:00 PM 10.86 51.548 0.34 7.92 3.87 11.99
4/20/2022 6:45:00 PM 10.88 51.584 0.34 7.92 4.01 11.89
4/20/2022 7:00:00 PM 10.89 51.602 0.339 7.92 3.66 11.8
4/20/2022 7:15:00 PM 10.88 51.584 0.287 7.91 5.76 11.7
4/20/2022 7:30:00 PM 10.86 51.548 0.193 7.9 5.48 11.58
4/20/2022 7:45:00 PM 10.85 51.53 0.23 7.88 5.5 11.48
4/20/2022 8:00:00 PM 10.82 51.476 0.33 7.87 4.47 11.37
4/20/2022 8:15:00 PM 10.79 51.422 0.327 7.85 4.99 11.26
4/20/2022 8:30:00 PM 10.75 51.35 0.32 7.83 6.03 11.14
4/20/2022 8:45:00 PM 10.71 51.278 0.321 7.81 5.27 11.04
4/20/2022 9:00:00 PM 10.65 51.17 0.317 7.78 5.44 10.95
4/20/2022 9:15:00 PM 10.57 51.026 0.313 7.76 6.98 10.85
4/20/2022 9:30:00 PM 10.48 50.864 0.309 7.73 5.7 10.8
4/20/2022 9:45:00 PM 10.37 50.666 0.304 7.7 6 10.74
4/20/2022 10:00:00 PM 10.26 50.468 0.299 7.68 5.86 10.69
4/20/2022 10:15:00 PM 10.15 50.27 0.295 7.65 6.41 10.64
4/20/2022 10:30:00 PM 10.05 50.09 0.29 7.63 8.52 10.63
4/20/2022 10:45:00 PM 9.96 49.928 0.286 7.61 5.96 10.6
4/20/2022 11:00:00 PM 9.89 49.802 0.283 7.59 5.68 10.57
4/20/2022 11:15:00 PM 9.82 49.676 0.28 7.57 5.71 10.56
4/20/2022 11:30:00 PM 9.76 49.568 0.278 7.56 5.48 10.55
4/20/2022 11:45:00 PM 9.69 49.442 0.255 7.54 7.51 10.54
4/21/2022 12:00:00 AM 9.62 49.316 0.275 7.53 5.13 10.53
4/21/2022 12:15:00 AM 9.53 49.154 0.274 7.52 5.7 10.54
4/21/2022 12:30:00 AM 9.44 48.992 0.274 7.51 8 10.56
4/21/2022 12:45:00 AM 9.33 48.794 0.274 7.51 6.51 10.58
4/21/2022 1:00:00 AM 9.22 48.596 0.275 7.51 5.95 10.62
4/21/2022 1:15:00 AM 9.1 48.38 0.276 7.51 6.16 10.65
4/21/2022 1:30:00 AM 8.98 48.164 0.278 7.51 5.91 10.68
4/21/2022 1:45:00 AM 8.85 47.93 0.281 7.51 6.13 10.72
4/21/2022 2:00:00 AM 8.71 47.678 0.284 7.52 5.95 10.75
4/21/2022 2:15:00 AM 8.59 47.462 0.286 7.52 5.95 10.8
4/21/2022 2:30:00 AM 8.47 47.246 0.289 7.52 5.75 10.83
4/21/2022 2:45:00 AM 8.35 47.03 0.291 7.53 5.49 10.86
4/21/2022 3:00:00 AM 8.24 46.832 0.293 7.53 5.99 10.89
4/21/2022 3:15:00 AM 8.12 46.616 0.295 7.53 5.67 10.91
4/21/2022 3:30:00 AM 8.01 46.418 0.298 7.53 5.92 10.93
4/21/2022 3:45:00 AM 7.9 46.22 0.299 7.53 5.71 10.96
4/21/2022 4:00:00 AM 7.79 46.022 0.301 7.53 5.78 10.99
4/21/2022 4:15:00 AM 7.69 45.842 0.303 7.53 5.5 11.01
4/21/2022 4:30:00 AM 7.6 45.68 0.304 7.54 5.53 11.04
4/21/2022 4:45:00 AM 7.51 45.518 0.306 7.54 5.47 11.06
4/21/2022 5:00:00 AM 7.42 45.356 0.307 7.54 5.24 11.08
4/21/2022 5:15:00 AM 7.34 45.212 0.308 7.54 5.17 11.1
4/21/2022 5:30:00 AM 7.26 45.068 0.309 7.54 5.48 11.13
4/21/2022 5:45:00 AM 7.19 44.942 0.311 7.54 5.47 11.16
4/21/2022 6:00:00 AM 7.12 44.816 0.312 7.54 5.2 11.16
4/21/2022 6:15:00 AM 7.05 44.69 0.313 7.54 5.14 11.18
4/21/2022 6:30:00 AM 6.99 44.582 0.314 7.54 5.19 11.19
4/21/2022 6:45:00 AM 6.93 44.474 0.315 7.54 5.02 11.22
4/21/2022 7:00:00 AM 6.87 44.366 0.316 7.55 6.34 11.24
4/21/2022 7:15:00 AM 6.82 44.276 0.317 7.55 4.34 11.25
4/21/2022 7:30:00 AM 6.79 44.222 0.318 7.55 4.21 11.29
4/21/2022 7:45:00 AM 6.77 44.186 0.319 7.56 4.11 11.35
4/21/2022 8:00:00 AM 6.76 44.168 0.32 7.56 4.04 11.4
4/21/2022 8:15:00 AM 6.75 44.15 0.321 7.57 4.13 11.44
4/21/2022 8:30:00 AM 6.75 44.15 0.322 7.57 4.15 11.49
4/21/2022 8:45:00 AM 6.76 44.168 0.323 7.58 4.07 11.54
4/21/2022 9:00:00 AM 6.79 44.222 0.324 7.59 3.97 11.61
4/21/2022 9:15:00 AM 6.82 44.276 0.324 7.6 3.73 11.68
4/21/2022 9:30:00 AM 6.83 44.294 0.325 7.61 3.99 11.75
4/21/2022 9:45:00 AM 6.86 44.348 0.325 7.62 3.92 11.82
4/21/2022 10:00:00 AM 6.91 44.438 0.326 7.64 3.77 11.93
4/21/2022 10:15:00 AM 6.93 44.474 0.327 7.65 3.6 12.01
4/21/2022 10:30:00 AM 7 44.6 0.327 7.67 3.78 12.1
4/21/2022 10:45:00 AM 7.05 44.69 0.328 7.68 3.42 12.19
4/21/2022 11:00:00 AM 7.09 44.762 0.329 7.7 3.47 12.25
4/21/2022 11:15:00 AM 7.14 44.852 0.329 7.71 3.42 12.33
4/21/2022 11:30:00 AM 7.19 44.942 0.33 7.73 3.53 12.38
4/21/2022 11:45:00 AM 7.26 45.068 0.33 7.74 3.52 12.42
4/21/2022 12:00:00 PM 7.29 45.122 0.33 7.75 3.67 12.45
4/21/2022 12:15:00 PM 7.32 45.176 0.331 7.76 3.49 12.46
4/21/2022 12:30:00 PM 7.35 45.23 0.332 7.77 3.53 12.46
4/21/2022 12:45:00 PM 7.38 45.284 0.332 7.78 3.63 12.48
4/21/2022 1:00:00 PM 7.44 45.392 0.332 7.79 3.39 12.49
4/21/2022 1:15:00 PM 7.47 45.446 0.333 7.8 3.27 12.5
4/21/2022 1:30:00 PM 7.49 45.482 0.333 7.8 3.47 12.48
4/21/2022 1:45:00 PM 7.51 45.518 0.334 7.81 3.35 12.46
4/21/2022 2:00:00 PM 7.54 45.572 0.334 7.81 3.53 12.46
4/21/2022 2:15:00 PM 7.58 45.644 0.334 7.82 3.25 12.46
4/21/2022 2:30:00 PM 7.61 45.698 0.335 7.82 3.41 12.45
4/21/2022 2:45:00 PM 7.64 45.752 0.335 7.83 3.25 12.44
4/21/2022 3:00:00 PM 7.69 45.842 0.335 7.83 3.28 12.45
4/21/2022 3:15:00 PM 7.76 45.968 0.336 7.84 3.11 12.45
4/21/2022 3:30:00 PM 7.85 46.13 0.336 7.84 3.16 12.48
4/21/2022 3:45:00 PM 7.94 46.292 0.337 7.84 3.06 12.47
4/21/2022 4:00:00 PM 8.01 46.418 0.337 7.84 3.36 12.46
4/21/2022 4:15:00 PM 8.08 46.544 0.337 7.85 3.3 12.44
4/21/2022 4:30:00 PM 8.14 46.652 0.338 7.85 3.14 12.43
4/21/2022 4:45:00 PM 8.21 46.778 0.338 7.85 3.17 12.41
4/21/2022 5:00:00 PM 8.29 46.922 0.339 7.85 3.07 12.41
4/21/2022 5:15:00 PM 8.36 47.048 0.339 7.86 3.1 12.39
4/21/2022 5:30:00 PM 8.4 47.12 0.339 7.86 3.14 12.37
4/21/2022 5:45:00 PM 8.44 47.192 0.34 7.86 3 12.36
4/21/2022 6:00:00 PM 8.49 47.282 0.34 7.87 3.17 12.36
4/21/2022 6:15:00 PM 8.52 47.336 0.341 7.87 3.26 12.34
4/21/2022 6:30:00 PM 8.53 47.354 0.341 7.87 3.12 12.32
4/21/2022 6:45:00 PM 8.53 47.354 0.341 7.87 3.2 12.29
4/21/2022 7:00:00 PM 8.51 47.318 0.342 7.86 3.13 12.23
4/21/2022 7:15:00 PM 8.49 47.282 0.342 7.87 2.99 12.18
4/21/2022 7:30:00 PM 8.47 47.246 0.342 7.85 2.95 12.11
4/21/2022 7:45:00 PM 8.44 47.192 0.343 7.84 3.16 12.01
4/21/2022 8:00:00 PM 8.41 47.138 0.344 7.82 3.05 11.93
4/21/2022 8:15:00 PM 8.39 47.102 0.345 7.81 3.12 11.85
4/21/2022 8:30:00 PM 8.35 47.03 0.345 7.79 3.1 11.78
4/21/2022 8:45:00 PM 8.32 46.976 0.345 7.78 3.25 11.7
4/21/2022 9:00:00 PM 8.29 46.922 0.346 7.77 3.41 11.62
4/21/2022 9:15:00 PM 8.26 46.868 0.345 7.76 3.6 11.54
4/21/2022 9:30:00 PM 8.23 46.814 0.345 7.74 3.5 11.47
4/21/2022 9:45:00 PM 8.21 46.778 0.345 7.73 3.48 11.39
4/21/2022 10:00:00 PM 8.18 46.724 0.345 7.71 3.42 11.32
4/21/2022 10:15:00 PM 8.16 46.688 0.345 7.7 3.3 11.25
4/21/2022 10:30:00 PM 8.14 46.652 0.345 7.69 3.39 11.18
4/21/2022 10:45:00 PM 8.12 46.616 0.346 7.68 3.34 11.12
4/21/2022 11:00:00 PM 8.1 46.58 0.346 7.67 3.25 11.06
4/21/2022 11:15:00 PM 8.07 46.526 0.347 7.65 3.37 11.01
4/21/2022 11:30:00 PM 8.05 46.49 0.347 7.65 3.46 10.98
4/21/2022 11:45:00 PM 8.01 46.418 0.347 7.64 3.7 10.95
4/22/2022 12:00:00 AM 7.98 46.364 0.348 7.63 3.42 10.92
4/22/2022 12:15:00 AM 7.96 46.328 0.348 7.63 3.5 10.92
4/22/2022 12:30:00 AM 7.94 46.292 0.348 7.62 3.42 10.9
4/22/2022 12:45:00 AM 7.91 46.238 0.348 7.62 3.41 10.89
4/22/2022 1:00:00 AM 7.88 46.184 0.348 7.62 3.31 10.87
4/22/2022 1:15:00 AM 7.85 46.13 0.348 7.61 3.54 10.87
4/22/2022 1:30:00 AM 7.82 46.076 0.348 7.61 3.2 10.87
4/22/2022 1:45:00 AM 7.79 46.022 0.348 7.6 3.31 10.86
4/22/2022 2:00:00 AM 7.75 45.95 0.349 7.6 3.47 10.86
4/22/2022 2:15:00 AM 7.71 45.878 0.349 7.6 3.45 10.87
4/22/2022 2:30:00 AM 7.68 45.824 0.349 7.6 3.11 10.86
4/22/2022 2:45:00 AM 7.64 45.752 0.349 7.6 3.14 10.87
4/22/2022 3:00:00 AM 7.61 45.698 0.349 7.59 3.18 10.87
4/22/2022 3:15:00 AM 7.57 45.626 0.349 7.59 3.22 10.87
4/22/2022 3:30:00 AM 7.54 45.572 0.349 7.59 3.36 10.88
4/22/2022 3:45:00 AM 7.51 45.518 0.349 7.59 3.33 10.88
4/22/2022 4:00:00 AM 7.49 45.482 0.349 7.59 3.16 10.89
4/22/2022 4:15:00 AM 7.47 45.446 0.35 7.59 3.21 10.9
4/22/2022 4:30:00 AM 7.44 45.392 0.35 7.59 3.49 10.92
4/22/2022 4:45:00 AM 7.4 45.32 0.35 7.59 3.16 10.92
4/22/2022 5:00:00 AM 7.36 45.248 0.35 7.58 3.18 10.93
4/22/2022 5:15:00 AM 7.32 45.176 0.351 7.59 3.38 10.94
4/22/2022 5:30:00 AM 7.29 45.122 0.351 7.59 3.09 10.96
4/22/2022 5:45:00 AM 7.25 45.05 0.351 7.58 3.19 10.98
4/22/2022 6:00:00 AM 7.2 44.96 0.351 7.58 3.27 10.99
4/22/2022 6:15:00 AM 7.15 44.87 0.351 7.58 3.65 11
4/22/2022 6:30:00 AM 7.1 44.78 0.351 7.58 3.25 11.01
4/22/2022 6:45:00 AM 7.05 44.69 0.351 7.58 3.22 11.04
4/22/2022 7:00:00 AM 7 44.6 0.351 7.59 3.13 11.06
4/22/2022 7:15:00 AM 6.96 44.528 0.351 7.59 3.16 11.1
4/22/2022 7:30:00 AM 6.92 44.456 0.351 7.59 3.29 11.14
4/22/2022 7:45:00 AM 6.88 44.384 0.352 7.59 3.42 11.16
4/22/2022 8:00:00 AM 6.84 44.312 0.352 7.6 3.07 11.21
4/22/2022 8:15:00 AM 6.79 44.222 0.351 7.6 3.17 11.25
4/22/2022 8:30:00 AM 6.75 44.15 0.352 7.6 3.06 11.31
4/22/2022 8:45:00 AM 6.72 44.096 0.352 7.61 3.24 11.38
4/22/2022 9:00:00 AM 6.69 44.042 0.352 7.61 3.18 11.44
4/22/2022 9:15:00 AM 6.67 44.006 0.352 7.62 3.63 11.52
4/22/2022 9:30:00 AM 6.69 44.042 0.352 7.63 3.07 11.61
4/22/2022 9:45:00 AM 6.71 44.078 0.352 7.64 3.29 11.68
4/22/2022 10:00:00 AM 6.75 44.15 0.352 7.65 2.89 11.78
4/22/2022 10:15:00 AM 6.87 44.366 0.352 7.67 2.88 11.92
4/22/2022 10:30:00 AM 7.02 44.636 0.352 7.68 2.77 12.05
4/22/2022 10:45:00 AM 7.19 44.942 0.352 7.7 2.82 12.19
4/22/2022 11:00:00 AM 7.37 45.266 0.352 7.72 2.87 12.29
4/22/2022 11:15:00 AM 7.56 45.608 0.352 7.73 2.87 12.4
4/22/2022 11:30:00 AM 7.77 45.986 0.352 7.75 3.02 12.5
4/22/2022 11:45:00 AM 8 46.4 0.352 7.77 2.78 12.59
4/22/2022 12:00:00 PM 8.24 46.832 0.352 7.78 2.76 12.66
4/22/2022 12:15:00 PM 8.5 47.3 0.352 7.81 2.76 12.73
4/22/2022 12:30:00 PM 8.77 47.786 0.352 7.82 2.83 12.77
4/22/2022 12:45:00 PM 9.06 48.308 0.352 7.84 2.73 12.81
4/22/2022 1:00:00 PM 9.34 48.812 0.352 7.86 2.83 12.85
4/22/2022 1:15:00 PM 9.62 49.316 0.352 7.88 2.67 12.86
4/22/2022 1:30:00 PM 9.9 49.82 0.352 7.9 3.11 12.89
4/22/2022 1:45:00 PM 10.18 50.324 0.352 7.91 2.86 12.89
4/22/2022 2:00:00 PM 10.43 50.774 0.353 7.92 2.75 12.9
4/22/2022 2:15:00 PM 10.68 51.224 0.353 7.94 2.97 12.89
4/22/2022 2:30:00 PM 10.91 51.638 0.353 7.96 2.92 12.88
4/22/2022 2:45:00 PM 11.14 52.052 0.352 7.97 2.8 12.86
4/22/2022 3:00:00 PM 11.35 52.43 0.352 7.98 3.1 12.82
4/22/2022 3:15:00 PM 11.53 52.754 0.352 8 4.74 12.78
4/22/2022 3:30:00 PM 11.72 53.096 0.352 8.01 4.64 12.75
4/22/2022 3:45:00 PM 11.88 53.384 0.301 8.02 4.35 12.72
4/22/2022 4:00:00 PM 12.02 53.636 0.225 8.03 4.36 12.64
4/22/2022 4:15:00 PM 12.15 53.87 0.352 8.04 2.79 12.62
4/22/2022 4:30:00 PM 12.25 54.05 0.352 8.05 2.91 12.56
4/22/2022 4:45:00 PM 12.33 54.194 0.352 8.05 2.88 12.5
4/22/2022 5:00:00 PM 12.39 54.302 0.352 8.07 2.86 12.45
4/22/2022 5:15:00 PM 12.44 54.392 0.352 8.07 3 12.37
4/22/2022 5:30:00 PM 12.48 54.464 0.352 8.07 2.86 12.3
4/22/2022 5:45:00 PM 12.49 54.482 0.352 8.07 2.88 12.22
4/22/2022 6:00:00 PM 12.52 54.536 0.352 8.07 2.89 12.14
4/22/2022 6:15:00 PM 12.53 54.554 0.326 8.07 4.72 12.04
4/22/2022 6:30:00 PM 12.54 54.572 0.352 8.06 4.56 11.95
4/22/2022 6:45:00 PM 12.54 54.572 0.352 8.06 2.94 11.87
4/22/2022 7:00:00 PM 12.53 54.554 0.352 8.05 2.95 11.77
4/22/2022 7:15:00 PM 12.5 54.5 0.353 8.03 4.49 11.64
4/22/2022 7:30:00 PM 12.46 54.428 0.353 8.02 3.07 11.54
4/22/2022 7:45:00 PM 12.42 54.356 0.336 8 4.92 11.42
4/22/2022 8:00:00 PM 12.36 54.248 0.353 7.98 3 11.3
4/22/2022 8:15:00 PM 12.3 54.14 0.354 7.96 3.03 11.18
4/22/2022 8:30:00 PM 12.24 54.032 0.354 7.93 4.96 11.05
4/22/2022 8:45:00 PM 12.18 53.924 0.354 7.9 6.13 10.92
4/22/2022 9:00:00 PM 12.11 53.798 0.355 7.89 4.81 10.83
4/22/2022 9:15:00 PM 12.04 53.672 0.355 7.87 3.17 10.73
4/22/2022 9:30:00 PM 11.97 53.546 0.356 7.84 3.19 10.62
4/22/2022 9:45:00 PM 11.9 53.42 0.356 7.82 4.82 10.51
4/22/2022 10:00:00 PM 11.83 53.294 0.356 7.8 3.31 10.43
4/22/2022 10:15:00 PM 11.76 53.168 0.356 7.77 3.42 10.34
4/22/2022 10:30:00 PM 11.69 53.042 0.357 7.76 4.1 10.25
4/22/2022 10:45:00 PM 11.61 52.898 0.357 7.74 3.49 10.17
4/22/2022 11:00:00 PM 11.53 52.754 0.358 7.72 3.38 10.09
4/22/2022 11:15:00 PM 11.45 52.61 0.357 7.7 4.86 10.01
4/22/2022 11:30:00 PM 11.37 52.466 0.222 7.69 5.12 9.95
4/22/2022 11:45:00 PM 11.28 52.304 0.36 7.68 5.22 9.92
4/23/2022 12:00:00 AM 11.2 52.16 0.36 7.67 4.86 9.88
4/23/2022 12:15:00 AM 11.11 51.998 0.359 7.66 4.83 9.88
4/23/2022 12:30:00 AM 11.02 51.836 0.361 7.65 4.68 9.87
4/23/2022 12:45:00 AM 10.93 51.674 0.36 7.64 3.59 9.87
4/23/2022 1:00:00 AM 10.86 51.548 0.342 7.63 5.09 9.86
4/23/2022 1:15:00 AM 10.78 51.404 0.36 7.63 4.86 9.85
4/23/2022 1:30:00 AM 10.71 51.278 0.362 7.62 3.44 9.87
4/23/2022 1:45:00 AM 10.63 51.134 0.361 7.62 3.48 9.88
4/23/2022 2:00:00 AM 10.56 51.008 0.362 7.62 3.52 9.89
4/23/2022 2:15:00 AM 10.49 50.882 0.362 7.61 3.47 9.91
4/23/2022 2:30:00 AM 10.42 50.756 0.363 7.61 3.4 9.92
4/23/2022 2:45:00 AM 10.35 50.63 0.363 7.61 3.54 9.94
4/23/2022 3:00:00 AM 10.28 50.504 0.364 7.6 5.05 9.93
4/23/2022 3:15:00 AM 10.21 50.378 0.364 7.61 3.42 9.96
4/23/2022 3:30:00 AM 10.14 50.252 0.364 7.6 3.53 9.97
4/23/2022 3:45:00 AM 10.07 50.126 0.365 7.6 3.36 9.99
4/23/2022 4:00:00 AM 10 50 0.365 7.6 3.96 10
4/23/2022 4:15:00 AM 9.93 49.874 0.365 7.6 3.71 10.03
4/23/2022 4:30:00 AM 9.86 49.748 0.366 7.59 3.56 10.05
4/23/2022 4:45:00 AM 9.8 49.64 0.367 7.6 3.66 10.07
4/23/2022 5:00:00 AM 9.74 49.532 0.367 7.59 5.06 10.06
4/23/2022 5:15:00 AM 9.67 49.406 0.367 7.6 3.43 10.11
4/23/2022 5:30:00 AM 9.6 49.28 0.367 7.59 3.35 10.12
4/23/2022 5:45:00 AM 9.54 49.172 0.368 7.59 3.27 10.14
4/23/2022 6:00:00 AM 9.47 49.046 0.368 7.6 3.28 10.16
4/23/2022 6:15:00 AM 9.41 48.938 0.369 7.59 3.3 10.18
4/23/2022 6:30:00 AM 9.34 48.812 0.369 7.6 3.46 10.2
4/23/2022 6:45:00 AM 9.29 48.722 0.369 7.59 5.6 10.21
4/23/2022 7:00:00 AM 9.22 48.596 0.37 7.59 3.44 10.27
4/23/2022 7:15:00 AM 9.16 48.488 0.37 7.6 5.49 10.29
4/23/2022 7:30:00 AM 9.11 48.398 0.371 7.6 3.89 10.33
4/23/2022 7:45:00 AM 9.06 48.308 0.371 7.6 4.18 10.41
4/23/2022 8:00:00 AM 9.01 48.218 0.371 7.61 3.43 10.47
4/23/2022 8:15:00 AM 8.96 48.128 0.371 7.62 3.65 10.53
4/23/2022 8:30:00 AM 8.92 48.056 0.371 7.63 3.96 10.64
4/23/2022 8:45:00 AM 8.89 48.002 0.371 7.63 3.21 10.72
4/23/2022 9:00:00 AM 8.87 47.966 0.371 7.64 3.08 10.81
4/23/2022 9:15:00 AM 8.87 47.966 0.371 7.65 3.05 10.93
4/23/2022 9:30:00 AM 8.89 48.002 0.371 7.66 3 11.05
4/23/2022 9:45:00 AM 8.91 48.038 0.371 7.67 3.09 11.17
4/23/2022 10:00:00 AM 8.96 48.128 0.371 7.69 2.86 11.29
4/23/2022 10:15:00 AM 9.02 48.236 0.371 7.7 3.04 11.4
4/23/2022 10:30:00 AM 9.1 48.38 0.371 7.72 2.96 11.52
4/23/2022 10:45:00 AM 9.2 48.56 0.371 7.74 2.86 11.66
4/23/2022 11:00:00 AM 9.35 48.83 0.372 7.75 4.72 11.75
4/23/2022 11:15:00 AM 9.41 48.938 0.371 7.77 2.8 11.9
4/23/2022 11:30:00 AM 9.48 49.064 0.371 7.79 2.81 12.02
4/23/2022 11:45:00 AM 9.63 49.334 0.371 7.81 2.81 12.13
4/23/2022 12:00:00 PM 9.75 49.55 0.371 7.83 2.84 12.25
4/23/2022 12:15:00 PM 9.97 49.946 0.37 7.86 2.97 12.37
4/23/2022 12:30:00 PM 10.19 50.342 0.37 7.88 2.86 12.46
4/23/2022 12:45:00 PM 10.39 50.702 0.37 7.9 2.85 12.55
4/23/2022 1:00:00 PM 10.66 51.188 0.37 7.93 2.7 12.63
4/23/2022 1:15:00 PM 10.85 51.53 0.371 7.95 4.42 12.66
4/23/2022 1:30:00 PM 10.96 51.728 0.371 7.97 2.86 12.71
4/23/2022 1:45:00 PM 11.07 51.926 0.371 7.99 2.68 12.75
4/23/2022 2:00:00 PM 11.15 52.07 0.371 8 2.75 12.73
4/23/2022 2:15:00 PM 11.2 52.16 0.372 8.02 4.69 12.69
4/23/2022 2:30:00 PM 11.25 52.25 0.372 8.03 3.14 12.67
4/23/2022 2:45:00 PM 11.29 52.322 0.345 8.03 4.75 12.6
4/23/2022 3:00:00 PM 11.32 52.376 0.372 8.05 2.72 12.56
4/23/2022 3:15:00 PM 11.34 52.412 0.372 8.06 4.42 12.51
4/23/2022 3:30:00 PM 11.39 52.502 0.372 8.07 4.26 12.49
4/23/2022 3:45:00 PM 11.46 52.628 0.372 8.08 4.36 12.48
4/23/2022 4:00:00 PM 11.56 52.808 0.371 8.1 2.71 12.48
4/23/2022 4:15:00 PM 11.64 52.952 0.371 8.11 2.9 12.47
4/23/2022 4:30:00 PM 11.71 53.078 0.371 8.11 2.66 12.42
4/23/2022 4:45:00 PM 11.76 53.168 0.371 8.12 2.56 12.4
4/23/2022 5:00:00 PM 11.8 53.24 0.371 8.11 2.43 12.34
4/23/2022 5:15:00 PM 11.82 53.276 0.369 8.09 4.23 12.26
4/23/2022 5:30:00 PM 11.84 53.312 0.37 8.11 2.47 12.23
4/23/2022 5:45:00 PM 11.86 53.348 0.37 8.1 2.37 12.15
4/23/2022 6:00:00 PM 11.86 53.348 0.37 8.08 4.2 12.05
4/23/2022 6:15:00 PM 11.89 53.402 0.37 8.08 2.42 12.03
4/23/2022 6:30:00 PM 11.9 53.42 0.371 8.06 2.47 11.97
4/23/2022 6:45:00 PM 11.89 53.402 0.369 8.06 4.23 11.88
4/23/2022 7:00:00 PM 11.89 53.402 0.369 8.05 2.53 11.85
4/23/2022 7:15:00 PM 11.88 53.384 0.347 8.05 4.12 11.77
4/23/2022 7:30:00 PM 11.87 53.366 0.371 8.04 2.62 11.69
4/23/2022 7:45:00 PM 11.87 53.366 0.369 8.04 4.19 11.6
4/23/2022 8:00:00 PM 11.87 53.366 0.37 8.01 2.89 11.5
4/23/2022 8:15:00 PM 11.86 53.348 0.353 7.99 4.27 11.39
4/23/2022 8:30:00 PM 11.84 53.312 0.371 7.98 4.31 11.26
4/23/2022 8:45:00 PM 11.82 53.276 0.371 7.96 2.58 11.16
4/23/2022 9:00:00 PM 11.78 53.204 0.359 7.94 4.94 11.03
4/23/2022 9:15:00 PM 11.74 53.132 0.372 7.91 4.42 10.91
4/23/2022 9:30:00 PM 11.69 53.042 0.372 7.89 2.78 10.81
4/23/2022 9:45:00 PM 11.64 52.952 0.373 7.86 2.87 10.68
4/23/2022 10:00:00 PM 11.59 52.862 0.373 7.84 3.07 10.57
4/23/2022 10:15:00 PM 11.55 52.79 0.373 7.82 4.56 10.45
4/23/2022 10:30:00 PM 11.51 52.718 0.373 7.8 3.1 10.35
4/23/2022 10:45:00 PM 11.47 52.646 0.373 7.77 4.43 10.23
4/23/2022 11:00:00 PM 11.42 52.556 0.374 7.75 2.81 10.14
4/23/2022 11:15:00 PM 11.38 52.484 0.36 7.74 4.36 10.03
4/23/2022 11:30:00 PM 11.34 52.412 0.375 7.72 2.99 9.96
4/23/2022 11:45:00 PM 11.3 52.34 0.375 7.71 2.92 9.91
4/24/2022 12:00:00 AM 11.25 52.25 0.377 7.68 4.65 9.82
4/24/2022 12:15:00 AM 11.2 52.16 0.376 7.68 2.82 9.81
4/24/2022 12:30:00 AM 11.14 52.052 0.378 7.67 2.93 9.77
4/24/2022 12:45:00 AM 11.09 51.962 0.378 7.66 4.47 9.74
4/24/2022 1:00:00 AM 11.02 51.836 0.378 7.65 2.79 9.73
4/24/2022 1:15:00 AM 10.95 51.71 0.379 7.64 2.98 9.72
4/24/2022 1:30:00 AM 10.88 51.584 0.379 7.64 2.97 9.72
4/24/2022 1:45:00 AM 10.81 51.458 0.377 7.64 4.16 9.71
4/24/2022 2:00:00 AM 10.74 51.332 0.379 7.63 4.48 9.71
4/24/2022 2:15:00 AM 10.68 51.224 0.379 7.63 4.62 9.69
4/24/2022 2:30:00 AM 10.6 51.08 0.379 7.62 3.13 9.74
4/24/2022 2:45:00 AM 10.53 50.954 0.379 7.62 2.92 9.74
4/24/2022 3:00:00 AM 10.46 50.828 0.379 7.61 4.62 9.72
4/24/2022 3:15:00 AM 10.39 50.702 0.379 7.61 4.58 9.74
4/24/2022 3:30:00 AM 10.32 50.576 0.38 7.61 2.96 9.77
4/24/2022 3:45:00 AM 10.25 50.45 0.38 7.61 3.09 9.78
4/24/2022 4:00:00 AM 10.19 50.342 0.381 7.6 2.97 9.8
4/24/2022 4:15:00 AM 10.13 50.234 0.381 7.6 2.93 9.8
4/24/2022 4:30:00 AM 10.07 50.126 0.381 7.6 2.97 9.81
4/24/2022 4:45:00 AM 10.01 50.018 0.381 7.6 3 9.81
4/24/2022 5:00:00 AM 9.96 49.928 0.38 7.6 2.95 9.85
4/24/2022 5:15:00 AM 9.9 49.82 0.381 7.6 2.84 9.88
4/24/2022 5:30:00 AM 9.85 49.73 0.38 7.6 2.94 9.9
4/24/2022 5:45:00 AM 9.79 49.622 0.38 7.59 2.92 9.91
4/24/2022 6:00:00 AM 9.73 49.514 0.381 7.6 3.97 9.92
4/24/2022 6:15:00 AM 9.66 49.388 0.38 7.6 3.15 9.94
4/24/2022 6:30:00 AM 9.61 49.298 0.381 7.59 2.93 9.95
4/24/2022 6:45:00 AM 9.55 49.19 0.381 7.6 2.89 10.01
4/24/2022 7:00:00 AM 9.49 49.082 0.381 7.6 2.97 10.04
4/24/2022 7:15:00 AM 9.45 49.01 0.383 7.6 3.12 10.1
4/24/2022 7:30:00 AM 9.42 48.956 0.382 7.61 3.04 10.16
4/24/2022 7:45:00 AM 9.4 48.92 0.381 7.61 4.66 10.22
4/24/2022 8:00:00 AM 9.37 48.866 0.382 7.62 2.78 10.32
4/24/2022 8:15:00 AM 9.36 48.848 0.384 7.62 3.14 10.38
4/24/2022 8:30:00 AM 9.35 48.83 0.384 7.63 3.04 10.48
4/24/2022 8:45:00 AM 9.33 48.794 0.384 7.64 4.56 10.53
4/24/2022 9:00:00 AM 9.33 48.794 0.384 7.65 2.9 10.68
4/24/2022 9:15:00 AM 9.35 48.83 0.384 7.66 2.86 10.8
4/24/2022 9:30:00 AM 9.39 48.902 0.384 7.67 2.75 10.92
4/24/2022 9:45:00 AM 9.45 49.01 0.385 7.68 2.87 11.04
4/24/2022 10:00:00 AM 9.51 49.118 0.385 7.7 2.77 11.18
4/24/2022 10:15:00 AM 9.59 49.262 0.384 7.72 4.56 11.31
4/24/2022 10:30:00 AM 9.72 49.496 0.384 7.74 2.98 11.48
4/24/2022 10:45:00 AM 9.85 49.73 0.384 7.76 2.77 11.61
4/24/2022 11:00:00 AM 10.01 50.018 0.343 7.79 4.27 11.75
4/24/2022 11:15:00 AM 10.19 50.342 0.383 7.81 2.65 11.9
4/24/2022 11:30:00 AM 10.38 50.684 0.383 7.83 2.71 12.02
4/24/2022 11:45:00 AM 10.59 51.062 0.381 7.85 4.38 12.11
4/24/2022 12:00:00 PM 10.82 51.476 0.383 7.88 2.64 12.24
4/24/2022 12:15:00 PM 11.07 51.926 0.383 7.9 2.79 12.33
4/24/2022 12:30:00 PM 11.34 52.412 0.382 7.92 4.32 12.36
4/24/2022 12:45:00 PM 11.62 52.916 0.354 7.95 4.23 12.45
4/24/2022 1:00:00 PM 11.9 53.42 0.382 7.97 4.28 12.51
4/24/2022 1:15:00 PM 12.17 53.906 0.382 7.99 4.48 12.56
4/24/2022 1:30:00 PM 12.4 54.32 0.382 8.01 2.67 12.61
4/24/2022 1:45:00 PM 12.7 54.86 0.383 8.03 4.17 12.6
4/24/2022 2:00:00 PM 12.99 55.382 0.383 8.05 4.37 12.62
4/24/2022 2:15:00 PM 13.14 55.652 0.383 8.08 2.97 12.62
4/24/2022 2:30:00 PM 13.45 56.21 0.37 8.1 4.71 12.6
4/24/2022 2:45:00 PM 13.7 56.66 0.266 8.11 4.1 12.6
4/24/2022 3:00:00 PM 13.93 57.074 0.382 8.14 4.12 12.55
4/24/2022 3:15:00 PM 14.1 57.38 0.382 8.15 4.28 12.54
4/24/2022 3:30:00 PM 14.29 57.722 0.383 8.17 2.64 12.51
4/24/2022 3:45:00 PM 14.45 58.01 0.365 8.18 4.11 12.46
4/24/2022 4:00:00 PM 14.54 58.172 0.384 8.19 2.59 12.38
4/24/2022 4:15:00 PM 14.57 58.226 0.384 8.18 2.49 12.27
4/24/2022 4:30:00 PM 14.69 58.442 0.384 8.2 3.94 12.23
4/24/2022 4:45:00 PM 14.79 58.622 0.383 8.21 4.08 12.17
4/24/2022 5:00:00 PM 14.87 58.766 0.384 8.2 4.08 12.07
4/24/2022 5:15:00 PM 14.91 58.838 0.385 8.19 2.65 11.98
4/24/2022 5:30:00 PM 14.93 58.874 0.384 8.19 2.77 11.87
4/24/2022 5:45:00 PM 14.94 58.892 0.383 8.19 2.77 11.75
4/24/2022 6:00:00 PM 14.94 58.892 0.384 8.17 2.83 11.61
4/24/2022 6:15:00 PM 14.98 58.964 0.384 8.18 3.88 11.53
4/24/2022 6:30:00 PM 14.99 58.982 0.384 8.17 2.6 11.43
4/24/2022 6:45:00 PM 14.97 58.946 0.356 8.15 3.99 11.28
4/24/2022 7:00:00 PM 14.97 58.946 0.384 8.12 2.62 11.16
4/24/2022 7:15:00 PM 14.97 58.946 0.385 8.09 2.58 11.04
4/24/2022 7:30:00 PM 14.96 58.928 0.385 8.09 2.56 10.92
4/24/2022 7:45:00 PM 14.94 58.892 0.385 8.05 3.61 10.77
4/24/2022 8:00:00 PM 14.92 58.856 0.386 8.02 3.37 10.61
4/24/2022 8:15:00 PM 14.92 58.856 0.386 8.01 2.56 10.49
4/24/2022 8:30:00 PM 14.9 58.82 0.385 7.97 4.07 10.32
4/24/2022 8:45:00 PM 14.89 58.802 0.385 7.96 2.79 10.21
4/24/2022 9:00:00 PM 14.87 58.766 0.386 7.92 2.77 10.04
4/24/2022 9:15:00 PM 14.86 58.748 0.386 7.91 2.97 9.9
4/24/2022 9:30:00 PM 14.86 58.748 0.364 7.88 4.19 9.79
4/24/2022 9:45:00 PM 14.84 58.712 0.387 7.85 4.21 9.64
4/24/2022 10:00:00 PM 14.83 58.694 0.387 7.83 3.06 9.53
4/24/2022 10:15:00 PM 14.81 58.658 0.387 7.81 3.05 9.38
4/24/2022 10:30:00 PM 14.77 58.586 0.39 7.75 9.57 9.24
4/24/2022 10:45:00 PM 14.75 58.55 0.388 7.76 3.59 9.16
4/24/2022 11:00:00 PM 14.72 58.496 0.36 7.73 4.63 9.04
4/24/2022 11:15:00 PM 14.69 58.442 0.389 7.73 3.12 8.95
4/24/2022 11:30:00 PM 14.65 58.37 0.39 7.7 3.16 8.85
4/24/2022 11:45:00 PM 14.62 58.316 0.364 7.69 4.68 8.79
4/25/2022 12:00:00 AM 14.59 58.262 0.39 7.68 3.02 8.71
4/25/2022 12:15:00 AM 14.56 58.208 0.371 7.67 4.34 8.67
4/25/2022 12:30:00 AM 14.53 58.154 0.394 7.66 4.25 8.64
4/25/2022 12:45:00 AM 14.49 58.082 0.392 7.64 3.52 8.58
4/25/2022 1:00:00 AM 14.45 58.01 0.392 7.65 3.37 8.6
4/25/2022 1:15:00 AM 14.4 57.92 0.393 7.63 4.48 8.54
4/25/2022 1:30:00 AM 14.36 57.848 0.393 7.61 3.01 8.54
4/25/2022 1:45:00 AM 14.31 57.758 0.392 7.62 3.02 8.55
4/25/2022 2:00:00 AM 14.25 57.65 0.393 7.62 3.38 8.55
4/25/2022 2:15:00 AM 14.19 57.542 0.393 7.61 3.09 8.54
4/25/2022 2:30:00 AM 14.13 57.434 0.394 7.61 4.54 8.52
4/25/2022 2:45:00 AM 14.06 57.308 0.394 7.61 4.43 8.54
4/25/2022 3:00:00 AM 13.99 57.182 0.394 7.61 3.06 8.56
4/25/2022 3:15:00 AM 13.92 57.056 0.395 7.6 3.77 8.57
4/25/2022 3:30:00 AM 13.85 56.93 0.395 7.6 3.74 8.57
4/25/2022 3:45:00 AM 13.77 56.786 0.376 7.59 4.47 8.57
4/25/2022 4:00:00 AM 13.7 56.66 0.394 7.6 2.98 8.61
4/25/2022 4:15:00 AM 13.62 56.516 0.396 7.59 2.96 8.61
4/25/2022 4:30:00 AM 13.54 56.372 0.395 7.59 3.08 8.64
4/25/2022 4:45:00 AM 13.47 56.246 0.367 7.58 5.93 8.62
4/25/2022 5:00:00 AM 13.39 56.102 0.398 7.59 4.9 8.63
4/25/2022 5:15:00 AM 13.31 55.958 0.4 7.58 5.08 8.65
4/25/2022 5:30:00 AM 13.23 55.814 0.398 7.59 3.45 8.71
4/25/2022 5:45:00 AM 13.15 55.67 0.38 7.58 4.87 8.7
4/25/2022 6:00:00 AM 13.07 55.526 0.4 7.58 5.03 8.73
4/25/2022 6:15:00 AM 12.99 55.382 0.401 7.58 5.24 8.75
4/25/2022 6:30:00 AM 12.9 55.22 0.4 7.59 3.56 8.8
4/25/2022 6:45:00 AM 12.83 55.094 0.401 7.59 3.3 8.83
4/25/2022 7:00:00 AM 12.75 54.95 0.4 7.59 3.24 8.87
4/25/2022 7:15:00 AM 12.68 54.824 0.399 7.59 5.25 8.92
4/25/2022 7:30:00 AM 12.6 54.68 0.399 7.6 4.8 9
4/25/2022 7:45:00 AM 12.54 54.572 0.4 7.61 3.16 9.08
4/25/2022 8:00:00 AM 12.47 54.446 0.401 7.61 3.46 9.17
4/25/2022 8:15:00 AM 12.41 54.338 0.401 7.61 3.25 9.26
4/25/2022 8:30:00 AM 12.36 54.248 0.401 7.63 3.28 9.39
4/25/2022 8:45:00 AM 12.32 54.176 0.402 7.63 5.01 9.46
4/25/2022 9:00:00 AM 12.28 54.104 0.402 7.65 3.15 9.62
4/25/2022 9:15:00 AM 12.27 54.086 0.384 7.66 4.63 9.73
4/25/2022 9:30:00 AM 12.25 54.05 0.402 7.67 2.96 9.86
4/25/2022 9:45:00 AM 12.26 54.068 0.39 7.68 4.95 10.01
4/25/2022 10:00:00 AM 12.29 54.122 0.387 7.69 4.67 10.13
4/25/2022 10:15:00 AM 12.36 54.248 0.402 7.72 4.28 10.32
4/25/2022 10:30:00 AM 12.47 54.446 0.403 7.74 2.87 10.49
4/25/2022 10:45:00 AM 12.59 54.662 0.405 7.75 4.31 10.68
4/25/2022 11:00:00 AM 12.73 54.914 0.404 7.78 4.1 10.84
4/25/2022 11:15:00 AM 12.87 55.166 0.405 7.81 4.26 11.04
4/25/2022 11:30:00 AM 13.04 55.472 0.403 7.85 2.76 11.25
4/25/2022 11:45:00 AM 13.23 55.814 0.371 7.86 4.67 11.39
4/25/2022 12:00:00 PM 13.44 56.192 0.405 7.89 4.47 11.54
4/25/2022 12:15:00 PM 13.68 56.624 0.404 7.93 2.97 11.71
4/25/2022 12:30:00 PM 13.92 57.056 0.402 7.96 2.8 11.85
4/25/2022 12:45:00 PM 14.17 57.506 0.402 7.97 3.01 11.9
4/25/2022 1:00:00 PM 14.45 58.01 0.402 8 3.1 11.99
4/25/2022 1:15:00 PM 14.71 58.478 0.24 8.05 4.24 12.09
4/25/2022 1:30:00 PM 14.98 58.964 0.403 8.09 2.81 12.16
4/25/2022 1:45:00 PM 15.26 59.468 0.403 8.12 2.74 12.21
4/25/2022 2:00:00 PM 15.54 59.972 0.404 8.13 2.9 12.27
4/25/2022 2:15:00 PM 15.77 60.386 0.405 8.13 4.18 12.27
4/25/2022 2:30:00 PM 16.02 60.836 0.404 8.17 4.23 12.28
4/25/2022 2:45:00 PM 16.25 61.25 0.404 8.21 2.8 12.28
4/25/2022 3:00:00 PM 16.45 61.61 0.404 8.22 3.04 12.28
4/25/2022 3:15:00 PM 16.63 61.934 0.403 8.23 2.58 12.26
4/25/2022 3:30:00 PM 16.81 62.258 0.457 8.26 4.13 12.25
4/25/2022 3:45:00 PM 16.95 62.51 0.402 8.27 2.82 12.18
4/25/2022 4:00:00 PM 17.11 62.798 0.403 8.29 3.99 12.16
4/25/2022 4:15:00 PM 17.2 62.96 0.402 8.3 2.68 12.11
4/25/2022 4:30:00 PM 17.31 63.158 0.402 8.31 2.66 12.02
4/25/2022 4:45:00 PM 17.37 63.266 0.402 8.29 2.69 11.97
4/25/2022 5:00:00 PM 17.43 63.374 0.403 8.31 2.56 11.89
4/25/2022 5:15:00 PM 17.47 63.446 0.403 8.32 2.56 11.82
4/25/2022 5:30:00 PM 17.49 63.482 0.291 8.31 4.18 11.67
4/25/2022 5:45:00 PM 17.51 63.518 0.403 8.31 2.57 11.62
4/25/2022 6:00:00 PM 17.51 63.518 0.404 8.31 2.71 11.46
4/25/2022 6:15:00 PM 17.48 63.464 0.405 8.3 2.6 11.35
4/25/2022 6:30:00 PM 17.46 63.428 0.405 8.29 2.58 11.22
4/25/2022 6:45:00 PM 17.42 63.356 0.405 8.27 2.62 11.06
4/25/2022 7:00:00 PM 17.39 63.302 0.405 8.27 2.58 10.97
4/25/2022 7:15:00 PM 17.34 63.212 0.406 8.23 2.71 10.84
4/25/2022 7:30:00 PM 17.28 63.104 0.406 8.22 2.61 10.65
4/25/2022 7:45:00 PM 17.22 62.996 0.404 8.21 2.44 10.52
4/25/2022 8:00:00 PM 17.14 62.852 0.404 8.17 2.83 10.34
4/25/2022 8:15:00 PM 17.06 62.708 0.403 8.13 2.61 10.17
4/25/2022 8:30:00 PM 16.97 62.546 0.403 8.08 2.59 9.99
4/25/2022 8:45:00 PM 16.87 62.366 0.402 8.07 2.63 9.88
4/25/2022 9:00:00 PM 16.77 62.186 0.402 8.04 2.7 9.74
4/25/2022 9:15:00 PM 16.68 62.024 0.405 7.99 2.79 9.58
4/25/2022 9:30:00 PM 16.58 61.844 0.405 7.96 2.8 9.45
4/25/2022 9:45:00 PM 16.5 61.7 0.405 7.94 3.43 9.28
4/25/2022 10:00:00 PM 16.42 61.556 0.388 7.9 4.48 9.14
4/25/2022 10:15:00 PM 16.34 61.412 0.408 7.85 3.12 9.01
4/25/2022 10:30:00 PM 16.27 61.286 0.409 7.86 3.27 8.89
4/25/2022 10:45:00 PM 16.2 61.16 0.412 7.82 2.75 8.76
4/25/2022 11:00:00 PM 16.12 61.016 0.416 7.8 2.85 8.66
4/25/2022 11:15:00 PM 16.05 60.89 0.419 7.76 3.09 8.56
4/25/2022 11:30:00 PM 15.98 60.764 0.422 7.75 3.29 8.46
4/25/2022 11:45:00 PM 15.92 60.656 0.424 7.74 3.21 8.4
4/26/2022 12:00:00 AM 15.85 60.53 0.426 7.72 3.42 8.3
4/26/2022 12:15:00 AM 15.77 60.386 0.426 7.71 3.4 8.28
4/26/2022 12:30:00 AM 15.69 60.242 0.427 7.69 3.03 8.23
4/26/2022 12:45:00 AM 15.62 60.116 0.426 7.68 5.01 8.17
4/26/2022 1:00:00 AM 15.54 59.972 0.425 7.67 3.11 8.16
4/26/2022 1:15:00 AM 15.46 59.828 0.425 7.66 3 8.15
4/26/2022 1:30:00 AM 15.39 59.702 0.422 7.66 3.04 8.11
4/26/2022 1:45:00 AM 15.31 59.558 0.42 7.65 3.13 8.13
4/26/2022 2:00:00 AM 15.23 59.414 0.42 7.65 3.38 8.13
4/26/2022 2:15:00 AM 15.16 59.288 0.477 7.63 4.56 8.1
4/26/2022 2:30:00 AM 15.1 59.18 0.418 7.64 3.08 8.15
4/26/2022 2:45:00 AM 15.04 59.072 0.418 7.63 3.05 8.14
4/26/2022 3:00:00 AM 14.98 58.964 0.476 7.62 4.55 8.12
4/26/2022 3:15:00 AM 14.93 58.874 0.419 7.61 5.08 8.14
4/26/2022 3:30:00 AM 14.87 58.766 0.418 7.62 3.15 8.17
4/26/2022 3:45:00 AM 14.81 58.658 0.417 7.63 3.78 8.18
4/26/2022 4:00:00 AM 14.75 58.55 0.418 7.62 3.13 8.2
4/26/2022 4:15:00 AM 14.68 58.424 0.419 7.61 4.55 8.2
4/26/2022 4:30:00 AM 14.62 58.316 0.419 7.62 2.86 8.21
4/26/2022 4:45:00 AM 14.56 58.208 0.419 7.62 3.13 8.22
4/26/2022 5:00:00 AM 14.5 58.1 0.42 7.61 3.03 8.25
4/26/2022 5:15:00 AM 14.43 57.974 0.419 7.62 3.03 8.28
4/26/2022 5:30:00 AM 14.37 57.866 0.312 7.61 5.53 8.26
4/26/2022 5:45:00 AM 14.3 57.74 0.42 7.62 3.21 8.31
4/26/2022 6:00:00 AM 14.23 57.614 0.42 7.62 3.31 8.33
4/26/2022 6:15:00 AM 14.17 57.506 0.422 7.6 4.52 8.31
4/26/2022 6:30:00 AM 14.11 57.398 0.423 7.6 4.72 8.32
4/26/2022 6:45:00 AM 14.06 57.308 0.422 7.61 7.63 8.35
4/26/2022 7:00:00 AM 14 57.2 0.423 7.61 3.18 8.38
4/26/2022 7:15:00 AM 13.94 57.092 0.423 7.61 3.14 8.38
4/26/2022 7:30:00 AM 13.88 56.984 0.423 7.61 5.34 8.4
4/26/2022 7:45:00 AM 13.83 56.894 0.424 7.6 3.03 8.42
4/26/2022 8:00:00 AM 13.77 56.786 0.381 7.61 4.52 8.48
4/26/2022 8:15:00 AM 13.73 56.714 0.424 7.62 25.89 8.59
4/26/2022 8:30:00 AM 13.7 56.66 0.424 7.62 4.57 8.67
4/26/2022 8:45:00 AM 13.66 56.588 0.426 7.62 2.93 8.74
4/26/2022 9:00:00 AM 13.62 56.516 0.426 7.64 2.81 8.83
4/26/2022 9:15:00 AM 13.58 56.444 0.426 7.64 4.49 8.89
4/26/2022 9:30:00 AM 13.57 56.426 0.426 7.66 2.91 9.06
4/26/2022 9:45:00 AM 13.56 56.408 0.427 7.66 4.66 9.18
4/26/2022 10:00:00 AM 13.56 56.408 0.428 7.67 4.25 9.3
4/26/2022 10:15:00 AM 13.56 56.408 0.427 7.68 4.05 9.46
4/26/2022 10:30:00 AM 13.54 56.372 0.428 7.69 4.48 9.59
4/26/2022 10:45:00 AM 13.51 56.318 0.43 7.7 2.67 9.68
4/26/2022 11:00:00 AM 13.47 56.246 0.43 7.72 2.88 9.8
4/26/2022 11:15:00 AM 13.44 56.192 0.428 7.74 2.56 9.9
4/26/2022 11:30:00 AM 13.41 56.138 0.429 7.75 4.54 9.98
4/26/2022 11:45:00 AM 13.39 56.102 0.429 7.75 3.68 10.1
4/26/2022 12:00:00 PM 13.37 56.066 0.389 7.77 4.15 10.24
4/26/2022 12:15:00 PM 13.36 56.048 0.428 7.79 2.81 10.4
4/26/2022 12:30:00 PM 13.37 56.066 0.428 7.82 2.53 10.57
4/26/2022 12:45:00 PM 13.35 56.03 0.427 7.86 2.61 10.72
4/26/2022 1:00:00 PM 13.32 55.976 0.427 7.85 4.32 10.77
4/26/2022 1:15:00 PM 13.32 55.976 0.426 7.89 4.3 10.94
4/26/2022 1:30:00 PM 13.35 56.03 0.426 7.9 4.35 11.12
4/26/2022 1:45:00 PM 13.38 56.084 0.426 7.93 5 11.25
4/26/2022 2:00:00 PM 13.38 56.084 0.427 7.94 4.5 11.29
4/26/2022 2:15:00 PM 13.38 56.084 0.426 7.97 4.29 11.43
4/26/2022 2:30:00 PM 13.37 56.066 0.426 8 2.56 11.49
4/26/2022 2:45:00 PM 13.36 56.048 0.386 8.01 4.03 11.55
4/26/2022 3:00:00 PM 13.34 56.012 0.426 8.04 2.74 11.58
4/26/2022 3:15:00 PM 13.31 55.958 0.38 8.03 4.02 11.57
4/26/2022 3:30:00 PM 13.27 55.886 0.427 8.03 2.78 11.52
4/26/2022 3:45:00 PM 13.24 55.832 0.426 8.06 2.62 11.57
4/26/2022 4:00:00 PM 13.21 55.778 0.427 8.05 4.16 11.56
4/26/2022 4:15:00 PM 13.16 55.688 0.427 8.06 2.62 11.5
4/26/2022 4:30:00 PM 13.11 55.598 0.389 8.05 4.32 11.43
4/26/2022 4:45:00 PM 13.06 55.508 0.427 8.07 3.14 11.41
4/26/2022 5:00:00 PM 13.02 55.436 0.395 8.04 4.72 11.32
4/26/2022 5:15:00 PM 12.97 55.346 0.426 8.05 4.44 11.26
4/26/2022 5:30:00 PM 12.93 55.274 0.427 8.03 2.58 11.22
4/26/2022 5:45:00 PM 12.88 55.184 0.427 8.01 3.64 11.08
4/26/2022 6:00:00 PM 12.84 55.112 0.427 8.01 4.32 11.01
4/26/2022 6:15:00 PM 12.79 55.022 0.427 8.02 4.65 10.92
4/26/2022 6:30:00 PM 12.73 54.914 0.425 7.99 2.53 10.8
4/26/2022 6:45:00 PM 12.66 54.788 0.396 7.97 4.23 10.67
4/26/2022 7:00:00 PM 12.6 54.68 0.428 7.95 2.64 10.57
4/26/2022 7:15:00 PM 12.53 54.554 0.428 7.94 3 10.46
4/26/2022 7:30:00 PM 12.47 54.446 0.427 7.93 2.84 10.39
4/26/2022 7:45:00 PM 12.4 54.32 0.427 7.91 2.84 10.27
4/26/2022 8:00:00 PM 12.33 54.194 0.428 7.88 2.58 10.16
4/26/2022 8:15:00 PM 12.26 54.068 0.43 7.85 2.68 10.02
4/26/2022 8:30:00 PM 12.19 53.942 0.428 7.85 2.67 9.98
4/26/2022 8:45:00 PM 12.12 53.816 0.43 7.82 2.9 9.87
4/26/2022 9:00:00 PM 12.05 53.69 0.428 7.8 3.09 9.8
4/26/2022 9:15:00 PM 11.99 53.582 0.43 7.79 3.03 9.73
4/26/2022 9:30:00 PM 11.93 53.474 0.43 7.78 4.9 9.67
4/26/2022 9:45:00 PM 11.86 53.348 0.429 7.77 3.19 9.63
4/26/2022 10:00:00 PM 11.79 53.222 0.43 7.76 4.62 9.6
4/26/2022 10:15:00 PM 11.72 53.096 0.43 7.75 2.77 9.55
4/26/2022 10:30:00 PM 11.64 52.952 0.4 7.74 4.77 9.51
4/26/2022 10:45:00 PM 11.57 52.826 0.431 7.72 4.43 9.46
4/26/2022 11:00:00 PM 11.49 52.682 0.43 7.73 3.11 9.44
4/26/2022 11:15:00 PM 11.41 52.538 0.43 7.72 2.91 9.42
4/26/2022 11:30:00 PM 11.35 52.43 0.432 7.7 2.83 9.4
4/26/2022 11:45:00 PM 11.29 52.322 0.431 7.68 2.91 9.36
4/27/2022 12:00:00 AM 11.21 52.178 0.451 7.7 4.53 9.36
4/27/2022 12:15:00 AM 11.14 52.052 0.432 7.69 3.07 9.36
4/27/2022 12:30:00 AM 11.07 51.926 0.432 7.68 2.87 9.34
4/27/2022 12:45:00 AM 10.99 51.782 0.432 7.68 3.03 9.34
4/27/2022 1:00:00 AM 10.89 51.602 0.432 7.68 3.07 9.36
4/27/2022 1:15:00 AM 10.81 51.458 0.433 7.67 3.08 9.36
4/27/2022 1:30:00 AM 10.75 51.35 0.433 7.66 3.08 9.37
4/27/2022 1:45:00 AM 10.69 51.242 0.433 7.66 3.05 9.34
4/27/2022 2:00:00 AM 10.62 51.116 0.432 7.65 3.08 9.35
4/27/2022 2:15:00 AM 10.56 51.008 0.432 7.67 3.02 9.37
4/27/2022 2:30:00 AM 10.49 50.882 0.433 7.66 2.98 9.41
4/27/2022 2:45:00 AM 10.42 50.756 0.432 7.67 3.1 9.41
4/27/2022 3:00:00 AM 10.35 50.63 0.431 7.67 3.11 9.43
4/27/2022 3:15:00 AM 10.28 50.504 0.434 7.65 2.88 9.43
4/27/2022 3:30:00 AM 10.22 50.396 0.433 7.66 2.9 9.44
4/27/2022 3:45:00 AM 10.16 50.288 0.435 7.64 3.1 9.45
4/27/2022 4:00:00 AM 10.11 50.198 0.435 7.65 2.88 9.49
4/27/2022 4:15:00 AM 10.03 50.054 0.434 7.66 2.99 9.51
4/27/2022 4:30:00 AM 9.95 49.91 0.435 7.66 3.31 9.54
4/27/2022 4:45:00 AM 9.89 49.802 0.434 7.67 2.9 9.57
4/27/2022 5:00:00 AM 9.82 49.676 0.434 7.67 2.82 9.59
4/27/2022 5:15:00 AM 9.75 49.55 0.436 7.67 3 9.61
4/27/2022 5:30:00 AM 9.69 49.442 0.435 7.67 3.02 9.61
4/27/2022 5:45:00 AM 9.61 49.298 0.435 7.66 3.07 9.61
4/27/2022 6:00:00 AM 9.55 49.19 0.437 7.66 3.22 9.64
4/27/2022 6:15:00 AM 9.46 49.028 0.436 7.67 2.95 9.71
4/27/2022 6:30:00 AM 9.38 48.884 0.434 7.67 4.66 9.7
4/27/2022 6:45:00 AM 9.32 48.776 0.436 7.68 3.01 9.76
4/27/2022 7:00:00 AM 9.25 48.65 0.437 7.68 3 9.8
4/27/2022 7:15:00 AM 9.19 48.542 0.436 7.68 2.81 9.85
4/27/2022 7:30:00 AM 9.15 48.47 0.435 7.68 2.89 9.88
4/27/2022 7:45:00 AM 9.08 48.344 0.435 7.69 2.71 9.98
4/27/2022 8:00:00 AM 9.03 48.254 0.436 7.69 2.7 10.01
4/27/2022 8:15:00 AM 8.98 48.164 0.436 7.71 3.38 10.14
4/27/2022 8:30:00 AM 8.96 48.128 0.436 7.71 2.96 10.24
4/27/2022 8:45:00 AM 8.94 48.092 0.438 7.72 2.64 10.35
4/27/2022 9:00:00 AM 8.93 48.074 0.437 7.72 2.51 10.45
4/27/2022 9:15:00 AM 8.94 48.092 0.437 7.75 2.73 10.59
4/27/2022 9:30:00 AM 8.94 48.092 0.439 7.74 2.92 10.7
4/27/2022 9:45:00 AM 8.97 48.146 0.438 7.76 2.66 10.84
4/27/2022 10:00:00 AM 9.02 48.236 0.436 7.77 2.62 10.96
4/27/2022 10:15:00 AM 9.03 48.254 0.438 7.78 2.59 11.08
4/27/2022 10:30:00 AM 9.14 48.452 0.44 7.79 2.45 11.21
4/27/2022 10:45:00 AM 9.22 48.596 0.439 7.81 2.53 11.34
4/27/2022 11:00:00 AM 9.27 48.686 0.439 7.82 2.52 11.51
4/27/2022 11:15:00 AM 9.32 48.776 0.438 7.86 3.93 11.61
4/27/2022 11:30:00 AM 9.35 48.83 0.439 7.87 2.57 11.77
4/27/2022 11:45:00 AM 9.33 48.794 0.439 7.88 2.57 11.87
4/27/2022 12:00:00 PM 9.33 48.794 0.437 7.93 2.61 12.06
4/27/2022 12:15:00 PM 9.33 48.794 0.439 7.95 6.3 12.19
4/27/2022 12:30:00 PM 9.35 48.83 0.437 7.98 3.48 12.32
4/27/2022 12:45:00 PM 9.39 48.902 0.438 7.99 2.45 12.44
4/27/2022 1:00:00 PM 9.39 48.902 0.438 8.03 2.5 12.55
4/27/2022 1:15:00 PM 9.36 48.848 0.439 8.03 2.49 12.59
4/27/2022 1:30:00 PM 9.34 48.812 0.438 8.05 2.84 12.66
4/27/2022 1:45:00 PM 9.39 48.902 0.437 8.07 2.57 12.69
4/27/2022 2:00:00 PM 9.42 48.956 0.439 8.12 3.37 12.78
4/27/2022 2:15:00 PM 9.45 49.01 0.438 8.12 2.53 12.84
4/27/2022 2:30:00 PM 9.58 49.244 0.439 8.13 2.57 12.94
4/27/2022 2:45:00 PM 9.66 49.388 0.438 8.15 2.5 12.96
4/27/2022 3:00:00 PM 9.69 49.442 0.438 8.18 3.2 13.01
4/27/2022 3:15:00 PM 9.8 49.64 0.44 8.16 2.54 13.04
4/27/2022 3:30:00 PM 9.8 49.64 0.439 8.2 2.69 13.01
4/27/2022 3:45:00 PM 9.78 49.604 0.44 8.21 2.44 12.98
4/27/2022 4:00:00 PM 9.84 49.712 0.438 8.22 2.35 13.02
4/27/2022 4:15:00 PM 9.79 49.622 0.438 8.23 2.48 12.93
4/27/2022 4:30:00 PM 9.79 49.622 0.439 8.22 2.33 12.92
4/27/2022 4:45:00 PM 9.76 49.568 0.439 8.21 2.7 12.85
4/27/2022 5:00:00 PM 9.78 49.604 0.44 8.22 2.51 12.86
4/27/2022 5:15:00 PM 9.74 49.532 0.441 8.21 2.77 12.77
4/27/2022 5:30:00 PM 9.7 49.46 0.44 8.22 2.7 12.72
4/27/2022 5:45:00 PM 9.66 49.388 0.442 8.2 3.8 12.62
4/27/2022 6:00:00 PM 9.58 49.244 0.377 8.21 3.9 12.6
4/27/2022 6:15:00 PM 9.51 49.118 0.44 8.21 2.35 12.53
4/27/2022 6:30:00 PM 9.44 48.992 0.442 8.21 2.41 12.47
4/27/2022 6:45:00 PM 9.4 48.92 0.441 8.2 2.48 12.37
4/27/2022 7:00:00 PM 9.36 48.848 0.442 8.18 2.62 12.32
4/27/2022 7:15:00 PM 9.32 48.776 0.442 8.17 2.59 12.21
4/27/2022 7:30:00 PM 9.26 48.668 0.443 8.15 4.29 12.14
4/27/2022 7:45:00 PM 9.2 48.56 0.444 8.12 2.8 11.99
4/27/2022 8:00:00 PM 9.15 48.47 0.443 8.13 2.39 11.91
4/27/2022 8:15:00 PM 9.1 48.38 0.443 8.09 2.46 11.81
4/27/2022 8:30:00 PM 9.04 48.272 0.444 8.09 2.47 11.73
4/27/2022 8:45:00 PM 8.99 48.182 0.443 8.07 2.34 11.61
4/27/2022 9:00:00 PM 8.92 48.056 0.443 8.04 2.49 11.52
4/27/2022 9:15:00 PM 8.85 47.93 0.444 8.02 2.27 11.43
4/27/2022 9:30:00 PM 8.78 47.804 0.444 7.99 2.49 11.32
4/27/2022 9:45:00 PM 8.7 47.66 0.443 7.98 2.52 11.22
4/27/2022 10:00:00 PM 8.63 47.534 0.443 7.96 2.48 11.14
4/27/2022 10:15:00 PM 8.56 47.408 0.443 7.94 2.67 11.06
4/27/2022 10:30:00 PM 8.5 47.3 0.444 7.92 2.75 10.98
4/27/2022 10:45:00 PM 8.44 47.192 0.444 7.91 2.76 10.91
4/27/2022 11:00:00 PM 8.37 47.066 0.444 7.89 2.76 10.83
4/27/2022 11:15:00 PM 8.31 46.958 0.444 7.87 2.83 10.75
4/27/2022 11:30:00 PM 8.24 46.832 0.444 7.86 3.2 10.69
4/27/2022 11:45:00 PM 8.18 46.724 0.444 7.85 3.04 10.63
4/28/2022 12:00:00 AM 8.13 46.634 0.444 7.83 3 10.58
4/28/2022 12:15:00 AM 8.07 46.526 0.445 7.82 2.87 10.51
4/28/2022 12:30:00 AM 8.01 46.418 0.445 7.81 2.93 10.49
4/28/2022 12:45:00 AM 7.95 46.31 0.445 7.8 2.83 10.47
4/28/2022 1:00:00 AM 7.9 46.22 0.446 7.78 2.67 10.44
4/28/2022 1:15:00 AM 7.85 46.13 0.446 7.77 2.71 10.4
4/28/2022 1:30:00 AM 7.8 46.04 0.446 7.77 2.59 10.39
4/28/2022 1:45:00 AM 7.75 45.95 0.447 7.76 2.49 10.37
4/28/2022 2:00:00 AM 7.71 45.878 0.447 7.75 2.78 10.37
4/28/2022 2:15:00 AM 7.67 45.806 0.446 7.75 2.83 10.36
4/28/2022 2:30:00 AM 7.64 45.752 0.447 7.74 2.57 10.36
4/28/2022 2:45:00 AM 7.59 45.662 0.447 7.74 2.41 10.36
4/28/2022 3:00:00 AM 7.55 45.59 0.447 7.74 2.59 10.36
4/28/2022 3:15:00 AM 7.5 45.5 0.448 7.73 2.52 10.36
4/28/2022 3:30:00 AM 7.46 45.428 0.448 7.73 2.6 10.36
4/28/2022 3:45:00 AM 7.41 45.338 0.448 7.73 2.79 10.35
4/28/2022 4:00:00 AM 7.37 45.266 0.448 7.73 2.75 10.38
4/28/2022 4:15:00 AM 7.32 45.176 0.449 7.73 2.92 10.39
4/28/2022 4:30:00 AM 7.28 45.104 0.45 7.71 2.72 10.41
4/28/2022 4:45:00 AM 7.22 44.996 0.449 7.72 2.68 10.41
4/28/2022 5:00:00 AM 7.17 44.906 0.45 7.73 2.49 10.43
4/28/2022 5:15:00 AM 7.1 44.78 0.451 7.71 2.39 10.43
4/28/2022 5:30:00 AM 7.06 44.708 0.452 7.72 2.53 10.44
4/28/2022 5:45:00 AM 7.02 44.636 0.451 7.71 2.83 10.46
4/28/2022 6:00:00 AM 6.98 44.564 0.453 7.71 2.45 10.45
4/28/2022 6:15:00 AM 6.93 44.474 0.452 7.71 2.66 10.46
4/28/2022 6:30:00 AM 6.89 44.402 0.453 7.72 2.43 10.5
4/28/2022 6:45:00 AM 6.85 44.33 0.453 7.73 2.42 10.53
4/28/2022 7:00:00 AM 6.82 44.276 0.453 7.72 2.45 10.59
4/28/2022 7:15:00 AM 6.79 44.222 0.453 7.72 2.46 10.64
4/28/2022 7:30:00 AM 6.74 44.132 0.454 7.72 2.33 10.68
4/28/2022 7:45:00 AM 6.7 44.06 0.455 7.72 2.47 10.72
4/28/2022 8:00:00 AM 6.67 44.006 0.455 7.73 2.59 10.79
4/28/2022 8:15:00 AM 6.62 43.916 0.454 7.73 2.6 10.85
4/28/2022 8:30:00 AM 6.59 43.862 0.454 7.73 2.62 10.91
4/28/2022 8:45:00 AM 6.56 43.808 0.455 7.75 2.45 11.01
4/28/2022 9:00:00 AM 6.55 43.79 0.454 7.75 2.49 11.11
4/28/2022 9:15:00 AM 6.54 43.772 0.454 7.75 3.9 11.18
4/28/2022 9:30:00 AM 6.57 43.826 0.455 7.77 2.29 11.32
4/28/2022 9:45:00 AM 6.61 43.898 0.456 7.78 2.37 11.43
4/28/2022 10:00:00 AM 6.67 44.006 0.457 7.78 2.35 11.48
4/28/2022 10:15:00 AM 6.73 44.114 0.456 7.79 2.4 11.6
4/28/2022 10:30:00 AM 6.87 44.366 0.455 7.81 2.27 11.72
4/28/2022 10:45:00 AM 7.04 44.672 0.455 7.84 2.3 11.89
4/28/2022 11:00:00 AM 7.24 45.032 0.456 7.84 2.42 11.98
4/28/2022 11:15:00 AM 7.44 45.392 0.455 7.84 2.3 12.09
4/28/2022 11:30:00 AM 7.65 45.77 0.455 7.87 2.35 12.31
4/28/2022 11:45:00 AM 7.89 46.202 0.457 7.88 3.56 12.4
4/28/2022 12:00:00 PM 8.12 46.616 0.457 7.9 3.43 12.48
4/28/2022 12:15:00 PM 8.36 47.048 0.456 7.92 2.58 12.61
4/28/2022 12:30:00 PM 8.61 47.498 0.457 7.92 2.43 12.72
4/28/2022 12:45:00 PM 8.87 47.966 0.457 7.95 2.52 12.82
4/28/2022 1:00:00 PM 9.14 48.452 0.458 7.97 2.31 12.92
4/28/2022 1:15:00 PM 9.43 48.974 0.459 7.97 2.59 12.94
4/28/2022 1:30:00 PM 9.72 49.496 0.456 8.01 2.5 13.06
4/28/2022 1:45:00 PM 10 50 0.46 7.98 2.38 13.04
4/28/2022 2:00:00 PM 10.3 50.54 0.457 8.03 2.42 13.08
4/28/2022 2:15:00 PM 10.6 51.08 0.457 8.06 2.31 13.21
4/28/2022 2:30:00 PM 10.87 51.566 0.457 8.06 3.88 13.19
4/28/2022 2:45:00 PM 11.11 51.998 0.457 8.08 3.85 13.21
4/28/2022 3:00:00 PM 11.35 52.43 0.455 8.14 4.31 13.21
4/28/2022 3:15:00 PM 11.52 52.736 0.456 8.15 2.42 13.2
4/28/2022 3:30:00 PM 11.7 53.06 0.404 8.15 3.88 13.19
4/28/2022 3:45:00 PM 11.87 53.366 0.455 8.18 2.3 13.21
4/28/2022 4:00:00 PM 11.99 53.582 0.457 8.19 2.41 13.1
4/28/2022 4:15:00 PM 12.1 53.78 0.457 8.18 3.73 13.07
4/28/2022 4:30:00 PM 12.17 53.906 0.458 8.18 3.76 13.04
4/28/2022 4:45:00 PM 12.22 53.996 0.459 8.21 2.26 12.96
4/28/2022 5:00:00 PM 12.24 54.032 0.403 8.18 3.81 12.88
4/28/2022 5:15:00 PM 12.26 54.068 0.458 8.19 2.76 12.79
4/28/2022 5:30:00 PM 12.27 54.086 0.457 8.21 2.56 12.81
4/28/2022 5:45:00 PM 12.26 54.068 0.458 8.22 2.46 12.67
4/28/2022 6:00:00 PM 12.24 54.032 0.459 8.2 2.27 12.61
4/28/2022 6:15:00 PM 12.21 53.978 0.459 8.25 2.2 12.52
4/28/2022 6:30:00 PM 12.17 53.906 0.459 8.22 4.04 12.43
4/28/2022 6:45:00 PM 12.11 53.798 0.46 8.19 4.26 12.31
4/28/2022 7:00:00 PM 12.06 53.708 0.46 8.23 2.49 12.23
4/28/2022 7:15:00 PM 12 53.6 0.46 8.18 2.64 12.11
4/28/2022 7:30:00 PM 11.92 53.456 0.46 8.19 4.22 12.01
4/28/2022 7:45:00 PM 11.84 53.312 0.46 8.2 2.34 11.94
4/28/2022 8:00:00 PM 11.75 53.15 0.461 8.16 4.45 11.78
4/28/2022 8:15:00 PM 11.65 52.97 0.46 8.18 2.17 11.63
4/28/2022 8:30:00 PM 11.56 52.808 0.461 8.16 2.17 11.49
4/28/2022 8:45:00 PM 11.46 52.628 0.461 8.12 2.14 11.39
4/28/2022 9:00:00 PM 11.36 52.448 0.461 8.11 3.94 11.24
4/28/2022 9:15:00 PM 11.27 52.286 0.461 8.11 2.34 11.12
4/28/2022 9:30:00 PM 11.18 52.124 0.461 8.07 2.48 11
4/28/2022 9:45:00 PM 11.08 51.944 0.46 8.07 2.39 10.9
4/28/2022 10:00:00 PM 10.98 51.764 0.461 8.05 2.37 10.81
4/28/2022 10:15:00 PM 10.87 51.566 0.364 7.99 3.94 10.65
4/28/2022 10:30:00 PM 10.77 51.386 0.462 7.98 4.19 10.54
4/28/2022 10:45:00 PM 10.66 51.188 0.462 7.96 4.13 10.43
4/28/2022 11:00:00 PM 10.57 51.026 0.464 7.96 2.49 10.34
4/28/2022 11:15:00 PM 10.46 50.828 0.463 7.94 2.49 10.26
4/28/2022 11:30:00 PM 10.36 50.648 0.464 7.9 2.43 10.18
4/28/2022 11:45:00 PM 10.26 50.468 0.465 7.89 2.4 10.09
4/29/2022 12:00:00 AM 10.16 50.288 0.465 7.87 4.04 10.01
4/29/2022 12:15:00 AM 10.05 50.09 0.466 7.86 2.51 9.94
4/29/2022 12:30:00 AM 9.96 49.928 0.465 7.84 2.64 9.9
4/29/2022 12:45:00 AM 9.85 49.73 0.465 7.82 2.56 9.82
4/29/2022 1:00:00 AM 9.75 49.55 0.465 7.82 2.69 9.78
4/29/2022 1:15:00 AM 9.65 49.37 0.466 7.81 2.42 9.75
4/29/2022 1:30:00 AM 9.58 49.244 0.467 7.78 2.35 9.68
4/29/2022 1:45:00 AM 9.48 49.064 0.468 7.79 2.55 9.69
4/29/2022 2:00:00 AM 9.38 48.884 0.466 7.78 2.83 9.64
4/29/2022 2:15:00 AM 9.3 48.74 0.468 7.76 3.38 9.65
4/29/2022 2:30:00 AM 9.22 48.596 0.468 7.75 2.73 9.66
4/29/2022 2:45:00 AM 9.14 48.452 0.467 7.75 2.33 9.66
4/29/2022 3:00:00 AM 9.06 48.308 0.469 7.75 2.5 9.66
4/29/2022 3:15:00 AM 8.97 48.146 0.468 7.74 2.61 9.64
4/29/2022 3:30:00 AM 8.89 48.002 0.471 7.73 2.55 9.69
4/29/2022 3:45:00 AM 8.8 47.84 0.471 7.74 3.44 9.68
4/29/2022 4:00:00 AM 8.72 47.696 0.471 7.73 2.62 9.7
4/29/2022 4:15:00 AM 8.62 47.516 0.471 7.73 2.55 9.72
4/29/2022 4:30:00 AM 8.54 47.372 0.472 7.71 2.47 9.74
4/29/2022 4:45:00 AM 8.44 47.192 0.471 7.72 2.5 9.78
4/29/2022 5:00:00 AM 8.36 47.048 0.472 7.72 2.59 9.79
4/29/2022 5:15:00 AM 8.28 46.904 0.472 7.72 2.47 9.8
4/29/2022 5:30:00 AM 8.2 46.76 0.474 7.72 2.51 9.85
4/29/2022 5:45:00 AM 8.11 46.598 0.472 7.72 2.44 9.9
4/29/2022 6:00:00 AM 8.02 46.436 0.472 7.72 2.74 9.91
4/29/2022 6:15:00 AM 7.94 46.292 0.473 7.71 2.38 9.93
4/29/2022 6:30:00 AM 7.86 46.148 0.474 7.71 2.46 9.98
4/29/2022 6:45:00 AM 7.78 46.004 0.477 7.71 3.66 10
4/29/2022 7:00:00 AM 7.71 45.878 0.476 7.72 3.56 10.08
4/29/2022 7:15:00 AM 7.64 45.752 0.476 7.73 2.33 10.15
4/29/2022 7:30:00 AM 7.57 45.626 0.477 7.73 2.53 10.16
4/29/2022 7:45:00 AM 7.52 45.536 0.479 7.71 2.36 10.22
4/29/2022 8:00:00 AM 7.44 45.392 0.479 7.73 2.53 10.31
4/29/2022 8:15:00 AM 7.38 45.284 0.48 7.74 3.08 10.38
4/29/2022 8:30:00 AM 7.32 45.176 0.478 7.74 2.59 10.49
4/29/2022 8:45:00 AM 7.28 45.104 0.48 7.75 2.47 10.58
4/29/2022 9:00:00 AM 7.26 45.068 0.481 7.75 2.46 10.69
4/29/2022 9:15:00 AM 7.24 45.032 0.48 7.76 2.42 10.78
4/29/2022 9:30:00 AM 7.26 45.068 0.48 7.77 2.32 10.93
4/29/2022 9:45:00 AM 7.29 45.122 0.481 7.77 2.19 11.07
4/29/2022 10:00:00 AM 7.35 45.23 0.48 7.8 2.3 11.17
4/29/2022 10:15:00 AM 7.4 45.32 0.483 7.8 2.28 11.27
4/29/2022 10:30:00 AM 7.53 45.554 0.483 7.79 2.35 11.44
4/29/2022 10:45:00 AM 7.67 45.806 0.487 7.77 8.29 11.46
4/29/2022 11:00:00 AM 7.84 46.112 0.481 7.85 2.62 11.72
4/29/2022 11:15:00 AM 8.02 46.436 0.481 7.86 3.95 11.85
4/29/2022 11:30:00 AM 8.23 46.814 0.481 7.87 2.98 12.01
4/29/2022 11:45:00 AM 8.45 47.21 0.482 7.88 2.49 12.09
4/29/2022 12:00:00 PM 8.67 47.606 0.481 7.9 3.75 12.27
4/29/2022 12:15:00 PM 8.92 48.056 0.48 7.9 2.28 12.39
4/29/2022 12:30:00 PM 9.17 48.506 0.481 7.93 2.36 12.54
4/29/2022 12:45:00 PM 9.44 48.992 0.481 7.94 2.32 12.67
4/29/2022 1:00:00 PM 9.7 49.46 0.481 7.95 2.22 12.78
4/29/2022 1:15:00 PM 10 50 0.482 7.97 3.93 12.82
4/29/2022 1:30:00 PM 10.32 50.576 0.48 8.01 2.63 12.97
4/29/2022 1:45:00 PM 10.61 51.098 0.481 8.02 3.81 13.08
4/29/2022 2:00:00 PM 10.92 51.656 0.207 8.04 4.04 13.15
4/29/2022 2:15:00 PM 11.22 52.196 0.479 8.06 2.37 13.22
4/29/2022 2:30:00 PM 11.5 52.7 0.48 8.05 2.19 13.1
4/29/2022 2:45:00 PM 11.75 53.15 0.481 8.09 3.9 13.25
4/29/2022 3:00:00 PM 11.99 53.582 0.48 8.13 2.23 13.24
4/29/2022 3:15:00 PM 12.22 53.996 0.48 8.1 2.04 13.28
4/29/2022 3:30:00 PM 12.4 54.32 0.48 8.15 3.62 13.28
4/29/2022 3:45:00 PM 12.56 54.608 0.48 8.17 2.23 13.25
4/29/2022 4:00:00 PM 12.7 54.86 0.377 8.18 3.69 13.24
4/29/2022 4:15:00 PM 12.84 55.112 0.479 8.2 2.22 13.14
4/29/2022 4:30:00 PM 12.92 55.256 0.48 8.2 2.22 13.14
4/29/2022 4:45:00 PM 13.02 55.436 0.479 8.19 2.14 13.06
4/29/2022 5:00:00 PM 13.06 55.508 0.479 8.22 2.12 12.95
4/29/2022 5:15:00 PM 13.08 55.544 0.479 8.25 2.87 12.78
4/29/2022 5:30:00 PM 13.1 55.58 0.479 8.24 2.46 12.9
4/29/2022 5:45:00 PM 13.11 55.598 0.479 8.24 3.53 12.83
4/29/2022 6:00:00 PM 13.1 55.58 0.479 8.24 4 12.72
4/29/2022 6:15:00 PM 13.05 55.49 0.479 8.24 4.06 12.66
4/29/2022 6:30:00 PM 13.01 55.418 0.478 8.26 3.96 12.57
4/29/2022 6:45:00 PM 12.96 55.328 0.478 8.24 2.05 12.47
4/29/2022 7:00:00 PM 12.9 55.22 0.386 8.23 3.6 12.35
4/29/2022 7:15:00 PM 12.83 55.094 0.48 8.23 2.13 12.17
4/29/2022 7:30:00 PM 12.75 54.95 0.391 8.22 4.12 12.07
4/29/2022 7:45:00 PM 12.69 54.842 0.48 8.22 2.02 11.99
4/29/2022 8:00:00 PM 12.61 54.698 0.39 8.21 3.63 11.83
4/29/2022 8:15:00 PM 12.54 54.572 0.48 8.2 2.1 11.69
4/29/2022 8:30:00 PM 12.45 54.41 0.48 8.2 2.04 11.56
4/29/2022 8:45:00 PM 12.36 54.248 0.481 8.17 2.19 11.39
4/29/2022 9:00:00 PM 12.26 54.068 0.481 8.14 2.29 11.28
4/29/2022 9:15:00 PM 12.17 53.906 0.481 8.13 2.3 11.14
4/29/2022 9:30:00 PM 12.08 53.744 0.481 8.11 2.49 11
4/29/2022 9:45:00 PM 11.98 53.564 0.481 8.07 2.6 10.85
4/29/2022 10:00:00 PM 11.87 53.366 0.481 8.06 2.93 10.72
4/29/2022 10:15:00 PM 11.76 53.168 0.482 8.04 2.42 10.58
4/29/2022 10:30:00 PM 11.65 52.97 0.482 8.02 2.4 10.47
4/29/2022 10:45:00 PM 11.54 52.772 0.483 7.99 2.65 10.3
4/29/2022 11:00:00 PM 11.43 52.574 0.484 7.97 4.2 10.21
4/29/2022 11:15:00 PM 11.32 52.376 0.483 7.97 4.31 10.15
4/29/2022 11:30:00 PM 11.21 52.178 0.483 7.94 4.3 10.05
4/29/2022 11:45:00 PM 11.1 51.98 0.484 7.92 2.69 9.95
4/30/2022 12:00:00 AM 10.99 51.782 0.485 7.88 2.74 9.87
4/30/2022 12:15:00 AM 10.88 51.584 0.486 7.88 2.52 9.78
4/30/2022 12:30:00 AM 10.75 51.35 0.486 7.86 2.45 9.69
4/30/2022 12:45:00 AM 10.64 51.152 0.251 7.85 4.28 9.63
4/30/2022 1:00:00 AM 10.54 50.972 0.487 7.85 2.4 9.6
4/30/2022 1:15:00 AM 10.43 50.774 0.49 7.81 2.5 9.51
4/30/2022 1:30:00 AM 10.32 50.576 0.488 7.8 2.25 9.45
4/30/2022 1:45:00 AM 10.21 50.378 0.488 7.79 2.32 9.43
4/30/2022 2:00:00 AM 10.1 50.18 0.488 7.78 4.78 9.41
4/30/2022 2:15:00 AM 10 50 0.49 7.77 5.02 9.37
4/30/2022 2:30:00 AM 9.89 49.802 0.49 7.76 4.49 9.38
4/30/2022 2:45:00 AM 9.79 49.622 0.49 7.76 3.39 9.36
4/30/2022 3:00:00 AM 9.68 49.424 0.49 7.76 4.99 9.37
4/30/2022 3:15:00 AM 9.58 49.244 0.49 7.75 3.49 9.41
4/30/2022 3:30:00 AM 9.47 49.046 0.491 7.74 2.76 9.42
4/30/2022 3:45:00 AM 9.36 48.848 0.491 7.75 2.63 9.46
4/30/2022 4:00:00 AM 9.26 48.668 0.491 7.74 2.54 9.49
4/30/2022 4:15:00 AM 9.15 48.47 0.492 7.73 2.48 9.49
4/30/2022 4:30:00 AM 9.05 48.29 0.492 7.73 3.11 9.51
4/30/2022 4:45:00 AM 8.94 48.092 0.492 7.73 3.23 9.55
4/30/2022 5:00:00 AM 8.84 47.912 0.491 7.72 2.86 9.56
4/30/2022 5:15:00 AM 8.74 47.732 0.493 7.72 3 9.54
4/30/2022 5:30:00 AM 8.64 47.552 0.492 7.72 2.99 9.6
4/30/2022 5:45:00 AM 8.55 47.39 0.493 7.72 2.79 9.64
4/30/2022 6:00:00 AM 8.45 47.21 0.493 7.72 3.35 9.7
4/30/2022 6:15:00 AM 8.36 47.048 0.492 7.72 3.11 9.7
4/30/2022 6:30:00 AM 8.26 46.868 0.493 7.72 3.08 9.73
4/30/2022 6:45:00 AM 8.17 46.706 0.494 7.71 3.51 9.77
4/30/2022 7:00:00 AM 8.09 46.562 0.496 7.72 3.3 9.8
4/30/2022 7:15:00 AM 8.02 46.436 0.495 7.7 3.49 9.87
4/30/2022 7:30:00 AM 7.94 46.292 0.496 7.72 3.16 9.95
4/30/2022 7:45:00 AM 7.87 46.166 0.498 7.72 2.8 10.03
4/30/2022 8:00:00 AM 7.8 46.04 0.499 7.72 2.63 10.08
4/30/2022 8:15:00 AM 7.74 45.932 0.498 7.73 3.78 10.13
4/30/2022 8:30:00 AM 7.69 45.842 0.5 7.73 2.93 10.18
4/30/2022 8:45:00 AM 7.65 45.77 0.499 7.74 3.31 10.33
4/30/2022 9:00:00 AM 7.63 45.734 0.5 7.75 3.91 10.43
4/30/2022 9:15:00 AM 7.63 45.734 0.5 7.77 2.75 10.59
4/30/2022 9:30:00 AM 7.68 45.824 0.501 7.77 2.49 10.7
4/30/2022 9:45:00 AM 7.74 45.932 0.501 7.79 2.69 10.78
4/30/2022 10:00:00 AM 7.82 46.076 0.501 7.8 3.18 10.95
4/30/2022 10:15:00 AM 7.89 46.202 0.501 7.81 2.27 11.06
4/30/2022 10:30:00 AM 8.04 46.472 0.501 7.81 2.26 11.17
4/30/2022 10:45:00 AM 8.22 46.796 0.501 7.83 2.39 11.36
4/30/2022 11:00:00 AM 8.41 47.138 0.502 7.85 2.28 11.55
4/30/2022 11:15:00 AM 8.64 47.552 0.502 7.87 2.82 11.71
4/30/2022 11:30:00 AM 8.88 47.984 0.503 7.87 2.49 11.86
4/30/2022 11:45:00 AM 9.12 48.416 0.502 7.89 2.45 11.99
4/30/2022 12:00:00 PM 9.38 48.884 0.501 7.91 2.27 12.16
4/30/2022 12:15:00 PM 9.64 49.352 0.501 7.92 2.42 12.32
4/30/2022 12:30:00 PM 9.91 49.838 0.5 7.94 2.83 12.4
4/30/2022 12:45:00 PM 10.19 50.342 0.501 7.96 4.2 12.61
4/30/2022 1:00:00 PM 10.49 50.882 0.501 7.98 2.33 12.64
4/30/2022 1:15:00 PM 10.79 51.422 0.501 7.98 4.22 12.78
4/30/2022 1:30:00 PM 11.1 51.98 0.501 8 2.62 12.85
4/30/2022 1:45:00 PM 11.4 52.52 0.501 8.04 2.49 12.99
4/30/2022 2:00:00 PM 11.71 53.078 0.374 8.05 4.58 13.18
4/30/2022 2:15:00 PM 12.03 53.654 0.499 8.08 4.92 13.22
4/30/2022 2:30:00 PM 12.31 54.158 0.5 8.09 2.72 13.27
4/30/2022 2:45:00 PM 12.6 54.68 0.498 8.14 2.79 13.39
4/30/2022 3:00:00 PM 12.84 55.112 0.498 8.12 2.72 13.32
4/30/2022 3:15:00 PM 13.06 55.508 0.498 8.11 2.49 13.32
4/30/2022 3:30:00 PM 13.28 55.904 0.497 8.19 2.28 13.21
4/30/2022 3:45:00 PM 13.43 56.174 0.498 8.16 2.3 13.29
4/30/2022 4:00:00 PM 13.62 56.516 0.497 8.21 2.39 13.43
4/30/2022 4:15:00 PM 13.73 56.714 0.385 8.22 3.85 13.37
4/30/2022 4:30:00 PM 13.84 56.912 0.496 8.24 2.5 13.24
4/30/2022 4:45:00 PM 13.89 57.002 0.387 8.23 3.87 13.24
4/30/2022 5:00:00 PM 13.96 57.128 0.495 8.27 3.81 13.21
4/30/2022 5:15:00 PM 14 57.2 0.495 8.28 3.65 13.2
4/30/2022 5:30:00 PM 13.99 57.182 0.496 8.28 3.62 13.12
4/30/2022 5:45:00 PM 14 57.2 0.495 8.28 1.97 12.97
4/30/2022 6:00:00 PM 14 57.2 0.558 8.3 3.66 13
4/30/2022 6:15:00 PM 13.95 57.11 0.495 8.31 3.91 12.89
4/30/2022 6:30:00 PM 13.92 57.056 0.495 8.3 2.2 12.78
4/30/2022 6:45:00 PM 13.89 57.002 0.495 8.3 2.36 12.7
4/30/2022 7:00:00 PM 13.84 56.912 0.495 8.3 3.67 12.58
4/30/2022 7:15:00 PM 13.77 56.786 0.495 8.28 3.86 12.42
4/30/2022 7:30:00 PM 13.7 56.66 0.496 8.26 2.29 12.22
4/30/2022 7:45:00 PM 13.63 56.534 0.495 8.24 2.43 12.1
4/30/2022 8:00:00 PM 13.55 56.39 0.497 8.23 3.97 11.91
4/30/2022 8:15:00 PM 13.48 56.264 0.356 8.24 3.76 11.79
4/30/2022 8:30:00 PM 13.39 56.102 0.496 8.21 2.19 11.58
4/30/2022 8:45:00 PM 13.3 55.94 0.497 8.2 2.21 11.44
4/30/2022 9:00:00 PM 13.2 55.76 0.497 8.18 2.27 11.26
4/30/2022 9:15:00 PM 13.11 55.598 0.497 8.16 2.2 11.11
4/30/2022 9:30:00 PM 13.02 55.436 0.499 8.15 3.99 10.98
4/30/2022 9:45:00 PM 12.92 55.256 0.498 8.13 2.3 10.83
4/30/2022 10:00:00 PM 12.81 55.058 0.39 8.11 4.04 10.67
4/30/2022 10:15:00 PM 12.7 54.86 0.498 8.09 2.91 10.53
4/30/2022 10:30:00 PM 12.59 54.662 0.377 8.05 4.29 10.39
4/30/2022 10:45:00 PM 12.47 54.446 0.498 8.06 2.65 10.29
4/30/2022 11:00:00 PM 12.35 54.23 0.499 8.03 2.65 10.19
4/30/2022 11:15:00 PM 12.23 54.014 0.499 8.01 2.7 10.04
4/30/2022 11:30:00 PM 12.12 53.816 0.387 7.99 4.09 9.96
4/30/2022 11:45:00 PM 12.01 53.618 0.5 7.97 2.74 9.85
5/1/2022 12:00:00 AM 11.9 53.42 0.5 7.95 2.67 9.75
5/1/2022 12:15:00 AM 11.79 53.222 0.501 7.93 4.17 9.66
5/1/2022 12:30:00 AM 11.68 53.024 0.501 7.92 2.8 9.57
5/1/2022 12:45:00 AM 11.56 52.808 0.502 7.89 4.25 9.47
5/1/2022 1:00:00 AM 11.45 52.61 0.502 7.88 3.96 9.39
5/1/2022 1:15:00 AM 11.35 52.43 0.503 7.86 2.56 9.3
5/1/2022 1:30:00 AM 11.24 52.232 0.503 7.85 2.61 9.25
5/1/2022 1:45:00 AM 11.14 52.052 0.504 7.83 3.86 9.21
5/1/2022 2:00:00 AM 11.03 51.854 0.505 7.81 4.16 9.13
5/1/2022 2:15:00 AM 10.92 51.656 0.504 7.81 3.15 9.11
5/1/2022 2:30:00 AM 10.81 51.458 0.504 7.79 2.65 9.1
5/1/2022 2:45:00 AM 10.7 51.26 0.505 7.79 2.75 9.09
5/1/2022 3:00:00 AM 10.59 51.062 0.505 7.78 4.11 9.09
5/1/2022 3:15:00 AM 10.49 50.882 0.506 7.77 2.72 9.08
5/1/2022 3:30:00 AM 10.38 50.684 0.507 7.76 3.28 9.07
5/1/2022 3:45:00 AM 10.27 50.486 0.423 7.75 4.27 9.1
5/1/2022 4:00:00 AM 10.17 50.306 0.508 7.74 2.55 9.09
5/1/2022 4:15:00 AM 10.06 50.108 0.507 7.74 2.53 9.13
5/1/2022 4:30:00 AM 9.94 49.892 0.506 7.75 3.66 9.18
5/1/2022 4:45:00 AM 9.83 49.694 0.507 7.75 2.79 9.2
5/1/2022 5:00:00 AM 9.72 49.496 0.507 7.74 4.83 9.21
5/1/2022 5:15:00 AM 9.61 49.298 0.507 7.74 2.82 9.26
5/1/2022 5:30:00 AM 9.49 49.082 0.508 7.74 2.57 9.27
5/1/2022 5:45:00 AM 9.39 48.902 0.508 7.73 2.59 9.28
5/1/2022 6:00:00 AM 9.3 48.74 0.508 7.73 2.86 9.27
5/1/2022 6:15:00 AM 9.18 48.524 0.508 7.72 5.49 9.29
5/1/2022 6:30:00 AM 9.1 48.38 0.51 7.72 3.11 9.33
5/1/2022 6:45:00 AM 9.01 48.218 0.511 7.72 3.11 9.41
5/1/2022 7:00:00 AM 8.92 48.056 0.512 7.72 4.28 9.47
5/1/2022 7:15:00 AM 8.85 47.93 0.511 7.73 19.72 9.51
5/1/2022 7:30:00 AM 8.78 47.804 0.512 7.73 3.19 9.61
5/1/2022 7:45:00 AM 8.71 47.678 0.513 7.73 2.98 9.69
5/1/2022 8:00:00 AM 8.64 47.552 0.513 7.74 3.05 9.79
5/1/2022 8:15:00 AM 8.59 47.462 0.513 7.75 2.97 9.88
5/1/2022 8:30:00 AM 8.53 47.354 0.514 7.75 2.88 9.98
5/1/2022 8:45:00 AM 8.49 47.282 0.514 7.76 2.76 10.1
5/1/2022 9:00:00 AM 8.47 47.246 0.515 7.76 3.06 10.17
5/1/2022 9:15:00 AM 8.47 47.246 0.517 7.77 2.68 10.33
5/1/2022 9:30:00 AM 8.5 47.3 0.516 7.79 2.64 10.49
5/1/2022 9:45:00 AM 8.57 47.426 0.516 7.8 2.67 10.64
5/1/2022 10:00:00 AM 8.64 47.552 0.518 7.82 4.05 10.81
5/1/2022 10:15:00 AM 8.72 47.696 0.516 7.83 2.79 10.92
5/1/2022 10:30:00 AM 8.86 47.948 0.516 7.84 2.64 11.06
5/1/2022 10:45:00 AM 9.01 48.218 0.517 7.85 2.42 11.22
5/1/2022 11:00:00 AM 9.16 48.488 0.517 7.86 2.42 11.36
5/1/2022 11:15:00 AM 9.38 48.884 0.517 7.88 2.42 11.55
5/1/2022 11:30:00 AM 9.61 49.298 0.518 7.89 2.57 11.7
5/1/2022 11:45:00 AM 9.87 49.766 0.517 7.92 2.78 11.93
5/1/2022 12:00:00 PM 10.14 50.252 0.517 7.93 2.39 12.1
5/1/2022 12:15:00 PM 10.37 50.666 0.516 7.96 4.24 12.29
5/1/2022 12:30:00 PM 10.58 51.044 0.516 7.97 3.36 12.41
5/1/2022 12:45:00 PM 10.86 51.548 0.403 7.98 3.99 12.56
5/1/2022 1:00:00 PM 11.12 52.016 0.517 8.01 2.35 12.61
5/1/2022 1:15:00 PM 11.32 52.376 0.515 8.05 2.32 12.88
5/1/2022 1:30:00 PM 11.45 52.61 0.515 8.07 2.29 12.98
5/1/2022 1:45:00 PM 11.58 52.844 0.514 8.09 2.47 13.12
5/1/2022 2:00:00 PM 11.69 53.042 0.515 8.11 2.17 13.19
5/1/2022 2:15:00 PM 11.77 53.186 0.514 8.12 2.55 13.22
5/1/2022 2:30:00 PM 11.88 53.384 0.387 8.14 3.67 13.31
5/1/2022 2:45:00 PM 11.98 53.564 0.513 8.17 3.61 13.31
5/1/2022 3:00:00 PM 12.05 53.69 0.513 8.18 2.25 13.27
5/1/2022 3:15:00 PM 12.11 53.798 0.513 8.18 3.77 13.28
5/1/2022 3:30:00 PM 12.16 53.888 0.513 8.19 4.51 13.2
5/1/2022 3:45:00 PM 12.19 53.942 0.511 8.21 2.46 13.16
5/1/2022 4:00:00 PM 12.22 53.996 0.387 8.22 3.95 13.19
5/1/2022 4:15:00 PM 12.23 54.014 0.51 8.23 2.64 13.07
5/1/2022 4:30:00 PM 12.23 54.014 0.402 8.23 3.97 12.98
5/1/2022 4:45:00 PM 12.24 54.032 0.51 8.23 3.91 12.85
5/1/2022 5:00:00 PM 12.25 54.05 0.509 8.23 2.52 12.73
5/1/2022 5:15:00 PM 12.27 54.086 0.51 8.22 2.41 12.66
5/1/2022 5:30:00 PM 12.28 54.104 0.51 8.22 2.5 12.53
5/1/2022 5:45:00 PM 12.28 54.104 0.509 8.22 2.58 12.44
5/1/2022 6:00:00 PM 12.27 54.086 0.382 8.21 3.8 12.34
5/1/2022 6:15:00 PM 12.25 54.05 0.51 8.21 3.87 12.21
5/1/2022 6:30:00 PM 12.23 54.014 0.509 8.21 2.74 12.11
5/1/2022 6:45:00 PM 12.2 53.96 0.402 8.2 3.94 12
5/1/2022 7:00:00 PM 12.17 53.906 0.509 8.19 2.66 11.84
5/1/2022 7:15:00 PM 12.14 53.852 0.509 8.17 3.91 11.7
5/1/2022 7:30:00 PM 12.11 53.798 0.509 8.16 2.54 11.58
5/1/2022 7:45:00 PM 12.07 53.726 0.509 8.15 2.8 11.41
5/1/2022 8:00:00 PM 12.03 53.654 0.51 8.13 3.77 11.26
5/1/2022 8:15:00 PM 11.99 53.582 0.51 8.11 2.38 11.11
5/1/2022 8:30:00 PM 11.94 53.492 0.511 8.09 3.93 10.98
5/1/2022 8:45:00 PM 11.9 53.42 0.51 8.08 2.46 10.86
5/1/2022 9:00:00 PM 11.86 53.348 0.511 8.05 2.4 10.69
5/1/2022 9:15:00 PM 11.82 53.276 0.511 8.03 2.5 10.57
5/1/2022 9:30:00 PM 11.78 53.204 0.511 8.02 2.47 10.45
5/1/2022 9:45:00 PM 11.74 53.132 0.513 7.98 3.96 10.3
5/1/2022 10:00:00 PM 11.71 53.078 0.512 7.98 2.57 10.2
5/1/2022 10:15:00 PM 11.68 53.024 0.513 7.96 4.06 10.09
5/1/2022 10:30:00 PM 11.65 52.97 0.512 7.94 2.55 9.96
5/1/2022 10:45:00 PM 11.63 52.934 0.396 7.93 4.27 9.89
5/1/2022 11:00:00 PM 11.61 52.898 0.513 7.91 2.49 9.79
5/1/2022 11:15:00 PM 11.59 52.862 0.513 7.9 3.52 9.71
5/1/2022 11:30:00 PM 11.58 52.844 0.513 7.89 2.91 9.63
5/1/2022 11:45:00 PM 11.57 52.826 0.514 7.87 2.84 9.55
5/2/2022 12:00:00 AM 11.55 52.79 0.515 7.86 3.27 9.48
5/2/2022 12:15:00 AM 11.54 52.772 0.514 7.85 2.49 9.43
5/2/2022 12:30:00 AM 11.52 52.736 0.514 7.84 3.98 9.37
5/2/2022 12:45:00 AM 11.51 52.718 0.515 7.84 2.73 9.32
5/2/2022 1:00:00 AM 11.49 52.682 0.515 7.82 2.55 9.26
5/2/2022 1:15:00 AM 11.47 52.646 0.515 7.81 2.93 9.22
5/2/2022 1:30:00 AM 11.46 52.628 0.515 7.81 2.58 9.18
5/2/2022 1:45:00 AM 11.44 52.592 0.514 7.8 4.33 9.12
5/2/2022 2:00:00 AM 11.41 52.538 0.514 7.79 2.47 9.1
5/2/2022 2:15:00 AM 11.38 52.484 0.515 7.78 2.78 9.06
5/2/2022 2:30:00 AM 11.36 52.448 0.385 7.78 3.9 9.04
5/2/2022 2:45:00 AM 11.32 52.376 0.514 7.77 2.63 9.03
5/2/2022 3:00:00 AM 11.29 52.322 0.514 7.77 2.46 9.01
5/2/2022 3:15:00 AM 11.26 52.268 0.515 7.76 3.93 8.99
5/2/2022 3:30:00 AM 11.23 52.214 0.515 7.76 4.12 8.99
5/2/2022 3:45:00 AM 11.2 52.16 0.515 7.75 4.01 8.97
5/2/2022 4:00:00 AM 11.18 52.124 0.515 7.75 2.37 9
5/2/2022 4:15:00 AM 11.15 52.07 0.516 7.74 3.02 8.98
5/2/2022 4:30:00 AM 11.12 52.016 0.516 7.75 2.6 8.98
5/2/2022 4:45:00 AM 11.1 51.98 0.396 7.74 4.03 8.99
5/2/2022 5:00:00 AM 11.07 51.926 0.518 7.74 3.95 8.98
5/2/2022 5:15:00 AM 11.05 51.89 0.519 7.74 2.56 8.97
5/2/2022 5:30:00 AM 11.02 51.836 0.52 7.73 2.54 8.98
5/2/2022 5:45:00 AM 11 51.8 0.52 7.73 2.77 8.98
5/2/2022 6:00:00 AM 10.98 51.764 0.521 7.73 2.79 8.96
5/2/2022 6:15:00 AM 10.96 51.728 0.52 7.72 2.85 8.93
5/2/2022 6:30:00 AM 10.95 51.71 0.52 7.72 2.57 8.92
5/2/2022 6:45:00 AM 10.93 51.674 0.521 7.72 4.91 8.94
5/2/2022 7:00:00 AM 10.92 51.656 0.52 7.72 2.65 8.97
5/2/2022 7:15:00 AM 10.92 51.656 0.522 7.71 13.52 8.92
5/2/2022 7:30:00 AM 10.92 51.656 0.52 7.72 8.1 9.05
5/2/2022 7:45:00 AM 10.93 51.674 0.521 7.72 4.3 9.15
5/2/2022 8:00:00 AM 10.93 51.674 0.52 7.73 3.32 9.21
5/2/2022 8:15:00 AM 10.95 51.71 0.52 7.75 2.24 9.35
5/2/2022 8:30:00 AM 10.99 51.782 0.519 7.75 7.88 9.5
5/2/2022 8:45:00 AM 11.02 51.836 0.52 7.76 9.21 9.6
5/2/2022 9:00:00 AM 11.07 51.926 0.52 7.78 2.63 9.77
5/2/2022 9:15:00 AM 11.11 51.998 0.52 7.79 2.57 9.87
5/2/2022 9:30:00 AM 11.14 52.052 0.52 7.79 2.67 10
5/2/2022 9:45:00 AM 11.15 52.07 0.52 7.81 6.76 10.02
5/2/2022 10:00:00 AM 11.16 52.088 0.523 7.82 4.37 10.24
5/2/2022 10:15:00 AM 11.23 52.214 0.52 7.83 2.35 10.36
5/2/2022 10:30:00 AM 11.34 52.412 0.52 7.85 2.51 10.54
5/2/2022 10:45:00 AM 11.41 52.538 0.521 7.85 2.86 10.71
5/2/2022 11:00:00 AM 11.53 52.754 0.52 7.89 2.45 10.94
5/2/2022 11:15:00 AM 11.78 53.204 0.52 7.9 2.57 11.13
5/2/2022 11:30:00 AM 12.04 53.672 0.519 7.91 2.45 11.27
5/2/2022 11:45:00 AM 12.15 53.87 0.518 7.94 2.99 11.4
5/2/2022 12:00:00 PM 12.27 54.086 0.518 7.95 3.85 11.55
5/2/2022 12:15:00 PM 12.22 53.996 0.518 7.96 2.41 11.48
5/2/2022 12:30:00 PM 12.17 53.906 0.517 7.95 8.39 11.42
5/2/2022 12:45:00 PM 12.15 53.87 0.516 7.98 3.21 11.61
5/2/2022 1:00:00 PM 12.15 53.87 0.362 8.01 4.25 11.75
5/2/2022 1:15:00 PM 12.16 53.888 0.515 8.02 2.66 11.8
5/2/2022 1:30:00 PM 12.17 53.906 0.515 8.04 2.6 11.87
5/2/2022 1:45:00 PM 12.19 53.942 0.515 8.05 2.82 11.88
5/2/2022 2:00:00 PM 12.24 54.032 0.381 8.06 4.24 11.97
5/2/2022 2:15:00 PM 12.3 54.14 0.516 8.07 8.27 11.98
5/2/2022 2:30:00 PM 12.36 54.248 0.515 8.08 3.83 12.03
5/2/2022 2:45:00 PM 12.44 54.392 0.517 8.1 2.63 12.12
5/2/2022 3:00:00 PM 12.6 54.68 0.515 8.13 2.65 12.17
5/2/2022 3:15:00 PM 12.77 54.986 0.355 8.13 3.88 12.3
5/2/2022 3:30:00 PM 12.78 55.004 0.516 8.14 2.45 12.32
5/2/2022 3:45:00 PM 12.79 55.022 0.516 8.16 2.57 12.31
5/2/2022 4:00:00 PM 12.82 55.076 0.515 8.17 4.71 12.42
5/2/2022 4:15:00 PM 12.86 55.148 0.38 8.19 4.24 12.42
5/2/2022 4:30:00 PM 12.91 55.238 0.515 8.2 2.74 12.45
5/2/2022 4:45:00 PM 12.91 55.238 0.515 8.21 2.93 12.4
5/2/2022 5:00:00 PM 12.9 55.22 0.515 8.2 3.18 12.33
5/2/2022 5:15:00 PM 12.93 55.274 0.515 8.2 2.84 12.35
5/2/2022 5:30:00 PM 12.98 55.364 0.515 8.23 3.64 12.4
5/2/2022 5:45:00 PM 12.99 55.382 0.351 8.22 3.69 12.32
5/2/2022 6:00:00 PM 12.98 55.364 0.39 8.22 3.69 12.21
5/2/2022 6:15:00 PM 12.96 55.328 0.513 8.21 3.74 12.09
5/2/2022 6:30:00 PM 12.92 55.256 0.513 8.2 2.07 11.98
5/2/2022 6:45:00 PM 12.89 55.202 0.514 8.19 3.71 11.91
5/2/2022 7:00:00 PM 12.87 55.166 0.513 8.19 3.47 11.88
5/2/2022 7:15:00 PM 12.84 55.112 0.513 8.18 2.21 11.73
5/2/2022 7:30:00 PM 12.81 55.058 0.513 8.17 2.12 11.64
5/2/2022 7:45:00 PM 12.79 55.022 0.513 8.16 3.53 11.53
5/2/2022 8:00:00 PM 12.78 55.004 0.514 8.15 2.21 11.42
5/2/2022 8:15:00 PM 12.77 54.986 0.514 8.14 2.43 11.33
5/2/2022 8:30:00 PM 12.75 54.95 0.514 8.13 3.78 11.2
5/2/2022 8:45:00 PM 12.73 54.914 0.514 8.11 2.29 11.03
5/2/2022 9:00:00 PM 12.71 54.878 0.514 8.09 3.69 10.9
5/2/2022 9:15:00 PM 12.68 54.824 0.514 8.08 2.27 10.71
5/2/2022 9:30:00 PM 12.66 54.788 0.514 8.07 2.36 10.63
5/2/2022 9:45:00 PM 12.63 54.734 0.514 8.05 2.38 10.49
5/2/2022 10:00:00 PM 12.61 54.698 0.515 8.03 2.24 10.38
5/2/2022 10:15:00 PM 12.58 54.644 0.515 8.02 2.37 10.27
5/2/2022 10:30:00 PM 12.55 54.59 0.515 8 2.25 10.16
5/2/2022 10:45:00 PM 12.52 54.536 0.516 7.98 3.88 10
5/2/2022 11:00:00 PM 12.48 54.464 0.516 7.96 4.16 9.87
5/2/2022 11:15:00 PM 12.45 54.41 0.517 7.94 2.88 9.76
5/2/2022 11:30:00 PM 12.42 54.356 0.536 7.92 4.02 9.66
5/2/2022 11:45:00 PM 12.37 54.266 0.371 7.9 3.91 9.55
5/3/2022 12:00:00 AM 12.33 54.194 0.518 7.89 2.63 9.47
5/3/2022 12:15:00 AM 12.29 54.122 0.369 7.87 3.79 9.37
5/3/2022 12:30:00 AM 12.24 54.032 0.519 7.86 2.33 9.3
5/3/2022 12:45:00 AM 12.2 53.96 0.402 7.85 3.99 9.23
5/3/2022 1:00:00 AM 12.15 53.87 0.52 7.84 2.96 9.14
5/3/2022 1:15:00 AM 12.11 53.798 0.52 7.82 2.69 9.11
5/3/2022 1:30:00 AM 12.07 53.726 0.402 7.81 4.12 9.06
5/3/2022 1:45:00 AM 12.03 53.654 0.52 7.81 2.69 9.01
5/3/2022 2:00:00 AM 11.98 53.564 0.52 7.8 2.77 8.99
5/3/2022 2:15:00 AM 11.93 53.474 0.521 7.79 2.58 8.96
5/3/2022 2:30:00 AM 11.88 53.384 0.521 7.78 2.47 8.94
5/3/2022 2:45:00 AM 11.84 53.312 0.52 7.78 3.82 8.93
5/3/2022 3:00:00 AM 11.8 53.24 0.521 7.77 3.87 8.92
5/3/2022 3:15:00 AM 11.76 53.168 0.521 7.77 2.51 8.86
5/3/2022 3:30:00 AM 11.7 53.06 0.52 7.76 2.61 8.9
5/3/2022 3:45:00 AM 11.64 52.952 0.52 7.76 2.62 8.9
5/3/2022 4:00:00 AM 11.58 52.844 0.52 7.75 2.52 8.89
5/3/2022 4:15:00 AM 11.51 52.718 0.519 7.75 3.93 8.91
5/3/2022 4:30:00 AM 11.45 52.61 0.518 7.75 2.83 8.92
5/3/2022 4:45:00 AM 11.38 52.484 0.403 7.75 3.98 8.93
5/3/2022 5:00:00 AM 11.31 52.358 0.517 7.74 2.62 8.93
5/3/2022 5:15:00 AM 11.25 52.25 0.38 7.74 3.99 8.95
5/3/2022 5:30:00 AM 11.18 52.124 0.517 7.74 2.46 8.96
5/3/2022 5:45:00 AM 11.11 51.998 0.517 7.74 4.02 8.98
5/3/2022 6:00:00 AM 11.06 51.908 0.516 7.74 2.43 8.97
5/3/2022 6:15:00 AM 11.01 51.818 0.404 7.73 4.32 8.97
5/3/2022 6:30:00 AM 10.95 51.71 0.516 7.73 2.75 9.03
5/3/2022 6:45:00 AM 10.89 51.602 0.516 7.74 4.62 9.08
5/3/2022 7:00:00 AM 10.83 51.494 0.515 7.74 6.67 9.11
5/3/2022 7:15:00 AM 10.78 51.404 0.515 7.74 3.43 9.14
5/3/2022 7:30:00 AM 10.73 51.314 0.388 7.74 5.54 9.26
5/3/2022 7:45:00 AM 10.71 51.278 0.514 7.75 4.92 9.33
5/3/2022 8:00:00 AM 10.68 51.224 0.514 7.76 2.98 9.48
5/3/2022 8:15:00 AM 10.66 51.188 0.513 7.76 4.24 9.58
5/3/2022 8:30:00 AM 10.67 51.206 0.232 7.78 3.92 9.75
5/3/2022 8:45:00 AM 10.7 51.26 0.51 7.79 2.89 9.88
5/3/2022 9:00:00 AM 10.72 51.296 0.509 7.8 2.68 10.05
5/3/2022 9:15:00 AM 10.74 51.332 0.507 7.81 2.37 10.21
5/3/2022 9:30:00 AM 10.81 51.458 0.505 7.82 2.87 10.36
5/3/2022 9:45:00 AM 10.91 51.638 0.503 7.83 3.92 10.58
5/3/2022 10:00:00 AM 11 51.8 0.5 7.85 2.44 10.78
5/3/2022 10:15:00 AM 11.05 51.89 0.498 7.86 6.23 10.92
5/3/2022 10:30:00 AM 11.17 52.106 0.497 7.89 3.59 11.06
5/3/2022 10:45:00 AM 11.29 52.322 0.495 7.91 2.55 11.36
5/3/2022 11:00:00 AM 11.46 52.628 0.494 7.93 2.49 11.55
5/3/2022 11:15:00 AM 11.67 53.006 0.387 7.95 4.11 11.74
5/3/2022 11:30:00 AM 11.85 53.33 0.492 7.97 2.45 11.92
5/3/2022 11:45:00 AM 12.07 53.726 0.491 8 2.74 12.15
5/3/2022 12:00:00 PM 12.24 54.032 0.49 8.02 2.56 12.26
5/3/2022 12:15:00 PM 12.4 54.32 0.49 8.05 2.73 12.54
5/3/2022 12:30:00 PM 12.52 54.536 0.489 8.08 3.14 12.65
5/3/2022 12:45:00 PM 12.59 54.662 0.371 8.1 4.71 12.82
5/3/2022 1:00:00 PM 12.68 54.824 0.488 8.13 2.36 12.92
5/3/2022 1:15:00 PM 12.78 55.004 0.488 8.15 2.99 12.98
5/3/2022 1:30:00 PM 12.91 55.238 0.487 8.18 4.3 13.19
5/3/2022 1:45:00 PM 13.08 55.544 0.487 8.21 4.35 13.31
5/3/2022 2:00:00 PM 13.24 55.832 0.357 8.24 5.33 13.42
5/3/2022 2:15:00 PM 13.39 56.102 0.358 8.27 3.81 13.55
5/3/2022 2:30:00 PM 13.51 56.318 0.485 8.29 3.62 13.6
5/3/2022 2:45:00 PM 13.6 56.48 0.278 8.31 3.69 13.64
5/3/2022 3:00:00 PM 13.65 56.57 0.486 8.31 3.88 13.56
5/3/2022 3:15:00 PM 13.72 56.696 0.487 8.33 3.76 13.63
5/3/2022 3:30:00 PM 13.76 56.768 0.486 8.35 2.25 13.51
5/3/2022 3:45:00 PM 13.81 56.858 0.386 8.35 4.37 13.57
5/3/2022 4:00:00 PM 13.86 56.948 0.489 8.35 3.78 13.46
5/3/2022 4:15:00 PM 13.92 57.056 0.487 8.38 2.38 13.47
5/3/2022 4:30:00 PM 13.96 57.128 0.374 8.37 3.82 13.35
5/3/2022 4:45:00 PM 13.99 57.182 0.49 8.38 2.36 13.07
5/3/2022 5:00:00 PM 14.01 57.218 0.487 8.38 2.36 13.21
5/3/2022 5:15:00 PM 14.01 57.218 0.487 8.37 3.77 13.07
5/3/2022 5:30:00 PM 14.01 57.218 0.488 8.38 3.76 13.03
5/3/2022 5:45:00 PM 14.04 57.272 0.487 8.4 3.29 12.98
5/3/2022 6:00:00 PM 14.05 57.29 0.36 8.4 3.66 12.96
5/3/2022 6:15:00 PM 14.03 57.254 0.488 8.38 3.61 12.79
5/3/2022 6:30:00 PM 14.01 57.218 0.488 8.37 2.32 12.59
5/3/2022 6:45:00 PM 14 57.2 0.489 8.35 3.26 12.49
5/3/2022 7:00:00 PM 13.99 57.182 0.488 8.36 2.21 12.41
5/3/2022 7:15:00 PM 13.98 57.164 0.489 8.35 2.27 12.25
5/3/2022 7:30:00 PM 13.96 57.128 0.489 8.34 2.14 12
5/3/2022 7:45:00 PM 13.93 57.074 0.49 8.31 3.58 11.88
5/3/2022 8:00:00 PM 13.91 57.038 0.489 8.29 3.59 11.71
5/3/2022 8:15:00 PM 13.89 57.002 0.49 8.29 2.17 11.55
5/3/2022 8:30:00 PM 13.87 56.966 0.49 8.26 2.43 11.39
5/3/2022 8:45:00 PM 13.85 56.93 0.491 8.24 2.37 11.14
5/3/2022 9:00:00 PM 13.82 56.876 0.379 8.21 3.77 11.02
5/3/2022 9:15:00 PM 13.79 56.822 0.337 8.19 4.11 10.84
5/3/2022 9:30:00 PM 13.76 56.768 0.49 8.17 4.38 10.66
5/3/2022 9:45:00 PM 13.73 56.714 0.49 8.14 4.12 10.49
5/3/2022 10:00:00 PM 13.7 56.66 0.491 8.12 2.85 10.26
5/3/2022 10:15:00 PM 13.68 56.624 0.387 8.09 4.12 10.19
5/3/2022 10:30:00 PM 13.66 56.588 0.374 8.07 4.34 10.06
5/3/2022 10:45:00 PM 13.63 56.534 0.228 8.05 4.34 9.91
5/3/2022 11:00:00 PM 13.62 56.516 0.362 8.03 4.52 9.77
5/3/2022 11:15:00 PM 13.59 56.462 0.493 8.01 3.28 9.63
5/3/2022 11:30:00 PM 13.57 56.426 0.495 7.98 4.42 9.52
5/3/2022 11:45:00 PM 13.55 56.39 0.495 7.96 4.7 9.42
5/4/2022 12:00:00 AM 13.52 56.336 0.495 7.94 3.35 9.29
5/4/2022 12:15:00 AM 13.49 56.282 0.495 7.92 4.34 9.19
5/4/2022 12:30:00 AM 13.46 56.228 0.496 7.9 4.35 9.07
5/4/2022 12:45:00 AM 13.44 56.192 0.497 7.89 4.12 8.96
5/4/2022 1:00:00 AM 13.41 56.138 0.498 7.87 4.24 8.86
5/4/2022 1:15:00 AM 13.38 56.084 0.498 7.85 3.09 8.77
5/4/2022 1:30:00 AM 13.35 56.03 0.498 7.84 3.18 8.69
5/4/2022 1:45:00 AM 13.32 55.976 0.499 7.82 4.17 8.63
5/4/2022 2:00:00 AM 13.3 55.94 0.31 7.81 4.43 8.58
5/4/2022 2:15:00 AM 13.27 55.886 0.499 7.8 4.08 8.53
5/4/2022 2:30:00 AM 13.23 55.814 0.381 7.78 4.2 8.47
5/4/2022 2:45:00 AM 13.2 55.76 0.5 7.78 2.78 8.43
5/4/2022 3:00:00 AM 13.17 55.706 0.501 7.77 4.08 8.41
5/4/2022 3:15:00 AM 13.13 55.634 0.501 7.76 4.23 8.37
5/4/2022 3:30:00 AM 13.1 55.58 0.502 7.75 2.97 8.34
5/4/2022 3:45:00 AM 13.07 55.526 0.502 7.75 2.9 8.33
5/4/2022 4:00:00 AM 13.04 55.472 0.503 7.74 3.98 8.33
5/4/2022 4:15:00 AM 13.01 55.418 0.503 7.74 2.68 8.33
5/4/2022 4:30:00 AM 12.98 55.364 0.504 7.73 2.59 8.29
5/4/2022 4:45:00 AM 12.95 55.31 0.504 7.73 2.68 8.3
5/4/2022 5:00:00 AM 12.91 55.238 0.396 7.73 4.01 8.31
5/4/2022 5:15:00 AM 12.88 55.184 0.505 7.72 2.7 8.28
5/4/2022 5:30:00 AM 12.84 55.112 0.505 7.72 3.93 8.31
5/4/2022 5:45:00 AM 12.81 55.058 0.506 7.72 2.62 8.31
5/4/2022 6:00:00 AM 12.78 55.004 0.506 7.72 2.66 8.3
5/4/2022 6:15:00 AM 12.75 54.95 0.507 7.72 2.57 8.3
5/4/2022 6:30:00 AM 12.71 54.878 0.508 7.72 2.73 8.31
5/4/2022 6:45:00 AM 12.68 54.824 0.508 7.71 2.86 8.3
5/4/2022 7:00:00 AM 12.66 54.788 0.509 7.71 3.37 8.25
5/4/2022 7:15:00 AM 12.63 54.734 0.51 7.71 3.26 8.28
5/4/2022 7:30:00 AM 12.61 54.698 0.51 7.72 2.7 8.38
5/4/2022 7:45:00 AM 12.58 54.644 0.51 7.72 2.72 8.48
5/4/2022 8:00:00 AM 12.56 54.608 0.51 7.71 3 8.44
5/4/2022 8:15:00 AM 12.54 54.572 0.509 7.72 4.35 8.56
5/4/2022 8:30:00 AM 12.53 54.554 0.509 7.73 2.86 8.67
5/4/2022 8:45:00 AM 12.51 54.518 0.51 7.74 5.34 8.71
5/4/2022 9:00:00 AM 12.5 54.5 0.51 7.73 3.51 8.76
5/4/2022 9:15:00 AM 12.5 54.5 0.38 7.75 4.19 8.91
5/4/2022 9:30:00 AM 12.5 54.5 0.322 7.76 4.21 9.02
5/4/2022 9:45:00 AM 12.5 54.5 0.51 7.77 2.91 9.17
5/4/2022 10:00:00 AM 12.52 54.536 0.511 7.78 2.88 9.32
5/4/2022 10:15:00 AM 12.53 54.554 0.511 7.79 4.31 9.49
5/4/2022 10:30:00 AM 12.57 54.626 0.513 7.81 3.06 9.65
5/4/2022 10:45:00 AM 12.61 54.698 0.512 7.81 3.85 9.81
5/4/2022 11:00:00 AM 12.71 54.878 0.298 7.85 4 10.15
5/4/2022 11:15:00 AM 12.77 54.986 0.248 7.86 4.53 10.28
5/4/2022 11:30:00 AM 12.85 55.13 0.511 7.88 4.01 10.49
5/4/2022 11:45:00 AM 12.94 55.292 0.51 7.91 2.73 10.69
5/4/2022 12:00:00 PM 13.13 55.634 0.509 7.93 2.68 10.88
5/4/2022 12:15:00 PM 13.39 56.102 0.508 7.95 3.7 11.19
5/4/2022 12:30:00 PM 13.56 56.408 0.507 7.97 4.23 11.37
5/4/2022 12:45:00 PM 13.68 56.624 0.506 8 3.88 11.56
5/4/2022 1:00:00 PM 13.67 56.606 0.506 8.02 2.55 11.59
5/4/2022 1:15:00 PM 13.67 56.606 0.504 8.03 3.23 11.59
5/4/2022 1:30:00 PM 13.71 56.678 0.499 8.05 7.06 11.65
5/4/2022 1:45:00 PM 13.77 56.786 0.501 8.06 7.25 11.76
5/4/2022 2:00:00 PM 13.87 56.966 0.354 8.1 6.26 12
5/4/2022 2:15:00 PM 14.08 57.344 0.502 8.11 6.19 12.16
5/4/2022 2:30:00 PM 14.22 57.596 0.503 8.11 5.23 12.2
5/4/2022 2:45:00 PM 14.27 57.686 0.502 8.14 4.77 12.33
5/4/2022 3:00:00 PM 14.31 57.758 0.375 8.17 4.62 12.45
5/4/2022 3:15:00 PM 14.32 57.776 0.503 8.19 4.39 12.51
5/4/2022 3:30:00 PM 14.39 57.902 0.502 8.21 2.93 12.56
5/4/2022 3:45:00 PM 14.37 57.866 0.566 8.21 4.04 12.64
5/4/2022 4:00:00 PM 14.31 57.758 0.371 8.23 3.96 12.57
5/4/2022 4:15:00 PM 14.27 57.686 0.503 8.24 4.19 12.54
5/4/2022 4:30:00 PM 14.25 57.65 0.503 8.25 5.77 12.51
5/4/2022 4:45:00 PM 14.23 57.614 0.506 8.23 4.17 12.35
5/4/2022 5:00:00 PM 14.21 57.578 0.508 8.25 2.82 12.34
5/4/2022 5:15:00 PM 14.17 57.506 0.51 8.24 4.14 12.25
5/4/2022 5:30:00 PM 14.12 57.416 0.512 8.25 3.01 12.12
5/4/2022 5:45:00 PM 14.06 57.308 0.515 8.21 5.23 11.86
5/4/2022 6:00:00 PM 14.01 57.218 0.516 8.22 2.88 11.8
5/4/2022 6:15:00 PM 13.94 57.092 0.518 8.21 5.01 11.63
5/4/2022 6:30:00 PM 13.87 56.966 0.519 8.19 2.98 11.5
5/4/2022 6:45:00 PM 13.8 56.84 0.52 8.17 2.5 11.36
5/4/2022 7:00:00 PM 13.74 56.732 0.521 8.14 2.67 11.19
5/4/2022 7:15:00 PM 13.67 56.606 0.52 8.13 4.05 11.04
5/4/2022 7:30:00 PM 13.61 56.498 0.52 8.12 5.88 10.88
5/4/2022 7:45:00 PM 13.54 56.372 0.518 8.11 5.25 10.77
5/4/2022 8:00:00 PM 13.48 56.264 0.518 8.09 3.37 10.59
5/4/2022 8:15:00 PM 13.42 56.156 0.578 8.07 4.19 10.49
5/4/2022 8:30:00 PM 13.36 56.048 0.516 8.05 4.19 10.33
5/4/2022 8:45:00 PM 13.29 55.922 0.514 8.04 5.24 10.27
5/4/2022 9:00:00 PM 13.22 55.796 0.386 8.03 4.86 10.17
5/4/2022 9:15:00 PM 13.16 55.688 0.511 8.01 4.53 10.05
5/4/2022 9:30:00 PM 13.1 55.58 0.51 7.99 2.58 9.92
5/4/2022 9:45:00 PM 13.05 55.49 0.509 7.96 2.76 9.77
5/4/2022 10:00:00 PM 13 55.4 0.389 7.95 4.71 9.68
5/4/2022 10:15:00 PM 12.96 55.328 0.505 7.93 2.73 9.54
5/4/2022 10:30:00 PM 12.92 55.256 0.358 7.9 4.69 9.48
5/4/2022 10:45:00 PM 12.88 55.184 0.5 7.9 5.01 9.41
5/4/2022 11:00:00 PM 12.84 55.112 0.498 7.89 3.01 9.32
5/4/2022 11:15:00 PM 12.81 55.058 0.497 7.88 2.65 9.25
5/4/2022 11:30:00 PM 12.77 54.986 0.497 7.85 2.82 9.15
5/4/2022 11:45:00 PM 12.73 54.914 0.389 7.84 4.21 9.11
5/5/2022 12:00:00 AM 12.7 54.86 0.495 7.83 4.48 9.06
5/5/2022 12:15:00 AM 12.66 54.788 0.496 7.82 2.91 8.98
5/5/2022 12:30:00 AM 12.63 54.734 0.387 7.8 4.43 8.97
5/5/2022 12:45:00 AM 12.59 54.662 0.496 7.8 2.68 8.93
5/5/2022 1:00:00 AM 12.56 54.608 0.496 7.79 3.08 8.87
5/5/2022 1:15:00 AM 12.52 54.536 0.496 7.78 4.06 8.88
5/5/2022 1:30:00 AM 12.47 54.446 0.498 7.77 2.76 8.83
5/5/2022 1:45:00 AM 12.41 54.338 0.499 7.75 4.66 8.8
5/5/2022 2:00:00 AM 12.35 54.23 0.501 7.75 4.6 8.81
5/5/2022 2:15:00 AM 12.29 54.122 0.504 7.74 4.3 8.76
5/5/2022 2:30:00 AM 12.23 54.014 0.508 7.73 2.81 8.75
5/5/2022 2:45:00 AM 12.17 53.906 0.509 7.72 2.63 8.72
5/5/2022 3:00:00 AM 12.1 53.78 0.507 7.72 4.36 8.71
5/5/2022 3:15:00 AM 12.04 53.672 0.506 7.72 2.91 8.7
5/5/2022 3:30:00 AM 11.97 53.546 0.504 7.71 2.89 8.69
5/5/2022 3:45:00 AM 11.9 53.42 0.5 7.7 2.87 8.68
5/5/2022 4:00:00 AM 11.84 53.312 0.497 7.69 2.91 8.67
5/5/2022 4:15:00 AM 11.78 53.204 0.489 7.68 4.59 8.71
5/5/2022 4:30:00 AM 11.72 53.096 0.484 7.68 3.08 8.7
5/5/2022 4:45:00 AM 11.66 52.988 0.476 7.68 4.46 8.74
5/5/2022 5:00:00 AM 11.61 52.898 0.471 7.67 4.59 8.72
5/5/2022 5:15:00 AM 11.57 52.826 0.466 7.66 4.65 8.74
5/5/2022 5:30:00 AM 11.52 52.736 0.467 7.67 2.72 8.75
5/5/2022 5:45:00 AM 11.48 52.664 0.462 7.66 2.66 8.77
5/5/2022 6:00:00 AM 11.44 52.592 0.405 7.66 4.5 8.79
5/5/2022 6:15:00 AM 11.4 52.52 0.456 7.67 2.81 8.79
5/5/2022 6:30:00 AM 11.35 52.43 0.399 7.66 4.67 8.86
5/5/2022 6:45:00 AM 11.31 52.358 0.452 7.67 2.91 8.87
5/5/2022 7:00:00 AM 11.27 52.286 0.414 7.68 4.06 8.97
5/5/2022 7:15:00 AM 11.24 52.232 0.45 7.67 11.27 8.97
5/5/2022 7:30:00 AM 11.19 52.142 0.45 7.69 3.11 9.07
5/5/2022 7:45:00 AM 11.13 52.034 0.451 7.69 3.48 9.14
5/5/2022 8:00:00 AM 11.06 51.908 0.452 7.69 3.26 9.22
5/5/2022 8:15:00 AM 10.99 51.782 0.45 7.7 4.68 9.39
5/5/2022 8:30:00 AM 10.95 51.71 0.45 7.71 4.15 9.49
5/5/2022 8:45:00 AM 10.92 51.656 0.452 7.72 2.23 9.58
5/5/2022 9:00:00 AM 10.9 51.62 0.405 7.73 4.07 9.76
5/5/2022 9:15:00 AM 10.91 51.638 0.452 7.74 4.18 9.89
5/5/2022 9:30:00 AM 10.96 51.728 0.451 7.76 6.32 10.08
5/5/2022 9:45:00 AM 11.02 51.836 0.453 7.78 4.02 10.27
5/5/2022 10:00:00 AM 11.09 51.962 0.454 7.8 3.89 10.44
5/5/2022 10:15:00 AM 11.18 52.124 0.454 7.82 2.48 10.63
5/5/2022 10:30:00 AM 11.34 52.412 0.455 7.84 4.02 10.85
5/5/2022 10:45:00 AM 11.51 52.718 0.455 7.86 2.21 11.04
5/5/2022 11:00:00 AM 11.68 53.024 0.456 7.88 3.96 11.27
5/5/2022 11:15:00 AM 11.9 53.42 0.455 7.92 2.23 11.51
5/5/2022 11:30:00 AM 12.1 53.78 0.456 7.95 2.23 11.72
5/5/2022 11:45:00 AM 12.32 54.176 0.394 7.99 3.73 12
5/5/2022 12:00:00 PM 12.54 54.572 0.456 8.01 2.46 12.15
5/5/2022 12:15:00 PM 12.76 54.968 0.456 8.05 2.31 12.35
5/5/2022 12:30:00 PM 12.96 55.328 0.457 8.06 2.48 12.51
5/5/2022 12:45:00 PM 13.17 55.706 0.455 8.1 3.74 12.73
5/5/2022 1:00:00 PM 13.41 56.138 0.304 8.13 3.75 12.88
5/5/2022 1:15:00 PM 13.62 56.516 0.455 8.16 2.63 12.99
5/5/2022 1:30:00 PM 13.87 56.966 0.455 8.18 2.09 13.12
5/5/2022 1:45:00 PM 14.12 57.416 0.455 8.22 2.03 13.28
5/5/2022 2:00:00 PM 14.33 57.794 0.454 8.24 2.23 13.34
5/5/2022 2:15:00 PM 14.54 58.172 0.454 8.26 2.05 13.4
5/5/2022 2:30:00 PM 14.77 58.586 0.454 8.3 3.67 13.57
5/5/2022 2:45:00 PM 15.03 59.054 0.453 8.32 3.78 13.64
5/5/2022 3:00:00 PM 15.23 59.414 0.455 8.33 2.03 13.59
5/5/2022 3:15:00 PM 15.38 59.684 0.455 8.36 2.26 13.64
5/5/2022 3:30:00 PM 15.52 59.936 0.456 8.37 2.18 13.67
5/5/2022 3:45:00 PM 15.64 60.152 0.456 8.4 2.21 13.63
5/5/2022 4:00:00 PM 15.73 60.314 0.341 8.4 4.08 13.68
5/5/2022 4:15:00 PM 15.82 60.476 0.319 8.42 3.92 13.64
5/5/2022 4:30:00 PM 15.87 60.566 0.455 8.41 2.36 13.51
5/5/2022 4:45:00 PM 15.9 60.62 0.457 8.43 2.23 13.48
5/5/2022 5:00:00 PM 15.91 60.638 0.457 8.43 2.32 13.34
5/5/2022 5:15:00 PM 15.92 60.656 0.457 8.44 2.33 13.3
5/5/2022 5:30:00 PM 15.94 60.692 0.457 8.44 2.21 13.27
5/5/2022 5:45:00 PM 15.92 60.656 0.458 8.42 2.34 13.17
5/5/2022 6:00:00 PM 15.91 60.638 0.458 8.45 4.18 13.08
5/5/2022 6:15:00 PM 15.88 60.584 0.302 8.45 3.65 12.99
5/5/2022 6:30:00 PM 15.83 60.494 0.459 8.44 2.11 12.79
5/5/2022 6:45:00 PM 15.78 60.404 0.459 8.43 2.27 12.63
5/5/2022 7:00:00 PM 15.73 60.314 0.459 8.43 3.59 12.5
5/5/2022 7:15:00 PM 15.68 60.224 0.461 8.39 2.24 12.27
5/5/2022 7:30:00 PM 15.62 60.116 0.46 8.4 3.62 12.14
5/5/2022 7:45:00 PM 15.56 60.008 0.461 8.39 2.35 11.91
5/5/2022 8:00:00 PM 15.48 59.864 0.358 8.37 3.64 11.73
5/5/2022 8:15:00 PM 15.41 59.738 0.463 8.35 2.43 11.52
5/5/2022 8:30:00 PM 15.33 59.594 0.463 8.32 2.38 11.27
5/5/2022 8:45:00 PM 15.25 59.45 0.463 8.31 3.92 11.15
5/5/2022 9:00:00 PM 15.17 59.306 0.464 8.29 4.14 10.95
5/5/2022 9:15:00 PM 15.09 59.162 0.464 8.25 4.61 10.75
5/5/2022 9:30:00 PM 15 59 0.465 8.24 4.29 10.59
5/5/2022 9:45:00 PM 14.91 58.838 0.467 8.22 2.29 10.39
5/5/2022 10:00:00 PM 14.83 58.694 0.468 8.18 2.46 10.22
5/5/2022 10:15:00 PM 14.75 58.55 0.469 8.16 2.26 10.06
5/5/2022 10:30:00 PM 14.67 58.406 0.472 8.11 2.5 9.89
5/5/2022 10:45:00 PM 14.58 58.244 0.47 8.1 2.46 9.73
5/5/2022 11:00:00 PM 14.5 58.1 0.472 8.08 2.44 9.61
5/5/2022 11:15:00 PM 14.41 57.938 0.35 8.05 3.98 9.48
5/5/2022 11:30:00 PM 14.33 57.794 0.474 8.02 4.3 9.36
5/5/2022 11:45:00 PM 14.25 57.65 0.32 7.99 5 9.22
5/6/2022 12:00:00 AM 14.17 57.506 0.476 7.98 2.49 9.07
5/6/2022 12:15:00 AM 14.1 57.38 0.496 7.95 4.12 8.96
5/6/2022 12:30:00 AM 14.03 57.254 0.478 7.92 4.07 8.84
5/6/2022 12:45:00 AM 13.96 57.128 0.478 7.9 3.18 8.74
5/6/2022 1:00:00 AM 13.89 57.002 0.48 7.89 2.55 8.66
5/6/2022 1:15:00 AM 13.82 56.876 0.48 7.86 4.11 8.58
5/6/2022 1:30:00 AM 13.76 56.768 0.48 7.84 4.16 8.49
5/6/2022 1:45:00 AM 13.69 56.642 0.481 7.82 4.43 8.42
5/6/2022 2:00:00 AM 13.62 56.516 0.481 7.8 4.29 8.37
5/6/2022 2:15:00 AM 13.56 56.408 0.482 7.8 3.98 8.35
5/6/2022 2:30:00 AM 13.5 56.3 0.486 7.78 2.73 8.26
5/6/2022 2:45:00 AM 13.43 56.174 0.485 7.76 2.58 8.21
5/6/2022 3:00:00 AM 13.37 56.066 0.487 7.75 2.35 8.17
5/6/2022 3:15:00 AM 13.31 55.958 0.485 7.75 4.36 8.22
5/6/2022 3:30:00 AM 13.25 55.85 0.486 7.75 2.77 8.22
5/6/2022 3:45:00 AM 13.18 55.724 0.487 7.74 4.17 8.21
5/6/2022 4:00:00 AM 13.12 55.616 0.487 7.73 2.53 8.21
5/6/2022 4:15:00 AM 13.06 55.508 0.487 7.73 2.76 8.2
5/6/2022 4:30:00 AM 13 55.4 0.488 7.72 2.93 8.17
5/6/2022 4:45:00 AM 12.94 55.292 0.488 7.72 2.78 8.2
5/6/2022 5:00:00 AM 12.87 55.166 0.489 7.72 4.02 8.23
5/6/2022 5:15:00 AM 12.82 55.076 0.488 7.71 4.21 8.23
5/6/2022 5:30:00 AM 12.76 54.968 0.49 7.71 2.7 8.23
5/6/2022 5:45:00 AM 12.7 54.86 0.554 7.71 3.94 8.25
5/6/2022 6:00:00 AM 12.64 54.752 0.492 7.7 2.54 8.21
5/6/2022 6:15:00 AM 12.58 54.644 0.493 7.7 2.54 8.22
5/6/2022 6:30:00 AM 12.53 54.554 0.493 7.7 2.61 8.29
5/6/2022 6:45:00 AM 12.48 54.464 0.494 7.69 2.89 8.27
5/6/2022 7:00:00 AM 12.43 54.374 0.496 7.7 3.98 8.29
5/6/2022 7:15:00 AM 12.38 54.284 0.495 7.69 3.96 8.34
5/6/2022 7:30:00 AM 12.34 54.212 0.496 7.7 2.59 8.37
5/6/2022 7:45:00 AM 12.29 54.122 0.496 7.7 4 8.47
5/6/2022 8:00:00 AM 12.24 54.032 0.496 7.72 2.41 8.52
5/6/2022 8:15:00 AM 12.21 53.978 0.497 7.7 2.15 8.56
5/6/2022 8:30:00 AM 12.19 53.942 0.498 7.72 2.45 8.67
5/6/2022 8:45:00 AM 12.18 53.924 0.499 7.73 3.72 8.9
5/6/2022 9:00:00 AM 12.18 53.924 0.5 7.74 2.66 8.99
5/6/2022 9:15:00 AM 12.17 53.906 0.499 7.75 2.24 9.13
5/6/2022 9:30:00 AM 12.17 53.906 0.5 7.76 2.48 9.26
5/6/2022 9:45:00 AM 12.17 53.906 0.501 7.77 2.4 9.42
5/6/2022 10:00:00 AM 12.17 53.906 0.501 7.79 2.41 9.61
5/6/2022 10:15:00 AM 12.18 53.924 0.501 7.8 2.3 9.77
5/6/2022 10:30:00 AM 12.2 53.96 0.501 7.82 2.29 9.98
5/6/2022 10:45:00 AM 12.23 54.014 0.503 7.84 3.85 10.22
5/6/2022 11:00:00 AM 12.26 54.068 0.502 7.85 2.31 10.37
5/6/2022 11:15:00 AM 12.28 54.104 0.503 7.88 2.5 10.59
5/6/2022 11:30:00 AM 12.3 54.14 0.502 7.9 3.65 10.76
5/6/2022 11:45:00 AM 12.31 54.158 0.503 7.91 3.68 10.95
5/6/2022 12:00:00 PM 12.32 54.176 0.504 7.93 2.32 11.01
5/6/2022 12:15:00 PM 12.33 54.194 0.504 7.95 2.53 11.16
5/6/2022 12:30:00 PM 12.34 54.212 0.504 7.95 2.1 11.29
5/6/2022 12:45:00 PM 12.35 54.23 0.503 7.98 2.36 11.46
5/6/2022 1:00:00 PM 12.38 54.284 0.501 8.01 3.7 11.7
5/6/2022 1:15:00 PM 12.41 54.338 0.503 8.03 2.24 11.79
5/6/2022 1:30:00 PM 12.45 54.41 0.502 8.05 2.17 11.97
5/6/2022 1:45:00 PM 12.49 54.482 0.501 8.07 3.61 12.19
5/6/2022 2:00:00 PM 12.53 54.554 0.31 8.09 3.65 12.31
5/6/2022 2:15:00 PM 12.57 54.626 0.502 8.11 2.42 12.35
5/6/2022 2:30:00 PM 12.6 54.68 0.503 8.11 2.21 12.45
5/6/2022 2:45:00 PM 12.62 54.716 0.501 8.15 2.32 12.58
5/6/2022 3:00:00 PM 12.63 54.734 0.5 8.19 3.48 12.74
5/6/2022 3:15:00 PM 12.63 54.734 0.501 8.18 2.27 12.66
5/6/2022 3:30:00 PM 12.63 54.734 0.373 8.2 3.62 12.72
5/6/2022 3:45:00 PM 12.65 54.77 0.501 8.21 2.35 12.67
5/6/2022 4:00:00 PM 12.66 54.788 0.5 8.22 2.5 12.64
5/6/2022 4:15:00 PM 12.67 54.806 0.499 8.24 3.67 12.7
5/6/2022 4:30:00 PM 12.68 54.824 0.499 8.23 3.92 12.69
5/6/2022 4:45:00 PM 12.69 54.842 0.499 8.24 3.8 12.61
5/6/2022 5:00:00 PM 12.69 54.842 0.499 8.24 5.2 12.56
5/6/2022 5:15:00 PM 12.67 54.806 0.499 8.24 4.3 12.45
5/6/2022 5:30:00 PM 12.67 54.806 0.5 8.23 2.21 12.3
5/6/2022 5:45:00 PM 12.66 54.788 0.501 8.23 2.31 12.28
5/6/2022 6:00:00 PM 12.65 54.77 0.5 8.22 2.18 12.22
5/6/2022 6:15:00 PM 12.64 54.752 0.499 8.23 2.72 12.16
5/6/2022 6:30:00 PM 12.63 54.734 0.499 8.22 2.54 12.1
5/6/2022 6:45:00 PM 12.62 54.716 0.499 8.22 2.56 11.99
5/6/2022 7:00:00 PM 12.61 54.698 0.501 8.2 2.47 11.85
5/6/2022 7:15:00 PM 12.59 54.662 0.501 8.19 2.25 11.69
5/6/2022 7:30:00 PM 12.57 54.626 0.501 8.17 3.72 11.57
5/6/2022 7:45:00 PM 12.54 54.572 0.502 8.15 3.93 11.41
5/6/2022 8:00:00 PM 12.52 54.536 0.504 8.14 3.22 11.22
5/6/2022 8:15:00 PM 12.49 54.482 0.391 8.11 5.24 11.08
5/6/2022 8:30:00 PM 12.46 54.428 0.503 8.09 4.46 10.93
5/6/2022 8:45:00 PM 12.43 54.374 0.505 8.08 2.54 10.75
5/6/2022 9:00:00 PM 12.4 54.32 0.504 8.08 2.41 10.67
5/6/2022 9:15:00 PM 12.38 54.284 0.505 8.05 3.82 10.56
5/6/2022 9:30:00 PM 12.35 54.23 0.505 8.04 2.49 10.42
5/6/2022 9:45:00 PM 12.32 54.176 0.374 8.02 3.74 10.34
5/6/2022 10:00:00 PM 12.3 54.14 0.504 8.01 2.55 10.16
5/6/2022 10:15:00 PM 12.27 54.086 0.505 7.98 2.39 10.03
5/6/2022 10:30:00 PM 12.24 54.032 0.504 7.96 3.66 9.92
5/6/2022 10:45:00 PM 12.22 53.996 0.505 7.95 2.53 9.78
5/6/2022 11:00:00 PM 12.19 53.942 0.505 7.93 2.39 9.67
5/6/2022 11:15:00 PM 12.16 53.888 0.504 7.9 3.96 9.59
5/6/2022 11:30:00 PM 12.13 53.834 0.507 7.89 2.46 9.46
5/6/2022 11:45:00 PM 12.1 53.78 0.393 7.87 3.89 9.38
5/7/2022 12:00:00 AM 12.06 53.708 0.506 7.86 2.31 9.28
5/7/2022 12:15:00 AM 12.03 53.654 0.506 7.85 3.83 9.2
5/7/2022 12:30:00 AM 11.99 53.582 0.507 7.84 2.66 9.1
5/7/2022 12:45:00 AM 11.95 53.51 0.507 7.83 2.56 9.02
5/7/2022 1:00:00 AM 11.91 53.438 0.507 7.81 2.56 8.93
5/7/2022 1:15:00 AM 11.87 53.366 0.507 7.8 2.56 8.92
5/7/2022 1:30:00 AM 11.84 53.312 0.508 7.79 2.4 8.88
5/7/2022 1:45:00 AM 11.8 53.24 0.509 7.78 2.42 8.85
5/7/2022 2:00:00 AM 11.77 53.186 0.509 7.78 2.58 8.83
5/7/2022 2:15:00 AM 11.73 53.114 0.51 7.77 2.6 8.79
5/7/2022 2:30:00 AM 11.69 53.042 0.509 7.77 4.04 8.82
5/7/2022 2:45:00 AM 11.66 52.988 0.509 7.76 4.03 8.77
5/7/2022 3:00:00 AM 11.62 52.916 0.513 7.76 2.79 8.73
5/7/2022 3:15:00 AM 11.59 52.862 0.513 7.75 2.62 8.72
5/7/2022 3:30:00 AM 11.55 52.79 0.513 7.74 2.57 8.72
5/7/2022 3:45:00 AM 11.52 52.736 0.398 7.73 3.9 8.73
5/7/2022 4:00:00 AM 11.49 52.682 0.513 7.74 2.54 8.71
5/7/2022 4:15:00 AM 11.46 52.628 0.513 7.73 2.65 8.72
5/7/2022 4:30:00 AM 11.43 52.574 0.512 7.73 3.83 8.73
5/7/2022 4:45:00 AM 11.4 52.52 0.36 7.73 8.15 8.73
5/7/2022 5:00:00 AM 11.36 52.448 0.511 7.73 4.23 8.74
5/7/2022 5:15:00 AM 11.32 52.376 0.513 7.72 2.54 8.7
5/7/2022 5:30:00 AM 11.29 52.322 0.514 7.71 2.51 8.66
5/7/2022 5:45:00 AM 11.25 52.25 0.512 7.71 4.12 8.71
5/7/2022 6:00:00 AM 11.21 52.178 0.513 7.72 2.53 8.69
5/7/2022 6:15:00 AM 11.17 52.106 0.511 7.72 4.09 8.73
5/7/2022 6:30:00 AM 11.14 52.052 0.513 7.71 2.84 8.69
5/7/2022 6:45:00 AM 11.1 51.98 0.513 7.72 2.61 8.72
5/7/2022 7:00:00 AM 11.07 51.926 0.512 7.72 2.92 8.75
5/7/2022 7:15:00 AM 11.04 51.872 0.512 7.72 3.05 8.81
5/7/2022 7:30:00 AM 11.02 51.836 0.513 7.73 2.71 8.87
5/7/2022 7:45:00 AM 11 51.8 0.513 7.72 2.52 8.92
5/7/2022 8:00:00 AM 10.99 51.782 0.513 7.73 2.52 9.05
5/7/2022 8:15:00 AM 10.99 51.782 0.513 7.74 2.33 9.16
5/7/2022 8:30:00 AM 11.01 51.818 0.394 7.75 3.95 9.36
5/7/2022 8:45:00 AM 11.02 51.836 0.513 7.77 4.38 9.49
5/7/2022 9:00:00 AM 11.03 51.854 0.511 7.78 7.83 9.71
5/7/2022 9:15:00 AM 11.05 51.89 0.513 7.79 2.63 9.78
5/7/2022 9:30:00 AM 11.07 51.926 0.512 7.8 2.46 9.99
5/7/2022 9:45:00 AM 11.1 51.98 0.512 7.82 2.46 10.16
5/7/2022 10:00:00 AM 11.14 52.052 0.512 7.83 3.38 10.33
5/7/2022 10:15:00 AM 11.19 52.142 0.511 7.86 3.92 10.6
5/7/2022 10:30:00 AM